Darstellungsparameter: Aktuell verwendete Einstellungen:
Skalierung der Graphiken ... ?
xyx+y,   Skalierungsfaktor:      Skalierung: Modus: x, Faktor: 1
Darstellungszeitraum ... ?
Vom - - bis: - -   Zeitraum: 09.02.2004 - 08.08.2004
Min/Max/Avg-Anzeige ... ?
Zeige MMA aktuell
Zeige MMA Monat
Zeige MMA alles
Zeige --A aktuell
Zeige --A Monat
Zeige --A alles
Keine MMA-Anzeige
MMA:
Minimum Maximum Average (ber die Originaldaten)
MMA-Basis: 09.02.2004 - 08.08.2004
Quicknavigation für Darstellung... ?
Tage:      1T, 2T, 3T, 5T -1T -2T -3T -5T +1T +2T +3T +5T
Wochen: 1W, 2W, 3W -1W -2W -3W +1W +2W +3W
Monate: 1M, 3M, 6M -1M -3M -6M +1M +3M +6M
Jahre:    1J, 3J, 5J, 10J -1J -3J -5J -10J +1J +3J +5J +10J
Nutze für die Darstellung ... ?
Originaldaten oder Mittelwerte auf ...
Stundenbasis Tagesbasis Wochenbasis
Monatsbasis Jahresbasis      Datenbasis: Original-Daten
Darstellen als:
Statistik (Auto) Statistik J:M      Darstellung:
Zur Graphik,    zurück zur Übersicht aller Sensoren.
 
Tabellarische Datenbersicht: ?
 
Sensor: Nr:Datum:Temp:Feuchte:Taupunkt:
Aussen-T/F 1 09-02-2004 00:08:01 3.9 C 58 % -3.59 C
2 09-02-2004 00:20:01 3.8 C 57 % -3.92 C
3 09-02-2004 00:32:00 3.7 C 58 % -3.78 C
4 09-02-2004 00:44:00 3.7 C 57 % -4.01 C
5 09-02-2004 00:56:00 3.6 C 57 % -4.11 C
6 09-02-2004 01:08:58 3.6 C 57 % -4.11 C
7 09-02-2004 01:20:58 3.4 C 57 % -4.29 C
8 09-02-2004 01:32:01 3.6 C 56 % -4.34 C
9 09-02-2004 01:44:01 3.4 C 57 % -4.29 C
10 09-02-2004 01:56:01 3.4 C 57 % -4.29 C
11 09-02-2004 02:08:01 3.5 C 56 % -4.43 C
12 09-02-2004 02:20:01 3.4 C 56 % -4.53 C
13 09-02-2004 02:33:01 3.3 C 56 % -4.62 C
14 09-02-2004 02:45:01 3.3 C 56 % -4.62 C
15 09-02-2004 02:57:01 2.1 C 68 % -3.17 C
16 09-02-2004 03:09:01 2.3 C 67 % -3.18 C
17 09-02-2004 03:21:00 2.3 C 66 % -3.38 C
18 09-02-2004 03:33:01 2.4 C 63 % -3.91 C
19 09-02-2004 03:45:01 2.4 C 63 % -3.91 C
20 09-02-2004 03:57:01 2.1 C 66 % -3.57 C
21 09-02-2004 04:09:01 2.2 C 64 % -3.89 C
22 09-02-2004 04:21:01 2.4 C 61 % -4.34 C
23 09-02-2004 04:33:00 2.5 C 60 % -4.46 C
24 09-02-2004 04:45:00 2.3 C 58 % -5.1 C
25 09-02-2004 04:57:00 2.6 C 57 % -5.04 C
Sensor: Nr:Datum:Temp:Feuchte:Taupunkt:
Aussen-T/F 26 09-02-2004 05:09:58 2.8 C 57 % -4.86 C
27 09-02-2004 05:21:58 2.8 C 57 % -4.86 C
28 09-02-2004 05:33:01 2.5 C 56 % -5.37 C
29 09-02-2004 05:45:01 2.5 C 56 % -5.37 C
30 09-02-2004 05:57:01 2.4 C 56 % -5.46 C
31 09-02-2004 06:09:01 2.3 C 56 % -5.56 C
32 09-02-2004 06:21:01 2.3 C 57 % -5.32 C
33 09-02-2004 06:33:00 2.4 C 57 % -5.23 C
34 09-02-2004 06:45:00 2.2 C 57 % -5.42 C
35 09-02-2004 06:57:00 2.2 C 59 % -4.96 C
36 09-02-2004 07:09:58 2 C 62 % -4.5 C
37 09-02-2004 07:21:58 2.3 C 61 % -4.43 C
38 09-02-2004 07:33:01 2.5 C 60 % -4.46 C
39 09-02-2004 07:45:01 2.5 C 59 % -4.68 C
40 09-02-2004 07:57:01 2.6 C 59 % -4.59 C
41 09-02-2004 08:09:01 2.6 C 60 % -4.37 C
42 09-02-2004 08:21:01 2.6 C 60 % -4.37 C
43 09-02-2004 08:33:01 2.8 C 59 % -4.4 C
44 09-02-2004 08:45:01 2.8 C 59 % -4.4 C
45 09-02-2004 08:57:01 2.8 C 60 % -4.18 C
46 09-02-2004 09:09:01 3 C 58 % -4.44 C
47 09-02-2004 09:21:01 3.3 C 56 % -4.62 C
48 09-02-2004 09:33:00 3.3 C 56 % -4.62 C
49 09-02-2004 09:45:00 3.4 C 56 % -4.53 C
50 09-02-2004 09:57:00 3.4 C 56 % -4.53 C
Sensor: Nr:Datum:Temp:Feuchte:Taupunkt:
Aussen-T/F 51 09-02-2004 10:09:58 3.6 C 55 % -4.58 C
52 09-02-2004 10:21:58 3.8 C 55 % -4.39 C
53 09-02-2004 10:33:01 4.1 C 52 % -4.85 C
54 09-02-2004 10:45:01 4.3 C 52 % -4.67 C
55 09-02-2004 10:57:01 4.2 C 52 % -4.76 C
56 09-02-2004 11:09:01 4.3 C 51 % -4.92 C
57 09-02-2004 11:21:01 4.4 C 52 % -4.58 C
58 09-02-2004 11:33:00 4.3 C 53 % -4.42 C
59 09-02-2004 11:45:00 4.3 C 52 % -4.67 C
60 09-02-2004 11:57:00 4.6 C 51 % -4.65 C
61 09-02-2004 12:09:58 4.5 C 52 % -4.48 C
62 09-02-2004 12:21:58 4.4 C 55 % -3.83 C
63 09-02-2004 12:33:01 4.3 C 56 % -3.69 C
64 09-02-2004 12:45:01 4.3 C 54 % -4.17 C
65 09-02-2004 12:57:01 4.4 C 53 % -4.32 C
66 09-02-2004 13:09:01 4.6 C 52 % -4.39 C
67 09-02-2004 13:21:01 4.5 C 53 % -4.23 C
68 09-02-2004 13:33:01 4.3 C 54 % -4.17 C
69 09-02-2004 13:45:01 3.8 C 59 % -3.46 C
70 09-02-2004 13:57:01 3 C 70 % -1.92 C
71 09-02-2004 14:09:01 2.8 C 73 % -1.55 C
72 09-02-2004 14:21:01 2.4 C 76 % -1.39 C
73 09-02-2004 14:33:00 2.7 C 76 % -1.1 C
74 09-02-2004 14:45:00 3.1 C 74 % -1.07 C
75 09-02-2004 14:57:00 3.6 C 70 % -1.35 C
Sensor: Nr:Datum:Temp:Feuchte:Taupunkt:
Aussen-T/F 76 09-02-2004 15:09:58 3.3 C 68 % -2.03 C
77 09-02-2004 15:21:58 2.8 C 73 % -1.55 C
78 09-02-2004 15:33:01 2.8 C 75 % -1.18 C
79 09-02-2004 15:45:01 2.5 C 78 % -0.94 C
80 09-02-2004 15:57:01 2.4 C 79 % -0.86 C
81 09-02-2004 16:09:01 2.5 C 79 % -0.76 C
82 09-02-2004 16:21:01 2.9 C 78 % -0.55 C
83 09-02-2004 16:33:00 3 C 74 % -1.17 C
84 09-02-2004 16:45:00 3.2 C 70 % -1.73 C
85 09-02-2004 16:57:00 3.3 C 67 % -2.23 C
86 09-02-2004 17:09:58 3.3 C 67 % -2.23 C
87 09-02-2004 17:21:58 3.3 C 66 % -2.43 C
88 09-02-2004 17:33:01 3.2 C 65 % -2.73 C
89 09-02-2004 17:45:01 3 C 66 % -2.72 C
90 09-02-2004 17:57:01 3.2 C 65 % -2.73 C
91 09-02-2004 18:09:01 3.2 C 63 % -3.15 C
92 09-02-2004 18:21:01 3.1 C 62 % -3.46 C
93 09-02-2004 18:33:01 3.2 C 61 % -3.58 C
94 09-02-2004 18:45:01 3.2 C 61 % -3.58 C
95 09-02-2004 18:57:01 3.2 C 62 % -3.36 C
96 09-02-2004 19:09:01 3.1 C 62 % -3.46 C
97 09-02-2004 19:21:01 2.9 C 65 % -3.02 C
98 09-02-2004 19:33:00 2.9 C 66 % -2.81 C
99 09-02-2004 19:45:00 2.9 C 67 % -2.61 C
100 09-02-2004 19:57:00 2.9 C 66 % -2.81 C
Sensor: Nr:Datum:Temp:Feuchte:Taupunkt:
Aussen-T/F 101 09-02-2004 20:09:58 3 C 65 % -2.92 C
102 09-02-2004 20:21:58 3 C 65 % -2.92 C
103 09-02-2004 20:33:01 2.9 C 66 % -2.81 C
104 09-02-2004 20:45:01 3 C 63 % -3.34 C
105 09-02-2004 20:57:01 3 C 63 % -3.34 C
106 09-02-2004 21:09:01 3.1 C 62 % -3.46 C
107 09-02-2004 21:21:01 3.1 C 62 % -3.46 C
108 09-02-2004 21:32:59 3.1 C 62 % -3.46 C
109 09-02-2004 21:44:59 3 C 64 % -3.13 C
110 09-02-2004 21:56:59 3.1 C 63 % -3.24 C
111 09-02-2004 22:09:58 3 C 63 % -3.34 C
112 09-02-2004 22:21:58 3.1 C 62 % -3.46 C
113 09-02-2004 22:33:01 3.1 C 62 % -3.46 C
114 09-02-2004 22:45:01 3.1 C 63 % -3.24 C
115 09-02-2004 22:57:01 3 C 63 % -3.34 C
116 09-02-2004 23:09:01 3 C 63 % -3.34 C
117 09-02-2004 23:21:01 2.9 C 66 % -2.81 C
118 09-02-2004 23:33:01 2.6 C 69 % -2.5 C
119 09-02-2004 23:45:01 2.6 C 70 % -2.31 C
120 09-02-2004 23:57:01 2.6 C 70 % -2.31 C
121 10-02-2004 00:09:01 2.5 C 70 % -2.4 C
122 10-02-2004 00:21:01 2.4 C 70 % -2.5 C
123 10-02-2004 00:33:00 2.3 C 69 % -2.79 C
124 10-02-2004 00:45:00 2.3 C 69 % -2.79 C
125 10-02-2004 00:57:00 2.4 C 69 % -2.69 C
Sensor: Nr:Datum:Temp:Feuchte:Taupunkt:
Aussen-T/F 126 10-02-2004 01:09:58 2.3 C 70 % -2.59 C
127 10-02-2004 01:21:58 2 C 73 % -2.32 C
128 10-02-2004 01:33:01 1.7 C 77 % -1.89 C
129 10-02-2004 01:45:01 1.5 C 78 % -1.91 C
130 10-02-2004 01:57:01 1.4 C 80 % -1.66 C
131 10-02-2004 02:09:01 1.2 C 80 % -1.86 C
132 10-02-2004 02:21:01 1.3 C 81 % -1.59 C
133 10-02-2004 02:34:02 1.2 C 81 % -1.69 C
134 10-02-2004 02:46:02 1.1 C 81 % -1.79 C
135 10-02-2004 02:58:02 0.8 C 81 % -2.08 C
136 10-02-2004 03:10:02 0.6 C 81 % -2.28 C
137 10-02-2004 03:22:02 0.6 C 81 % -2.28 C
138 10-02-2004 03:34:00 0.9 C 80 % -2.15 C
139 10-02-2004 03:46:00 1.1 C 77 % -2.47 C
140 10-02-2004 03:58:00 1.3 C 76 % -2.45 C
141 10-02-2004 04:10:59 1.3 C 74 % -2.81 C
142 10-02-2004 04:22:59 1.4 C 74 % -2.71 C
143 10-02-2004 04:34:01 1.4 C 74 % -2.71 C
144 10-02-2004 04:46:01 1.5 C 74 % -2.62 C
145 10-02-2004 04:58:01 1.6 C 74 % -2.52 C
146 10-02-2004 05:10:01 1.6 C 73 % -2.7 C
147 10-02-2004 05:22:01 1.7 C 71 % -2.98 C
148 10-02-2004 05:34:00 1.6 C 72 % -2.89 C
149 10-02-2004 05:46:00 1.6 C 71 % -3.08 C
150 10-02-2004 05:58:00 1.5 C 71 % -3.17 C
Sensor: Nr:Datum:Temp:Feuchte:Taupunkt:
Aussen-T/F 151 10-02-2004 06:10:58 1.5 C 72 % -2.99 C
152 10-02-2004 06:22:58 1.3 C 72 % -3.18 C
153 10-02-2004 06:34:01 1.3 C 72 % -3.18 C
154 10-02-2004 06:46:01 1.2 C 72 % -3.27 C
155 10-02-2004 06:58:01 1.2 C 71 % -3.46 C
156 10-02-2004 07:10:01 1.1 C 71 % -3.56 C
157 10-02-2004 07:22:01 1.1 C 71 % -3.56 C
158 10-02-2004 07:34:01 1 C 72 % -3.47 C
159 10-02-2004 07:46:01 0.9 C 73 % -3.38 C
160 10-02-2004 07:58:01 0.6 C 74 % -3.49 C
161 10-02-2004 08:10:01 0.6 C 73 % -3.67 C
162 10-02-2004 08:22:01 0.6 C 73 % -3.67 C
163 10-02-2004 08:34:00 0.5 C 73 % -3.76 C
164 10-02-2004 08:46:00 0.7 C 72 % -3.76 C
165 10-02-2004 08:58:00 0.7 C 72 % -3.76 C
166 10-02-2004 09:10:59 0.8 C 71 % -3.85 C
167 10-02-2004 09:22:59 1 C 69 % -4.03 C
168 10-02-2004 09:34:01 1 C 69 % -4.03 C
169 10-02-2004 09:46:01 0.9 C 70 % -3.94 C
170 10-02-2004 09:58:01 0.9 C 69 % -4.13 C
171 10-02-2004 10:10:01 0.9 C 69 % -4.13 C
172 10-02-2004 10:22:01 0.9 C 70 % -3.94 C
173 10-02-2004 10:34:00 1.1 C 68 % -4.13 C
174 10-02-2004 10:46:00 1.5 C 67 % -3.95 C
175 10-02-2004 10:58:00 1.6 C 67 % -3.85 C
Sensor: Nr:Datum:Temp:Feuchte:Taupunkt:
Aussen-T/F 176 10-02-2004 11:10:58 2 C 66 % -3.67 C
177 10-02-2004 11:22:58 2.2 C 62 % -4.31 C
178 10-02-2004 11:34:01 2.5 C 59 % -4.68 C
179 10-02-2004 11:46:01 2.7 C 57 % -4.95 C
180 10-02-2004 11:58:01 3 C 55 % -5.14 C
181 10-02-2004 12:10:01 3.2 C 54 % -5.19 C
182 10-02-2004 12:22:01 3.4 C 53 % -5.25 C
183 10-02-2004 12:34:01 3.5 C 50 % -5.92 C
184 10-02-2004 12:46:01 3.8 C 48 % -6.18 C
185 10-02-2004 12:58:01 4 C 46 % -6.55 C
186 10-02-2004 13:10:01 4.1 C 46 % -6.46 C
187 10-02-2004 13:22:01 4.2 C 45 % -6.65 C
188 10-02-2004 13:34:00 4.4 C 45 % -6.47 C
189 10-02-2004 13:46:00 4.3 C 44 % -6.85 C
190 10-02-2004 13:58:00 4.4 C 44 % -6.76 C
191 10-02-2004 14:10:00 4.4 C 43 % -7.06 C
192 10-02-2004 14:22:59 4.2 C 43 % -7.24 C
193 10-02-2004 14:34:40 4.3 C 45 % -6.56 C
194 10-02-2004 14:46:40 4.2 C 45 % -6.65 C
195 10-02-2004 14:58:01 4 C 46 % -6.55 C
196 10-02-2004 15:10:01 4 C 45 % -6.84 C
197 10-02-2004 15:22:01 4 C 46 % -6.55 C
198 10-02-2004 15:34:01 4 C 47 % -6.27 C
199 10-02-2004 15:46:00 3.9 C 48 % -6.09 C
200 10-02-2004 15:58:00 3.9 C 49 % -5.82 C
Sensor: Nr:Datum:Temp:Feuchte:Taupunkt:
Aussen-T/F 201 10-02-2004 16:10:59 3.8 C 49 % -5.91 C
202 10-02-2004 16:22:58 3.8 C 50 % -5.65 C
203 10-02-2004 16:34:01 3.8 C 51 % -5.39 C
204 10-02-2004 16:46:01 3.7 C 52 % -5.22 C
205 10-02-2004 16:58:01 3.6 C 53 % -5.07 C
206 10-02-2004 17:10:02 3.5 C 54 % -4.91 C
207 10-02-2004 17:22:01 3.5 C 53 % -5.16 C
208 10-02-2004 17:34:01 3.4 C 54 % -5.01 C
209 10-02-2004 17:46:01 3.4 C 53 % -5.25 C
210 10-02-2004 17:58:01 3.3 C 54 % -5.1 C
211 10-02-2004 18:10:00 3.3 C 53 % -5.35 C
212 10-02-2004 18:22:59 3.4 C 53 % -5.25 C
213 10-02-2004 18:34:58 3.4 C 52 % -5.5 C
214 10-02-2004 18:46:01 3.4 C 52 % -5.5 C
215 10-02-2004 18:58:01 3.3 C 52 % -5.6 C
216 10-02-2004 19:10:01 3.3 C 52 % -5.6 C
217 10-02-2004 19:22:01 3.4 C 52 % -5.5 C
218 10-02-2004 19:34:01 3.4 C 52 % -5.5 C
219 10-02-2004 19:46:00 3.4 C 52 % -5.5 C
220 10-02-2004 19:58:00 3.3 C 53 % -5.35 C
221 10-02-2004 20:10:00 3.4 C 52 % -5.5 C
222 10-02-2004 20:22:59 3.4 C 53 % -5.25 C
223 10-02-2004 20:34:57 3.4 C 53 % -5.25 C
224 10-02-2004 20:46:01 3.4 C 54 % -5.01 C
225 10-02-2004 20:58:01 3.2 C 59 % -4.02 C
Sensor: Nr:Datum:Temp:Feuchte:Taupunkt:
Aussen-T/F 226 10-02-2004 21:10:01 2.9 C 65 % -3.02 C
227 10-02-2004 21:22:01 2.2 C 70 % -2.69 C
228 10-02-2004 21:34:01 1.6 C 76 % -2.16 C
229 10-02-2004 21:46:00 1.3 C 79 % -1.93 C
230 10-02-2004 21:58:00 1 C 81 % -1.88 C
231 10-02-2004 22:10:00 1 C 82 % -1.72 C
232 10-02-2004 22:22:58 1 C 83 % -1.55 C
233 10-02-2004 22:34:57 0.8 C 84 % -1.59 C
234 10-02-2004 22:46:01 1 C 84 % -1.39 C
235 10-02-2004 22:58:01 0.9 C 84 % -1.49 C
236 10-02-2004 23:10:01 1.1 C 84 % -1.29 C
237 10-02-2004 23:22:01 1.3 C 84 % -1.1 C
238 10-02-2004 23:34:01 1.4 C 84 % -1 C
239 10-02-2004 23:46:01 1.5 C 83 % -1.06 C
240 10-02-2004 23:58:01 1.5 C 83 % -1.06 C
241 11-02-2004 00:10:01 1.6 C 83 % -0.97 C
242 11-02-2004 00:22:01 1.7 C 83 % -0.87 C
243 11-02-2004 00:34:01 1.6 C 83 % -0.97 C
244 11-02-2004 00:46:00 1.7 C 83 % -0.87 C
245 11-02-2004 00:58:00 1.8 C 83 % -0.77 C
246 11-02-2004 01:10:00 1.9 C 83 % -0.67 C
247 11-02-2004 01:22:59 2 C 82 % -0.74 C
248 11-02-2004 01:34:57 2 C 82 % -0.74 C
249 11-02-2004 01:46:01 2.3 C 82 % -0.45 C
250 11-02-2004 01:58:01 2.3 C 82 % -0.45 C
Sensor: Nr:Datum:Temp:Feuchte:Taupunkt:
Aussen-T/F 251 11-02-2004 02:10:01 2.4 C 82 % -0.35 C
252 11-02-2004 02:22:01 2.3 C 83 % -0.28 C
253 11-02-2004 02:34:01 2.4 C 84 % -0.02 C
254 11-02-2004 02:47:01 2.5 C 84 % 0.08 C
255 11-02-2004 02:59:01 2.6 C 84 % 0.18 C
256 11-02-2004 03:11:00 2.7 C 84 % 0.27 C
257 11-02-2004 03:23:00 2.9 C 84 % 0.47 C
258 11-02-2004 03:35:01 3 C 83 % 0.4 C
259 11-02-2004 03:47:01 3.1 C 83 % 0.5 C
260 11-02-2004 03:59:01 3.1 C 84 % 0.67 C
261 11-02-2004 04:11:01 3.2 C 84 % 0.76 C
262 11-02-2004 04:23:00 3.3 C 85 % 1.03 C
263 11-02-2004 04:35:00 3.4 C 85 % 1.12 C
264 11-02-2004 04:47:01 3.4 C 85 % 1.12 C
265 11-02-2004 04:59:01 3.5 C 85 % 1.22 C
266 11-02-2004 05:11:01 3.6 C 86 % 1.48 C
267 11-02-2004 05:23:01 3.7 C 86 % 1.58 C
268 11-02-2004 05:35:00 3.7 C 86 % 1.58 C
269 11-02-2004 05:47:01 3.7 C 86 % 1.58 C
270 11-02-2004 05:59:01 3.7 C 87 % 1.74 C
271 11-02-2004 06:11:01 3.8 C 87 % 1.84 C
272 11-02-2004 06:23:01 3.9 C 88 % 2.1 C
273 11-02-2004 06:35:01 4 C 87 % 2.04 C
274 11-02-2004 06:47:00 4.1 C 87 % 2.14 C
275 11-02-2004 06:59:00 4.3 C 88 % 2.49 C
Sensor: Nr:Datum:Temp:Feuchte:Taupunkt:
Aussen-T/F 276 11-02-2004 07:11:00 4.3 C 88 % 2.49 C
277 11-02-2004 07:23:58 4.4 C 88 % 2.59 C
278 11-02-2004 07:35:57 4.5 C 88 % 2.69 C
279 11-02-2004 07:47:01 4.6 C 89 % 2.95 C
280 11-02-2004 07:59:01 4.7 C 89 % 3.05 C
281 11-02-2004 08:11:01 5.1 C 89 % 3.44 C
282 11-02-2004 08:23:01 5.4 C 89 % 3.74 C
283 11-02-2004 08:35:01 5.3 C 89 % 3.64 C
284 11-02-2004 08:47:00 5.4 C 90 % 3.89 C
285 11-02-2004 08:59:00 5.6 C 90 % 4.09 C
286 11-02-2004 09:11:59 5.9 C 90 % 4.39 C
287 11-02-2004 09:23:58 6.3 C 90 % 4.78 C
288 11-02-2004 09:35:57 6.7 C 90 % 5.18 C
289 11-02-2004 09:47:04 6.9 C 90 % 5.38 C
290 11-02-2004 09:59:01 7 C 89 % 5.31 C
291 11-02-2004 10:11:01 7.3 C 89 % 5.61 C
292 11-02-2004 10:23:01 7.4 C 88 % 5.55 C
293 11-02-2004 10:35:00 7.6 C 87 % 5.58 C
294 11-02-2004 10:47:01 7.5 C 86 % 5.31 C
295 11-02-2004 10:59:01 7.6 C 84 % 5.07 C
296 11-02-2004 11:11:01 7.6 C 83 % 4.9 C
297 11-02-2004 11:23:01 7.8 C 82 % 4.92 C
298 11-02-2004 11:35:01 8.1 C 79 % 4.68 C
299 11-02-2004 11:47:00 8.3 C 77 % 4.51 C
300 11-02-2004 11:59:00 8.5 C 76 % 4.52 C
Sensor: Nr:Datum:Temp:Feuchte:Taupunkt:
Aussen-T/F 301 11-02-2004 12:11:00 8.5 C 74 % 4.14 C
302 11-02-2004 12:23:58 8.5 C 73 % 3.95 C
303 11-02-2004 12:35:57 8.4 C 74 % 4.04 C
304 11-02-2004 12:47:01 8.3 C 75 % 4.14 C
305 11-02-2004 12:59:01 8 C 76 % 4.04 C
306 11-02-2004 13:11:01 7.8 C 78 % 4.21 C
307 11-02-2004 13:23:01 7.6 C 79 % 4.2 C
308 11-02-2004 13:35:01 7.5 C 81 % 4.46 C
309 11-02-2004 13:47:00 7.5 C 81 % 4.46 C
310 11-02-2004 13:59:00 7.5 C 81 % 4.46 C
311 11-02-2004 14:11:59 7.5 C 81 % 4.46 C
312 11-02-2004 14:23:58 7.5 C 80 % 4.28 C
313 11-02-2004 14:35:57 7.5 C 80 % 4.28 C
314 11-02-2004 14:47:01 7.5 C 79 % 4.1 C
315 11-02-2004 14:59:01 7.6 C 78 % 4.02 C
316 11-02-2004 15:11:01 7.6 C 78 % 4.02 C
317 11-02-2004 15:23:01 7.7 C 79 % 4.3 C
318 11-02-2004 15:35:00 7.7 C 79 % 4.3 C
319 11-02-2004 15:47:01 7.8 C 74 % 3.46 C
320 11-02-2004 15:59:01 7.7 C 74 % 3.37 C
321 11-02-2004 16:11:01 7.6 C 74 % 3.27 C
322 11-02-2004 16:23:01 7.7 C 73 % 3.18 C
323 11-02-2004 16:35:01 7.7 C 73 % 3.18 C
324 11-02-2004 16:47:00 7.6 C 73 % 3.08 C
325 11-02-2004 16:59:00 7.6 C 73 % 3.08 C
Sensor: Nr:Datum:Temp:Feuchte:Taupunkt:
Aussen-T/F 326 11-02-2004 17:11:00 7.5 C 73 % 2.98 C
327 11-02-2004 17:23:58 7.5 C 73 % 2.98 C
328 11-02-2004 17:35:57 7.4 C 73 % 2.89 C
329 11-02-2004 17:47:01 7.4 C 73 % 2.89 C
330 11-02-2004 17:59:01 7.4 C 73 % 2.89 C
331 11-02-2004 18:11:01 7.4 C 72 % 2.69 C
332 11-02-2004 18:23:01 7.1 C 73 % 2.6 C
333 11-02-2004 18:35:01 7 C 74 % 2.69 C
334 11-02-2004 18:47:00 6.9 C 76 % 2.97 C
335 11-02-2004 18:59:00 6.8 C 76 % 2.87 C
336 11-02-2004 19:11:59 6.7 C 77 % 2.96 C
337 11-02-2004 19:23:58 6.6 C 77 % 2.86 C
338 11-02-2004 19:35:57 6.5 C 78 % 2.95 C
339 11-02-2004 19:47:01 6.5 C 75 % 2.4 C
340 11-02-2004 19:59:01 6.5 C 73 % 2.02 C
341 11-02-2004 20:11:01 6.3 C 74 % 2.02 C
342 11-02-2004 20:23:01 6 C 75 % 1.91 C
343 11-02-2004 20:35:01 5.7 C 76 % 1.81 C
344 11-02-2004 20:47:01 5.3 C 75 % 1.24 C
345 11-02-2004 20:59:01 5.1 C 75 % 1.04 C
346 11-02-2004 21:11:01 4.7 C 76 % 0.84 C
347 11-02-2004 21:23:01 4.3 C 76 % 0.45 C
348 11-02-2004 21:35:01 3.9 C 77 % 0.25 C
349 11-02-2004 21:47:00 3.8 C 77 % 0.15 C
350 11-02-2004 21:59:00 4 C 76 % 0.16 C
Sensor: Nr:Datum:Temp:Feuchte:Taupunkt:
Aussen-T/F 351 11-02-2004 22:11:00 4.3 C 76 % 0.45 C
352 11-02-2004 22:23:51 4.3 C 76 % 0.45 C
353 11-02-2004 22:35:51 4.4 C 76 % 0.55 C
354 11-02-2004 22:47:01 4.5 C 73 % 0.09 C
355 11-02-2004 22:59:01 4.5 C 72 % -0.1 C
356 11-02-2004 23:11:01 4.3 C 72 % -0.29 C
357 11-02-2004 23:23:01 4.1 C 72 % -0.48 C
358 11-02-2004 23:35:01 3.9 C 74 % -0.3 C
359 11-02-2004 23:47:00 3.8 C 74 % -0.4 C
360 11-02-2004 23:59:00 3.6 C 74 % -0.59 C
361 12-02-2004 00:11:59 3.5 C 74 % -0.69 C
362 12-02-2004 00:23:58 3.4 C 74 % -0.78 C
363 12-02-2004 00:35:57 3.5 C 73 % -0.87 C
364 12-02-2004 00:47:01 3.4 C 73 % -0.97 C
365 12-02-2004 00:59:01 3.3 C 72 % -1.25 C
366 12-02-2004 01:11:01 2.9 C 73 % -1.45 C
367 12-02-2004 01:23:01 2.6 C 73 % -1.74 C
368 12-02-2004 01:35:00 2.4 C 73 % -1.93 C
369 12-02-2004 01:47:01 2.4 C 73 % -1.93 C
370 12-02-2004 01:59:01 2.4 C 73 % -1.93 C
371 12-02-2004 02:11:01 2.5 C 73 % -1.84 C
372 12-02-2004 02:23:01 2.6 C 72 % -1.93 C
373 12-02-2004 02:35:01 2.5 C 69 % -2.6 C
374 12-02-2004 02:48:01 2.5 C 68 % -2.79 C
375 12-02-2004 03:00:01 2.5 C 67 % -2.99 C
Sensor: Nr:Datum:Temp:Feuchte:Taupunkt:
Aussen-T/F 376 12-02-2004 03:12:00 2.4 C 67 % -3.09 C
377 12-02-2004 03:24:00 2.4 C 68 % -2.89 C
378 12-02-2004 03:36:01 2.5 C 70 % -2.4 C
379 12-02-2004 03:48:01 2.4 C 69 % -2.69 C
380 12-02-2004 04:00:01 2.3 C 70 % -2.59 C
381 12-02-2004 04:12:01 2.3 C 70 % -2.59 C
382 12-02-2004 04:24:00 2.3 C 70 % -2.59 C
383 12-02-2004 04:36:00 2.3 C 70 % -2.59 C
384 12-02-2004 04:48:01 2.3 C 69 % -2.79 C
385 12-02-2004 05:00:01 2.2 C 69 % -2.88 C
386 12-02-2004 05:12:01 2.1 C 70 % -2.79 C
387 12-02-2004 05:24:01 1.9 C 71 % -2.79 C
388 12-02-2004 05:36:01 1.9 C 72 % -2.6 C
389 12-02-2004 05:48:01 1.9 C 72 % -2.6 C
390 12-02-2004 06:00:01 1.8 C 71 % -2.88 C
391 12-02-2004 06:12:01 1.8 C 70 % -3.07 C
392 12-02-2004 06:24:01 1.7 C 71 % -2.98 C
393 12-02-2004 06:36:01 1.7 C 70 % -3.17 C
394 12-02-2004 06:48:00 1.6 C 69 % -3.46 C
395 12-02-2004 07:00:00 1.5 C 69 % -3.55 C
396 12-02-2004 07:12:00 1.5 C 70 % -3.36 C
397 12-02-2004 07:24:59 1.5 C 70 % -3.36 C
398 12-02-2004 07:36:34 1.6 C 70 % -3.27 C
399 12-02-2004 07:48:34 1.4 C 70 % -3.46 C
400 12-02-2004 08:00:34 1.4 C 71 % -3.27 C
Sensor: Nr:Datum:Temp:Feuchte:Taupunkt:
Aussen-T/F 401 12-02-2004 08:12:34 1.5 C 71 % -3.17 C
402 12-02-2004 08:24:34 1.7 C 71 % -2.98 C
403 12-02-2004 08:36:34 1.9 C 71 % -2.79 C
404 12-02-2004 08:48:34 2.1 C 70 % -2.79 C
405 12-02-2004 09:00:34 2.3 C 70 % -2.59 C
406 12-02-2004 09:12:34 2.5 C 70 % -2.4 C
407 12-02-2004 09:24:34 2.7 C 67 % -2.8 C
408 12-02-2004 09:36:57 2.7 C 66 % -3 C
409 12-02-2004 09:48:01 3.1 C 67 % -2.42 C
410 12-02-2004 10:00:01 3.3 C 65 % -2.64 C
411 12-02-2004 10:12:01 3.3 C 63 % -3.05 C
412 12-02-2004 10:24:01 3.3 C 61 % -3.49 C
413 12-02-2004 10:36:01 3.9 C 63 % -2.49 C
414 12-02-2004 10:48:01 4.2 C 59 % -3.08 C
415 12-02-2004 11:00:01 4.4 C 58 % -3.12 C
416 12-02-2004 11:12:01 4.3 C 56 % -3.69 C
417 12-02-2004 11:24:01 4.3 C 57 % -3.45 C
418 12-02-2004 11:36:01 4.8 C 58 % -2.75 C
419 12-02-2004 11:48:00 5.3 C 57 % -2.51 C
420 12-02-2004 12:00:00 5.6 C 56 % -2.47 C
421 12-02-2004 12:12:00 5.8 C 53 % -3.02 C
422 12-02-2004 12:24:58 6 C 52 % -3.09 C
423 12-02-2004 12:36:57 6.4 C 54 % -2.21 C
424 12-02-2004 12:48:01 6.4 C 51 % -2.98 C
425 12-02-2004 13:00:01 6.2 C 50 % -3.43 C
Sensor: Nr:Datum:Temp:Feuchte:Taupunkt:
Aussen-T/F 426 12-02-2004 13:12:01 6.1 C 51 % -3.26 C
427 12-02-2004 13:24:01 6.2 C 51 % -3.17 C
428 12-02-2004 13:36:01 6.7 C 51 % -2.71 C
429 12-02-2004 13:48:00 6.8 C 48 % -3.42 C
430 12-02-2004 14:00:00 7 C 49 % -2.97 C
431 12-02-2004 14:12:59 6.5 C 49 % -3.43 C
432 12-02-2004 14:24:58 6.8 C 50 % -2.88 C
433 12-02-2004 14:36:57 6.9 C 50 % -2.79 C
434 12-02-2004 14:48:01 7 C 50 % -2.69 C
435 12-02-2004 15:00:01 7 C 49 % -2.97 C
436 12-02-2004 15:12:01 6.9 C 50 % -2.79 C
437 12-02-2004 15:24:01 6.9 C 50 % -2.79 C
438 12-02-2004 15:36:01 6.6 C 49 % -3.33 C
439 12-02-2004 15:48:01 6.6 C 50 % -3.06 C
440 12-02-2004 16:00:01 6.4 C 51 % -2.98 C
441 12-02-2004 16:12:01 6.5 C 51 % -2.89 C
442 12-02-2004 16:24:01 6.4 C 51 % -2.98 C
443 12-02-2004 16:36:01 6.4 C 50 % -3.25 C
444 12-02-2004 16:48:00 6 C 50 % -3.62 C
445 12-02-2004 17:00:00 5.6 C 53 % -3.21 C
446 12-02-2004 17:12:00 5.4 C 57 % -2.42 C
447 12-02-2004 17:24:58 5.3 C 57 % -2.51 C
448 12-02-2004 17:36:57 5.2 C 58 % -2.37 C
449 12-02-2004 17:48:01 5.2 C 59 % -2.14 C
450 12-02-2004 18:00:01 4.9 C 61 % -1.97 C
Sensor: Nr:Datum:Temp:Feuchte:Taupunkt:
Aussen-T/F 451 12-02-2004 18:12:01 4.5 C 61 % -2.35 C
452 12-02-2004 18:24:01 4.3 C 60 % -2.76 C
453 12-02-2004 18:36:01 4.2 C 61 % -2.64 C
454 12-02-2004 19:00:00 4.2 C 61 % -2.64 C
455 12-02-2004 19:00:59 4.3 C 62 % -2.32 C
456 12-02-2004 19:12:59 4.4 C 61 % -2.45 C
457 12-02-2004 19:24:58 4.4 C 63 % -2.01 C
458 12-02-2004 19:36:57 4.5 C 64 % -1.7 C
459 12-02-2004 19:48:01 4.5 C 62 % -2.13 C
460 12-02-2004 20:00:01 4.5 C 64 % -1.7 C
461 12-02-2004 20:12:01 4.5 C 63 % -1.92 C
462 12-02-2004 20:24:01 4.5 C 64 % -1.7 C
463 12-02-2004 20:36:01 4.5 C 64 % -1.7 C
464 12-02-2004 20:48:01 4.5 C 64 % -1.7 C
465 12-02-2004 21:00:01 4.2 C 64 % -1.99 C
466 12-02-2004 21:12:01 3.9 C 65 % -2.06 C
467 12-02-2004 21:24:01 3.7 C 67 % -1.85 C
468 12-02-2004 21:36:01 3.5 C 67 % -2.04 C
469 12-02-2004 21:48:00 3.5 C 68 % -1.84 C
470 12-02-2004 22:00:00 3.7 C 70 % -1.25 C
471 12-02-2004 22:12:00 3.9 C 70 % -1.06 C
472 12-02-2004 22:24:58 4 C 69 % -1.16 C
473 12-02-2004 22:36:57 3.9 C 69 % -1.26 C
474 12-02-2004 22:48:01 3.7 C 70 % -1.25 C
475 12-02-2004 23:00:01 3.7 C 70 % -1.25 C
Sensor: Nr:Datum:Temp:Feuchte:Taupunkt:
Aussen-T/F 476 12-02-2004 23:12:01 3.8 C 69 % -1.35 C
477 12-02-2004 23:24:01 3.8 C 69 % -1.35 C
478 12-02-2004 23:36:01 3.8 C 70 % -1.16 C
479 13-02-2004 00:00:00 3.7 C 70 % -1.25 C
480 13-02-2004 00:00:59 3.8 C 71 % -0.96 C
481 13-02-2004 00:12:59 3.9 C 71 % -0.87 C
482 13-02-2004 00:24:59 4 C 70 % -0.96 C
483 13-02-2004 00:36:57 3.9 C 72 % -0.68 C
484 13-02-2004 00:48:01 3.7 C 74 % -0.49 C
485 13-02-2004 01:00:01 3.7 C 76 % -0.13 C
486 13-02-2004 01:12:01 3.6 C 78 % 0.13 C
487 13-02-2004 01:24:01 3.5 C 79 % 0.21 C
488 13-02-2004 01:36:01 3.4 C 80 % 0.29 C
489 13-02-2004 01:48:01 3.3 C 81 % 0.36 C
490 13-02-2004 02:00:01 3.3 C 82 % 0.53 C
491 13-02-2004 02:12:01 3.4 C 82 % 0.63 C
492 13-02-2004 02:24:01 3.4 C 82 % 0.63 C
493 13-02-2004 02:36:01 3.5 C 81 % 0.55 C
494 13-02-2004 02:49:01 3.5 C 80 % 0.38 C
495 13-02-2004 03:01:01 3.6 C 80 % 0.48 C
496 13-02-2004 03:13:59 3.6 C 79 % 0.31 C
497 13-02-2004 03:24:59 3.6 C 79 % 0.31 C
498 13-02-2004 03:37:01 3.7 C 79 % 0.4 C
499 13-02-2004 03:49:01 3.7 C 78 % 0.23 C
500 13-02-2004 04:01:01 3.8 C 78 % 0.33 C
Sensor: Nr:Datum:Temp:Feuchte:Taupunkt:
Aussen-T/F 501 13-02-2004 04:13:01 3.8 C 78 % 0.33 C
502 13-02-2004 04:25:01 3.8 C 77 % 0.15 C
503 13-02-2004 04:37:01 3.8 C 78 % 0.33 C
504 13-02-2004 04:49:00 3.8 C 79 % 0.5 C
505 13-02-2004 05:01:59 3.9 C 79 % 0.6 C
506 13-02-2004 05:13:59 3.9 C 80 % 0.77 C
507 13-02-2004 05:25:58 3.9 C 80 % 0.77 C
508 13-02-2004 05:37:57 3.9 C 80 % 0.77 C
509 13-02-2004 05:49:01 3.9 C 80 % 0.77 C
510 13-02-2004 06:01:01 4 C 79 % 0.7 C
511 13-02-2004 06:13:01 4 C 80 % 0.87 C
512 13-02-2004 06:25:01 4 C 80 % 0.87 C
513 13-02-2004 06:37:00 4.1 C 80 % 0.97 C
514 13-02-2004 06:49:01 4.1 C 80 % 0.97 C
515 13-02-2004 07:01:01 4.1 C 80 % 0.97 C
516 13-02-2004 07:13:01 4.1 C 80 % 0.97 C
517 13-02-2004 07:25:01 4.2 C 81 % 1.24 C
518 13-02-2004 07:37:01 4.2 C 81 % 1.24 C
519 13-02-2004 07:49:00 4.3 C 81 % 1.34 C
520 13-02-2004 08:01:00 4.4 C 81 % 1.43 C
521 13-02-2004 08:13:00 4.5 C 81 % 1.53 C
522 13-02-2004 08:25:58 4.5 C 81 % 1.53 C
523 13-02-2004 08:37:57 4.6 C 80 % 1.46 C
524 13-02-2004 08:49:01 4.6 C 80 % 1.46 C
525 13-02-2004 09:01:01 4.7 C 79 % 1.38 C
Sensor: Nr:Datum:Temp:Feuchte:Taupunkt:
Aussen-T/F 526 13-02-2004 09:13:01 4.8 C 79 % 1.47 C
527 13-02-2004 09:25:01 4.9 C 79 % 1.57 C
528 13-02-2004 09:37:01 5 C 78 % 1.49 C
529 13-02-2004 09:49:00 5.1 C 77 % 1.41 C
530 13-02-2004 10:01:59 5.1 C 77 % 1.41 C
531 13-02-2004 10:13:59 5.3 C 77 % 1.6 C
532 13-02-2004 10:25:58 5.3 C 77 % 1.6 C
533 13-02-2004 10:37:57 5.3 C 77 % 1.6 C
534 13-02-2004 10:49:01 5.4 C 77 % 1.7 C
535 13-02-2004 11:01:01 5.6 C 76 % 1.71 C
536 13-02-2004 11:13:01 5.8 C 76 % 1.91 C
537 13-02-2004 11:25:01 5.9 C 75 % 1.82 C
538 13-02-2004 11:37:00 5.9 C 75 % 1.82 C
539 13-02-2004 11:49:01 6.1 C 74 % 1.82 C
540 13-02-2004 12:01:01 6.2 C 73 % 1.73 C
541 13-02-2004 12:13:01 6.5 C 73 % 2.02 C
542 13-02-2004 12:25:01 6.5 C 72 % 1.83 C
543 13-02-2004 12:37:01 6.6 C 72 % 1.92 C
544 13-02-2004 12:49:00 6.8 C 72 % 2.12 C
545 13-02-2004 13:01:00 7.1 C 70 % 2.01 C
546 13-02-2004 13:13:00 7.1 C 70 % 2.01 C
547 13-02-2004 13:25:58 7.2 C 69 % 1.9 C
548 13-02-2004 13:37:57 7.4 C 70 % 2.3 C
549 13-02-2004 13:49:01 7.3 C 69 % 2 C
550 13-02-2004 14:01:01 7.4 C 69 % 2.1 C
Sensor: Nr:Datum:Temp:Feuchte:Taupunkt:
Aussen-T/F 551 13-02-2004 14:13:01 7.5 C 69 % 2.19 C
552 13-02-2004 14:25:01 7.5 C 69 % 2.19 C
553 13-02-2004 14:37:01 7.6 C 68 % 2.08 C
554 13-02-2004 14:49:01 7.6 C 68 % 2.08 C
555 13-02-2004 15:01:01 7.7 C 68 % 2.18 C
556 13-02-2004 15:13:01 7.8 C 67 % 2.07 C
557 13-02-2004 15:25:01 7.8 C 68 % 2.27 C
558 13-02-2004 15:37:08 7.7 C 68 % 2.18 C
559 13-02-2004 15:49:37 7.8 C 68 % 2.27 C
560 13-02-2004 16:01:00 7.7 C 68 % 2.18 C
561 13-02-2004 16:13:00 7.8 C 68 % 2.27 C
562 13-02-2004 16:25:59 7.7 C 68 % 2.18 C
563 13-02-2004 16:37:57 7.7 C 68 % 2.18 C
564 13-02-2004 16:49:01 7.7 C 68 % 2.18 C
565 13-02-2004 17:01:01 7.6 C 69 % 2.29 C
566 13-02-2004 17:13:01 7.5 C 71 % 2.59 C
567 13-02-2004 17:25:01 7.3 C 72 % 2.6 C
568 13-02-2004 17:37:01 7.4 C 72 % 2.69 C
569 13-02-2004 17:49:00 7.1 C 72 % 2.4 C
570 13-02-2004 18:01:00 7 C 72 % 2.31 C
571 13-02-2004 18:13:00 6.9 C 74 % 2.6 C
572 13-02-2004 18:25:58 6.8 C 73 % 2.31 C
573 13-02-2004 18:37:57 6.8 C 74 % 2.5 C
574 13-02-2004 18:49:01 6.8 C 74 % 2.5 C
575 13-02-2004 19:01:01 6.7 C 75 % 2.59 C
Sensor: Nr:Datum:Temp:Feuchte:Taupunkt:
Aussen-T/F 576 13-02-2004 19:13:01 6.7 C 75 % 2.59 C
577 13-02-2004 19:25:01 6.8 C 75 % 2.69 C
578 13-02-2004 19:37:01 6.7 C 75 % 2.59 C
579 13-02-2004 19:49:01 6.7 C 75 % 2.59 C
580 13-02-2004 20:01:01 6.7 C 75 % 2.59 C
581 13-02-2004 20:13:01 6.7 C 75 % 2.59 C
582 13-02-2004 20:25:01 6.7 C 75 % 2.59 C
583 13-02-2004 20:37:01 6.6 C 75 % 2.49 C
584 13-02-2004 20:49:00 6.7 C 75 % 2.59 C
585 13-02-2004 21:01:00 6.5 C 75 % 2.4 C
586 13-02-2004 21:13:00 6.5 C 76 % 2.58 C
587 13-02-2004 21:25:59 6.4 C 77 % 2.67 C
588 13-02-2004 21:37:57 6.4 C 77 % 2.67 C
589 13-02-2004 21:49:01 6.4 C 77 % 2.67 C
590 13-02-2004 22:01:01 6.4 C 77 % 2.67 C
591 13-02-2004 22:13:01 6.4 C 77 % 2.67 C
592 13-02-2004 22:25:01 6.5 C 77 % 2.77 C
593 13-02-2004 22:37:01 6.3 C 77 % 2.57 C
594 13-02-2004 22:49:00 6.3 C 77 % 2.57 C
595 13-02-2004 23:00:59 6.4 C 77 % 2.67 C
596 13-02-2004 23:12:59 6.4 C 78 % 2.85 C
597 13-02-2004 23:25:58 6.4 C 77 % 2.67 C
598 13-02-2004 23:37:57 6.4 C 77 % 2.67 C
599 13-02-2004 23:49:01 6.3 C 78 % 2.75 C
600 14-02-2004 00:01:01 6.3 C 78 % 2.75 C
Sensor: Nr:Datum:Temp:Feuchte:Taupunkt:
Aussen-T/F 601 14-02-2004 00:13:01 6.3 C 78 % 2.75 C
602 14-02-2004 00:25:01 6.3 C 78 % 2.75 C
603 14-02-2004 00:37:01 6.2 C 78 % 2.66 C
604 14-02-2004 00:49:00 6.2 C 78 % 2.66 C
605 14-02-2004 01:01:00 6.2 C 78 % 2.66 C
606 14-02-2004 01:13:00 6.2 C 78 % 2.66 C
607 14-02-2004 01:25:59 6 C 78 % 2.46 C
608 14-02-2004 01:37:58 6.1 C 78 % 2.56 C
609 14-02-2004 01:49:01 6.1 C 78 % 2.56 C
610 14-02-2004 02:01:01 6.1 C 78 % 2.56 C
611 14-02-2004 02:13:01 6.1 C 78 % 2.56 C
612 14-02-2004 02:25:01 6 C 78 % 2.46 C
613 14-02-2004 02:37:01 6 C 78 % 2.46 C
614 14-02-2004 02:50:01 6 C 78 % 2.46 C
615 14-02-2004 03:02:01 6 C 78 % 2.46 C
616 14-02-2004 03:14:00 6 C 78 % 2.46 C
617 14-02-2004 03:26:00 6 C 78 % 2.46 C
618 14-02-2004 03:38:01 5.9 C 79 % 2.54 C
619 14-02-2004 03:50:01 5.9 C 79 % 2.54 C
620 14-02-2004 04:02:01 5.9 C 79 % 2.54 C
621 14-02-2004 04:14:01 5.9 C 79 % 2.54 C
622 14-02-2004 04:26:00 5.9 C 79 % 2.54 C
623 14-02-2004 04:38:00 5.8 C 79 % 2.45 C
624 14-02-2004 04:50:01 5.8 C 79 % 2.45 C
625 14-02-2004 05:02:01 5.7 C 79 % 2.35 C
Sensor: Nr:Datum:Temp:Feuchte:Taupunkt:
Aussen-T/F 626 14-02-2004 05:14:01 5.7 C 80 % 2.53 C
627 14-02-2004 05:26:01 5.6 C 80 % 2.43 C
628 14-02-2004 05:38:01 5.5 C 80 % 2.33 C
629 14-02-2004 05:50:00 5.6 C 80 % 2.43 C
630 14-02-2004 06:02:59 5.6 C 80 % 2.43 C
631 14-02-2004 06:14:58 5.6 C 80 % 2.43 C
632 14-02-2004 06:26:58 5.5 C 80 % 2.33 C
633 14-02-2004 06:38:57 5.5 C 80 % 2.33 C
634 14-02-2004 06:50:01 5.5 C 81 % 2.51 C
635 14-02-2004 07:02:01 5.5 C 81 % 2.51 C
636 14-02-2004 07:14:01 5.5 C 81 % 2.51 C
637 14-02-2004 07:26:01 5.5 C 81 % 2.51 C
638 14-02-2004 07:38:00 5.3 C 81 % 2.31 C
639 14-02-2004 07:50:01 5.3 C 81 % 2.31 C
640 14-02-2004 08:02:01 5.3 C 81 % 2.31 C
641 14-02-2004 08:14:01 5.4 C 81 % 2.41 C
642 14-02-2004 08:26:01 5.5 C 81 % 2.51 C
643 14-02-2004 08:38:01 5.6 C 81 % 2.6 C
644 14-02-2004 08:50:00 5.7 C 80 % 2.53 C
645 14-02-2004 09:02:00 5.9 C 79 % 2.54 C
646 14-02-2004 09:14:00 6 C 78 % 2.46 C
647 14-02-2004 09:26:59 6.1 C 77 % 2.38 C
648 14-02-2004 09:38:58 6.2 C 77 % 2.48 C
649 14-02-2004 09:50:01 6.4 C 76 % 2.49 C
650 14-02-2004 10:02:01 6.5 C 76 % 2.58 C
Sensor: Nr:Datum:Temp:Feuchte:Taupunkt:
Aussen-T/F 651 14-02-2004 10:14:01 6.6 C 76 % 2.68 C
652 14-02-2004 10:26:01 6.9 C 75 % 2.78 C
653 14-02-2004 10:38:01 7.2 C 73 % 2.69 C
654 14-02-2004 10:50:01 7.2 C 73 % 2.69 C
655 14-02-2004 11:02:01 7.4 C 72 % 2.69 C
656 14-02-2004 11:14:01 7.5 C 72 % 2.79 C
657 14-02-2004 11:26:01 7.8 C 71 % 2.88 C
658 14-02-2004 11:38:01 8.2 C 69 % 2.86 C
659 14-02-2004 11:50:01 8.4 C 69 % 3.05 C
660 14-02-2004 12:02:00 8.1 C 68 % 2.56 C
661 14-02-2004 12:14:00 8.2 C 69 % 2.86 C
662 14-02-2004 12:26:59 8.4 C 69 % 3.05 C
663 14-02-2004 12:38:57 8.7 C 67 % 2.92 C
664 14-02-2004 12:50:01 8.8 C 67 % 3.02 C
665 14-02-2004 13:02:01 8.7 C 67 % 2.92 C
666 14-02-2004 13:14:01 8.7 C 68 % 3.13 C
667 14-02-2004 13:26:01 8.6 C 66 % 2.62 C
668 14-02-2004 13:38:01 8.6 C 67 % 2.83 C
669 14-02-2004 13:50:00 8.5 C 67 % 2.73 C
670 14-02-2004 14:14:00 8.2 C 69 % 2.86 C
671 14-02-2004 14:14:58 8.2 C 70 % 3.06 C
672 14-02-2004 14:26:58 8.4 C 70 % 3.26 C
673 14-02-2004 14:38:57 8.6 C 69 % 3.24 C
674 14-02-2004 14:50:01 8.6 C 68 % 3.04 C
675 14-02-2004 15:02:01 8.6 C 68 % 3.04 C
Sensor: Nr:Datum:Temp:Feuchte:Taupunkt:
Aussen-T/F 676 14-02-2004 15:14:01 8.4 C 68 % 2.85 C
677 14-02-2004 15:26:01 8.5 C 69 % 3.15 C
678 14-02-2004 15:38:01 8.5 C 69 % 3.15 C
679 14-02-2004 15:50:01 8.6 C 68 % 3.04 C
680 14-02-2004 16:02:01 8.6 C 68 % 3.04 C
681 14-02-2004 16:14:01 8.6 C 68 % 3.04 C
682 14-02-2004 16:26:01 8.5 C 67 % 2.73 C
683 14-02-2004 16:38:01 8.4 C 66 % 2.43 C
684 14-02-2004 16:50:00 8.5 C 66 % 2.52 C
685 14-02-2004 17:02:00 8.4 C 67 % 2.64 C
686 14-02-2004 17:14:00 8.3 C 66 % 2.33 C
687 14-02-2004 17:26:59 8.1 C 67 % 2.35 C
688 14-02-2004 17:38:58 8 C 68 % 2.47 C
689 14-02-2004 17:50:01 7.9 C 70 % 2.78 C
690 14-02-2004 18:02:01 7.8 C 67 % 2.07 C
691 14-02-2004 18:14:01 7.7 C 68 % 2.18 C
692 14-02-2004 18:26:01 7.6 C 65 % 1.45 C
693 14-02-2004 18:38:01 7.6 C 68 % 2.08 C
694 14-02-2004 18:50:00 7.4 C 69 % 2.1 C
695 14-02-2004 19:14:00 7.3 C 68 % 1.8 C
696 14-02-2004 19:14:58 7.3 C 68 % 1.8 C
697 14-02-2004 19:26:58 7.1 C 68 % 1.61 C
698 14-02-2004 19:38:57 7.2 C 68 % 1.7 C
699 14-02-2004 19:50:01 7.1 C 70 % 2.01 C
700 14-02-2004 20:02:01 7 C 70 % 1.91 C
Sensor: Nr:Datum:Temp:Feuchte:Taupunkt:
Aussen-T/F 701 14-02-2004 20:14:01 7 C 69 % 1.71 C
702 14-02-2004 20:26:01 7 C 69 % 1.71 C
703 14-02-2004 20:38:01 6.9 C 70 % 1.82 C
704 14-02-2004 20:50:01 6.9 C 71 % 2.02 C
705 14-02-2004 21:02:01 6.8 C 72 % 2.12 C
706 14-02-2004 21:14:01 6.7 C 72 % 2.02 C
707 14-02-2004 21:26:01 6.7 C 72 % 2.02 C
708 14-02-2004 21:38:01 6.7 C 73 % 2.21 C
709 14-02-2004 21:50:00 6.6 C 73 % 2.12 C
710 14-02-2004 22:02:00 6.6 C 73 % 2.12 C
711 14-02-2004 22:14:00 6.6 C 73 % 2.12 C
712 14-02-2004 22:26:59 6.5 C 73 % 2.02 C
713 14-02-2004 22:38:57 6.5 C 74 % 2.21 C
714 14-02-2004 22:50:01 6.5 C 74 % 2.21 C
715 14-02-2004 23:02:01 6.4 C 74 % 2.11 C
716 14-02-2004 23:14:01 6.4 C 74 % 2.11 C
717 14-02-2004 23:26:01 6.3 C 74 % 2.02 C
718 14-02-2004 23:38:01 6.2 C 74 % 1.92 C
719 14-02-2004 23:50:00 6.2 C 75 % 2.11 C
720 15-02-2004 00:13:59 6.1 C 75 % 2.01 C
721 15-02-2004 00:14:59 6 C 75 % 1.91 C
722 15-02-2004 00:26:59 6 C 75 % 1.91 C
723 15-02-2004 00:38:57 6 C 75 % 1.91 C
724 15-02-2004 00:50:01 6 C 76 % 2.1 C
725 15-02-2004 01:02:01 6 C 76 % 2.1 C
Sensor: Nr:Datum:Temp:Feuchte:Taupunkt:
Aussen-T/F 726 15-02-2004 01:14:01 5.9 C 77 % 2.19 C
727 15-02-2004 01:26:01 5.9 C 77 % 2.19 C
728 15-02-2004 01:38:01 5.9 C 77 % 2.19 C
729 15-02-2004 01:50:01 5.8 C 77 % 2.09 C
730 15-02-2004 02:02:01 5.8 C 77 % 2.09 C
731 15-02-2004 02:14:01 5.7 C 77 % 1.99 C
732 15-02-2004 02:26:01 5.7 C 77 % 1.99 C
733 15-02-2004 02:38:01 5.7 C 78 % 2.17 C
734 15-02-2004 02:51:01 5.7 C 77 % 1.99 C
735 15-02-2004 03:03:01 5.6 C 78 % 2.07 C
736 15-02-2004 03:15:00 5.6 C 78 % 2.07 C
737 15-02-2004 03:27:00 5.5 C 78 % 1.98 C
738 15-02-2004 03:39:01 5.4 C 79 % 2.06 C
739 15-02-2004 03:51:01 5.4 C 79 % 2.06 C
740 15-02-2004 04:03:01 5.4 C 79 % 2.06 C
741 15-02-2004 04:15:00 5.4 C 79 % 2.06 C
742 15-02-2004 04:27:00 5.4 C 79 % 2.06 C
743 15-02-2004 04:39:00 5.4 C 79 % 2.06 C
744 15-02-2004 04:51:01 5.3 C 79 % 1.96 C
745 15-02-2004 05:03:01 5.3 C 79 % 1.96 C
746 15-02-2004 05:15:01 5.2 C 79 % 1.86 C
747 15-02-2004 05:27:01 5.2 C 79 % 1.86 C
748 15-02-2004 05:39:01 5.1 C 79 % 1.77 C
749 15-02-2004 05:51:00 5.1 C 79 % 1.77 C
750 15-02-2004 06:03:59 5.1 C 79 % 1.77 C
Sensor: Nr:Datum:Temp:Feuchte:Taupunkt:
Aussen-T/F 751 15-02-2004 06:15:58 5 C 79 % 1.67 C
752 15-02-2004 06:27:58 5 C 79 % 1.67 C
753 15-02-2004 06:39:57 5 C 79 % 1.67 C
754 15-02-2004 06:51:01 5 C 79 % 1.67 C
755 15-02-2004 07:03:01 5 C 79 % 1.67 C
756 15-02-2004 07:15:01 5 C 80 % 1.84 C
757 15-02-2004 07:27:01 5 C 79 % 1.67 C
758 15-02-2004 07:39:01 5 C 79 % 1.67 C
759 15-02-2004 07:51:01 5 C 79 % 1.67 C
760 15-02-2004 08:03:01 5 C 79 % 1.67 C
761 15-02-2004 08:15:01 5 C 79 % 1.67 C
762 15-02-2004 08:27:01 5 C 79 % 1.67 C
763 15-02-2004 08:39:01 5.1 C 78 % 1.59 C
764 15-02-2004 08:51:00 5.1 C 78 % 1.59 C
765 15-02-2004 09:03:00 5.1 C 78 % 1.59 C
766 15-02-2004 09:15:58 5.2 C 78 % 1.69 C
767 15-02-2004 09:27:58 5.2 C 78 % 1.69 C
768 15-02-2004 09:39:57 5.3 C 78 % 1.78 C
769 15-02-2004 09:51:01 5.4 C 78 % 1.88 C
770 15-02-2004 10:03:01 5.4 C 77 % 1.7 C
771 15-02-2004 10:15:01 5.7 C 76 % 1.81 C
772 15-02-2004 10:27:01 5.9 C 75 % 1.82 C
773 15-02-2004 10:39:01 6 C 73 % 1.54 C
774 15-02-2004 10:51:00 6.3 C 72 % 1.63 C
775 15-02-2004 11:03:59 6.6 C 71 % 1.73 C
Sensor: Nr:Datum:Temp:Feuchte:Taupunkt:
Aussen-T/F 776 15-02-2004 11:15:58 6.6 C 71 % 1.73 C
777 15-02-2004 11:27:58 6.8 C 70 % 1.72 C
778 15-02-2004 11:39:57 6.9 C 70 % 1.82 C
779 15-02-2004 11:51:01 7.1 C 66 % 1.19 C
780 15-02-2004 12:03:01 7.3 C 66 % 1.38 C
781 15-02-2004 12:15:01 7.5 C 65 % 1.36 C
782 15-02-2004 12:27:01 7.5 C 65 % 1.36 C
783 15-02-2004 12:39:00 7.6 C 66 % 1.67 C
784 15-02-2004 12:51:01 7.6 C 65 % 1.45 C
785 15-02-2004 13:03:01 7.6 C 65 % 1.45 C
786 15-02-2004 13:15:01 7.5 C 65 % 1.36 C
787 15-02-2004 13:27:01 7.5 C 65 % 1.36 C
788 15-02-2004 13:39:01 7.7 C 64 % 1.33 C
789 15-02-2004 13:51:01 7.8 C 63 % 1.21 C
790 15-02-2004 14:03:00 7.7 C 62 % 0.89 C
791 15-02-2004 14:15:58 7.9 C 61 % 0.86 C
792 15-02-2004 14:27:58 7.6 C 62 % 0.8 C
793 15-02-2004 14:39:57 7.6 C 62 % 0.8 C
794 15-02-2004 14:51:01 7.6 C 62 % 0.8 C
795 15-02-2004 15:03:02 7.6 C 62 % 0.8 C
796 15-02-2004 15:15:01 7.7 C 62 % 0.89 C
797 15-02-2004 15:27:01 7.6 C 62 % 0.8 C
798 15-02-2004 15:39:01 7.6 C 63 % 1.02 C
799 15-02-2004 15:51:00 7.6 C 64 % 1.24 C
800 15-02-2004 16:03:59 7.5 C 64 % 1.14 C
Sensor: Nr:Datum:Temp:Feuchte:Taupunkt:
Aussen-T/F 801 15-02-2004 16:15:58 7.4 C 65 % 1.26 C
802 15-02-2004 16:27:58 7.4 C 65 % 1.26 C
803 15-02-2004 16:39:57 7.3 C 65 % 1.17 C
804 15-02-2004 16:51:01 7.3 C 66 % 1.38 C
805 15-02-2004 17:03:01 7.2 C 66 % 1.29 C
806 15-02-2004 17:15:01 7.2 C 67 % 1.49 C
807 15-02-2004 17:27:01 7.1 C 67 % 1.4 C
808 15-02-2004 17:39:01 6.9 C 68 % 1.41 C
809 15-02-2004 17:51:01 6.8 C 69 % 1.52 C
810 15-02-2004 18:03:01 6.7 C 70 % 1.63 C
811 15-02-2004 18:15:01 6.7 C 70 % 1.63 C
812 15-02-2004 18:27:01 6.7 C 70 % 1.63 C
813 15-02-2004 18:39:01 6.6 C 71 % 1.73 C
814 15-02-2004 18:51:00 6.7 C 71 % 1.82 C
815 15-02-2004 19:03:00 6.7 C 71 % 1.82 C
816 15-02-2004 19:15:58 6.6 C 72 % 1.92 C
817 15-02-2004 19:27:58 6.5 C 72 % 1.83 C
818 15-02-2004 19:39:57 6.4 C 72 % 1.73 C
819 15-02-2004 19:51:01 6.4 C 73 % 1.92 C
820 15-02-2004 20:03:01 6.4 C 73 % 1.92 C
821 15-02-2004 20:15:01 6.4 C 74 % 2.11 C
822 15-02-2004 20:27:01 6.5 C 74 % 2.21 C
823 15-02-2004 20:39:01 6.5 C 74 % 2.21 C
824 15-02-2004 20:51:00 6.5 C 74 % 2.21 C
825 15-02-2004 21:03:00 6.6 C 73 % 2.12 C
Sensor: Nr:Datum:Temp:Feuchte:Taupunkt:
Aussen-T/F 826 15-02-2004 21:15:58 6.6 C 74 % 2.31 C
827 15-02-2004 21:27:58 6.6 C 74 % 2.31 C
828 15-02-2004 21:39:57 6.5 C 75 % 2.4 C
829 15-02-2004 21:51:01 6.3 C 76 % 2.39 C
830 15-02-2004 22:03:01 6.4 C 77 % 2.67 C
831 15-02-2004 22:15:30 6.3 C 77 % 2.57 C
832 15-02-2004 22:27:01 6.3 C 77 % 2.57 C
833 15-02-2004 22:39:01 6.4 C 76 % 2.49 C
834 15-02-2004 22:51:01 6.4 C 76 % 2.49 C
835 15-02-2004 23:03:01 6.4 C 75 % 2.3 C
836 15-02-2004 23:15:01 6.4 C 75 % 2.3 C
837 15-02-2004 23:27:01 6.4 C 75 % 2.3 C
838 15-02-2004 23:39:01 6.2 C 75 % 2.11 C
839 15-02-2004 23:51:00 5.9 C 77 % 2.19 C
840 16-02-2004 00:03:00 5.7 C 77 % 1.99 C
841 16-02-2004 00:15:59 5.6 C 78 % 2.07 C
842 16-02-2004 00:27:59 5.5 C 78 % 1.98 C
843 16-02-2004 00:39:58 5.5 C 78 % 1.98 C
844 16-02-2004 00:51:01 5.5 C 79 % 2.16 C
845 16-02-2004 01:03:00 5.5 C 79 % 2.16 C
846 16-02-2004 01:15:00 5.5 C 79 % 2.16 C
847 16-02-2004 01:27:00 5.6 C 79 % 2.25 C
848 16-02-2004 01:39:00 5.4 C 78 % 1.88 C
849 16-02-2004 01:51:01 5.5 C 79 % 2.16 C
850 16-02-2004 02:03:01 5.2 C 78 % 1.69 C
Sensor: Nr:Datum:Temp:Feuchte:Taupunkt:
Aussen-T/F 851 16-02-2004 02:15:01 5.1 C 78 % 1.59 C
852 16-02-2004 02:27:01 4.9 C 79 % 1.57 C
853 16-02-2004 02:39:01 4.9 C 79 % 1.57 C
854 16-02-2004 02:52:03 4.9 C 80 % 1.75 C
855 16-02-2004 03:04:03 5 C 79 % 1.67 C
856 16-02-2004 03:16:03 5 C 79 % 1.67 C
857 16-02-2004 03:28:03 5.1 C 78 % 1.59 C
858 16-02-2004 03:40:00 4.9 C 78 % 1.39 C
859 16-02-2004 03:52:00 4.7 C 78 % 1.2 C
860 16-02-2004 04:04:00 4.7 C 78 % 1.2 C
861 16-02-2004 04:16:59 4.6 C 78 % 1.1 C
862 16-02-2004 04:28:59 4.5 C 77 % 0.83 C
863 16-02-2004 04:40:58 4.4 C 77 % 0.73 C
864 16-02-2004 04:52:01 4.3 C 77 % 0.63 C
865 16-02-2004 05:04:01 4.2 C 77 % 0.54 C
866 16-02-2004 05:16:00 4.2 C 77 % 0.54 C
867 16-02-2004 05:28:00 4.1 C 76 % 0.26 C
868 16-02-2004 05:40:00 3.9 C 77 % 0.25 C
869 16-02-2004 05:52:01 3.7 C 77 % 0.05 C
870 16-02-2004 06:04:01 3.6 C 77 % -0.05 C
871 16-02-2004 06:16:01 3.6 C 77 % -0.05 C
872 16-02-2004 06:28:01 3.4 C 77 % -0.24 C
873 16-02-2004 06:40:01 3.3 C 77 % -0.34 C
874 16-02-2004 06:52:01 3 C 77 % -0.63 C
875 16-02-2004 07:04:01 2.6 C 78 % -0.84 C
Sensor: Nr:Datum:Temp:Feuchte:Taupunkt:
Aussen-T/F 876 16-02-2004 07:16:01 2.3 C 79 % -0.96 C
877 16-02-2004 07:28:01 2 C 79 % -1.25 C
878 16-02-2004 07:40:01 1.7 C 81 % -1.2 C
879 16-02-2004 07:52:00 1.6 C 81 % -1.3 C
880 16-02-2004 08:04:00 1.6 C 81 % -1.3 C
881 16-02-2004 08:16:59 1.6 C 82 % -1.13 C
882 16-02-2004 08:28:59 1.5 C 81 % -1.4 C
883 16-02-2004 08:40:57 1.6 C 82 % -1.13 C
884 16-02-2004 08:52:01 1.6 C 82 % -1.13 C
885 16-02-2004 09:04:01 1.6 C 82 % -1.13 C
886 16-02-2004 09:16:01 1.7 C 82 % -1.03 C
887 16-02-2004 09:28:01 1.9 C 83 % -0.67 C
888 16-02-2004 09:40:01 2.5 C 83 % -0.09 C
889 16-02-2004 09:52:00 3 C 83 % 0.4 C
890 16-02-2004 10:03:59 3.3 C 79 % 0.02 C
891 16-02-2004 10:16:58 3.9 C 77 % 0.25 C
892 16-02-2004 10:28:58 4 C 75 % -0.02 C
893 16-02-2004 10:40:57 4.4 C 74 % 0.18 C
894 16-02-2004 10:52:01 5.1 C 71 % 0.29 C
895 16-02-2004 11:04:01 5.2 C 69 % -0.01 C
896 16-02-2004 11:16:01 5.2 C 69 % -0.01 C
897 16-02-2004 11:28:01 5.5 C 68 % 0.08 C
898 16-02-2004 11:40:01 6.2 C 65 % 0.12 C
899 16-02-2004 11:52:01 6.5 C 62 % -0.24 C
900 16-02-2004 12:04:01 6.7 C 63 % 0.17 C
Sensor: Nr:Datum:Temp:Feuchte:Taupunkt:
Aussen-T/F 901 16-02-2004 12:16:01 7 C 61 % 0.01 C
902 16-02-2004 12:28:01 7.4 C 60 % 0.16 C
903 16-02-2004 12:40:01 7.6 C 59 % 0.11 C
904 16-02-2004 12:52:00 7.9 C 58 % 0.16 C
905 16-02-2004 13:04:00 8.6 C 55 % 0.08 C
906 16-02-2004 13:16:58 9 C 54 % 0.2 C
907 16-02-2004 13:28:58 9.1 C 51 % -0.49 C
908 16-02-2004 13:40:57 9.5 C 51 % -0.12 C
909 16-02-2004 13:52:01 9.2 C 50 % -0.67 C
910 16-02-2004 14:04:01 10.1 C 49 % -0.11 C
911 16-02-2004 14:16:01 10.1 C 49 % -0.11 C
912 16-02-2004 14:28:01 10 C 49 % -0.21 C
913 16-02-2004 14:40:01 10.2 C 48 % -0.31 C
914 16-02-2004 14:52:00 10.3 C 48 % -0.21 C
915 16-02-2004 15:04:59 10.2 C 48 % -0.31 C
916 16-02-2004 15:16:58 9.8 C 48 % -0.67 C
917 16-02-2004 15:28:58 9.3 C 49 % -0.85 C
918 16-02-2004 15:40:57 9.5 C 49 % -0.67 C
919 16-02-2004 15:52:01 8.7 C 50 % -1.13 C
920 16-02-2004 16:04:01 8.4 C 50 % -1.4 C
921 16-02-2004 16:16:01 8.3 C 52 % -0.96 C
922 16-02-2004 16:28:01 8 C 52 % -1.24 C
923 16-02-2004 16:40:00 8.3 C 52 % -0.96 C
924 16-02-2004 16:52:01 8.6 C 52 % -0.68 C
925 16-02-2004 17:04:01 8.1 C 53 % -0.89 C
Sensor: Nr:Datum:Temp:Feuchte:Taupunkt:
Aussen-T/F 926 16-02-2004 17:16:01 6.4 C 56 % -1.72 C
927 16-02-2004 17:28:01 6.5 C 59 % -0.92 C
928 16-02-2004 17:40:01 6.2 C 60 % -0.97 C
929 16-02-2004 17:52:00 5.7 C 62 % -1 C
930 16-02-2004 18:04:00 5.1 C 64 % -1.13 C
931 16-02-2004 18:16:58 4.7 C 67 % -0.89 C
932 16-02-2004 18:28:58 4.5 C 69 % -0.68 C
933 16-02-2004 18:40:57 4.3 C 70 % -0.68 C
934 16-02-2004 18:52:01 4.3 C 71 % -0.48 C
935 16-02-2004 19:04:01 4.2 C 71 % -0.58 C
936 16-02-2004 19:16:01 4.1 C 71 % -0.67 C
937 16-02-2004 19:28:01 4 C 72 % -0.58 C
938 16-02-2004 19:40:01 4.1 C 73 % -0.29 C
939 16-02-2004 19:52:01 4.3 C 72 % -0.29 C
940 16-02-2004 20:04:01 4.7 C 72 % 0.09 C
941 16-02-2004 20:16:01 4.9 C 71 % 0.09 C
942 16-02-2004 20:28:01 5.1 C 69 % -0.11 C
943 16-02-2004 20:40:02 5.1 C 69 % -0.11 C
944 16-02-2004 20:52:01 5.2 C 69 % -0.01 C
945 16-02-2004 21:04:01 5.1 C 69 % -0.11 C
946 16-02-2004 21:16:01 5.2 C 69 % -0.01 C
947 16-02-2004 21:28:01 5.1 C 69 % -0.11 C
948 16-02-2004 21:40:58 5.2 C 69 % -0.01 C
949 16-02-2004 21:52:00 5.1 C 70 % 0.09 C
950 16-02-2004 22:04:00 5.2 C 70 % 0.19 C
Sensor: Nr:Datum:Temp:Feuchte:Taupunkt:
Aussen-T/F 951 16-02-2004 22:16:00 5.1 C 70 % 0.09 C
952 16-02-2004 22:28:00 5 C 70 % 0 C
953 16-02-2004 22:40:01 5 C 70 % 0 C
954 16-02-2004 22:52:00 5 C 70 % 0 C
955 16-02-2004 23:04:00 5 C 70 % 0 C
956 16-02-2004 23:16:59 5 C 70 % 0 C
957 16-02-2004 23:28:59 4.9 C 70 % -0.1 C
958 16-02-2004 23:40:57 4.7 C 70 % -0.29 C
959 16-02-2004 23:52:01 4.6 C 70 % -0.39 C
960 17-02-2004 00:04:01 4.5 C 70 % -0.48 C
961 17-02-2004 00:16:01 4.5 C 71 % -0.29 C
962 17-02-2004 00:28:01 4.4 C 71 % -0.39 C
963 17-02-2004 00:40:01 4.4 C 71 % -0.39 C
964 17-02-2004 00:52:00 4.3 C 71 % -0.48 C
965 17-02-2004 01:04:00 4.3 C 71 % -0.48 C
966 17-02-2004 01:16:58 4.3 C 71 % -0.48 C
967 17-02-2004 01:28:58 4.1 C 71 % -0.67 C
968 17-02-2004 01:40:57 4.1 C 71 % -0.67 C
969 17-02-2004 01:52:01 4.1 C 71 % -0.67 C
970 17-02-2004 02:04:01 4 C 71 % -0.77 C
971 17-02-2004 02:16:01 4 C 71 % -0.77 C
972 17-02-2004 02:28:01 3.9 C 72 % -0.68 C
973 17-02-2004 02:40:01 4 C 71 % -0.77 C
974 17-02-2004 02:53:02 4 C 71 % -0.77 C
975 17-02-2004 03:05:02 3.8 C 72 % -0.77 C
Sensor: Nr:Datum:Temp:Feuchte:Taupunkt:
Aussen-T/F 976 17-02-2004 03:17:02 3.8 C 72 % -0.77 C
977 17-02-2004 03:29:02 3.7 C 72 % -0.87 C
978 17-02-2004 03:41:00 3.6 C 72 % -0.96 C
979 17-02-2004 03:53:00 3.6 C 72 % -0.96 C
980 17-02-2004 04:05:00 3.6 C 72 % -0.96 C
981 17-02-2004 04:17:59 3.6 C 72 % -0.96 C
982 17-02-2004 04:29:59 3.6 C 71 % -1.15 C
983 17-02-2004 04:41:57 3.5 C 71 % -1.25 C
984 17-02-2004 04:53:01 3.5 C 72 % -1.06 C
985 17-02-2004 05:05:01 3.4 C 71 % -1.35 C
986 17-02-2004 05:17:01 3.4 C 71 % -1.35 C
987 17-02-2004 05:29:01 3.3 C 71 % -1.44 C
988 17-02-2004 05:41:01 3.3 C 71 % -1.44 C
989 17-02-2004 05:53:00 3.3 C 71 % -1.44 C
990 17-02-2004 06:05:59 3.3 C 71 % -1.44 C
991 17-02-2004 06:17:58 3.3 C 70 % -1.64 C
992 17-02-2004 06:29:58 3 C 71 % -1.73 C
993 17-02-2004 06:41:57 2.9 C 72 % -1.64 C
994 17-02-2004 06:53:01 2.9 C 71 % -1.83 C
995 17-02-2004 07:05:01 2.8 C 71 % -1.92 C
996 17-02-2004 07:17:01 2.9 C 71 % -1.83 C
997 17-02-2004 07:29:01 2.8 C 71 % -1.92 C
998 17-02-2004 07:41:01 2.5 C 72 % -2.02 C
999 17-02-2004 07:53:01 2.5 C 72 % -2.02 C
1000 17-02-2004 08:05:01 2.5 C 72 % -2.02 C
Sensor: Nr:Datum:Temp:Feuchte:Taupunkt:
Aussen-T/F 1001 17-02-2004 08:17:01 2.5 C 72 % -2.02 C
1002 17-02-2004 08:29:01 2.6 C 72 % -1.93 C
1003 17-02-2004 08:41:01 2.4 C 72 % -2.12 C
1004 17-02-2004 08:53:00 2.3 C 71 % -2.4 C
1005 17-02-2004 09:05:00 2.4 C 71 % -2.31 C
1006 17-02-2004 09:17:58 2.5 C 71 % -2.21 C
1007 17-02-2004 09:29:58 2.5 C 71 % -2.21 C
1008 17-02-2004 09:41:57 2.5 C 71 % -2.21 C
1009 17-02-2004 09:53:01 2.6 C 71 % -2.12 C
1010 17-02-2004 10:05:01 3 C 71 % -1.73 C
1011 17-02-2004 10:17:01 2.8 C 71 % -1.92 C
1012 17-02-2004 10:29:01 2.8 C 71 % -1.92 C
1013 17-02-2004 10:41:01 3.2 C 70 % -1.73 C
1014 17-02-2004 10:53:00 3.2 C 69 % -1.93 C
1015 17-02-2004 11:05:45 3.1 C 68 % -2.22 C
1016 17-02-2004 11:17:58 3 C 69 % -2.12 C
1017 17-02-2004 11:29:58 3.2 C 68 % -2.12 C
1018 17-02-2004 11:41:57 2.8 C 69 % -2.31 C
1019 17-02-2004 11:53:01 2.9 C 69 % -2.21 C
1020 17-02-2004 12:05:01 3 C 67 % -2.51 C
1021 17-02-2004 12:17:01 3.1 C 67 % -2.42 C
1022 17-02-2004 12:29:01 3.2 C 66 % -2.53 C
1023 17-02-2004 12:41:00 3.2 C 66 % -2.53 C
1024 17-02-2004 12:53:01 3.2 C 67 % -2.32 C
1025 17-02-2004 13:05:01 3.2 C 67 % -2.32 C
Sensor: Nr:Datum:Temp:Feuchte:Taupunkt:
Aussen-T/F 1026 17-02-2004 13:17:01 2.9 C 68 % -2.41 C
1027 17-02-2004 13:29:01 3.1 C 68 % -2.22 C
1028 17-02-2004 13:41:01 3.3 C 65 % -2.64 C
1029 17-02-2004 13:53:00 3.2 C 65 % -2.73 C
1030 17-02-2004 14:05:00 3.2 C 64 % -2.94 C
1031 17-02-2004 14:17:58 3.2 C 64 % -2.94 C
1032 17-02-2004 14:29:58 3.2 C 64 % -2.94 C
1033 17-02-2004 14:41:57 3.2 C 64 % -2.94 C
1034 17-02-2004 14:53:01 3.3 C 63 % -3.05 C
1035 17-02-2004 15:05:01 3.5 C 63 % -2.86 C
1036 17-02-2004 15:17:01 3.5 C 63 % -2.86 C
1037 17-02-2004 15:29:01 3.5 C 64 % -2.65 C
1038 17-02-2004 15:41:01 3.6 C 63 % -2.77 C
1039 17-02-2004 15:53:00 3.6 C 63 % -2.77 C
1040 17-02-2004 16:05:59 3.6 C 63 % -2.77 C
1041 17-02-2004 16:17:58 3.6 C 63 % -2.77 C
1042 17-02-2004 16:29:58 3.4 C 63 % -2.96 C
1043 17-02-2004 16:41:57 3.4 C 64 % -2.75 C
1044 17-02-2004 16:53:01 3.5 C 64 % -2.65 C
1045 17-02-2004 17:05:01 3.6 C 65 % -2.35 C
1046 17-02-2004 17:17:01 3.6 C 64 % -2.56 C
1047 17-02-2004 17:29:01 3.5 C 65 % -2.44 C
1048 17-02-2004 17:41:02 3.5 C 65 % -2.44 C
1049 17-02-2004 17:53:04 3.4 C 65 % -2.54 C
1050 17-02-2004 18:05:07 3.4 C 66 % -2.33 C
Sensor: Nr:Datum:Temp:Feuchte:Taupunkt:
Aussen-T/F 1051 17-02-2004 18:17:07 3.4 C 66 % -2.33 C
1052 17-02-2004 18:29:07 3.4 C 66 % -2.33 C
1053 17-02-2004 18:41:14 3.5 C 66 % -2.24 C
1054 17-02-2004 18:53:01 3.4 C 66 % -2.33 C
1055 17-02-2004 19:05:01 3.4 C 66 % -2.33 C
1056 17-02-2004 19:17:00 3.3 C 66 % -2.43 C
1057 17-02-2004 19:29:00 3.3 C 67 % -2.23 C
1058 17-02-2004 19:41:00 3.2 C 67 % -2.32 C
1059 17-02-2004 19:53:01 3.3 C 67 % -2.23 C
1060 17-02-2004 20:05:01 3.3 C 68 % -2.03 C
1061 17-02-2004 20:17:01 3.3 C 68 % -2.03 C
1062 17-02-2004 20:29:01 3.3 C 68 % -2.03 C
1063 17-02-2004 20:41:01 3.3 C 68 % -2.03 C
1064 17-02-2004 20:53:01 3.3 C 68 % -2.03 C
1065 17-02-2004 21:05:01 3.3 C 68 % -2.03 C
1066 17-02-2004 21:17:01 3.3 C 68 % -2.03 C
1067 17-02-2004 21:29:01 3.3 C 68 % -2.03 C
1068 17-02-2004 21:41:01 3.3 C 68 % -2.03 C
1069 17-02-2004 21:53:00 3.3 C 68 % -2.03 C
1070 17-02-2004 22:05:59 3.4 C 68 % -1.93 C
1071 17-02-2004 22:17:56 3.4 C 69 % -1.73 C
1072 17-02-2004 22:29:56 3.4 C 69 % -1.73 C
1073 17-02-2004 22:41:55 3.3 C 70 % -1.64 C
1074 17-02-2004 22:53:00 3.4 C 70 % -1.54 C
1075 17-02-2004 23:05:00 3.3 C 70 % -1.64 C
Sensor: Nr:Datum:Temp:Feuchte:Taupunkt:
Aussen-T/F 1076 17-02-2004 23:17:59 3.3 C 70 % -1.64 C
1077 17-02-2004 23:29:59 3.4 C 70 % -1.54 C
1078 17-02-2004 23:41:58 3.4 C 70 % -1.54 C
1079 17-02-2004 23:53:01 3.3 C 70 % -1.64 C
1080 18-02-2004 00:05:00 3.3 C 71 % -1.44 C
1081 18-02-2004 00:17:00 3.3 C 71 % -1.44 C
1082 18-02-2004 00:29:00 3.3 C 72 % -1.25 C
1083 18-02-2004 00:41:00 3.3 C 72 % -1.25 C
1084 18-02-2004 00:53:01 3.4 C 72 % -1.16 C
1085 18-02-2004 01:05:01 3.4 C 72 % -1.16 C
1086 18-02-2004 01:17:01 3.4 C 72 % -1.16 C
1087 18-02-2004 01:29:01 3.5 C 72 % -1.06 C
1088 18-02-2004 01:41:01 3.4 C 72 % -1.16 C
1089 18-02-2004 01:53:01 3.5 C 72 % -1.06 C
1090 18-02-2004 02:05:01 3.5 C 72 % -1.06 C
1091 18-02-2004 02:17:01 3.5 C 72 % -1.06 C
1092 18-02-2004 02:29:01 3.6 C 72 % -0.96 C
1093 18-02-2004 02:41:01 3.5 C 74 % -0.69 C
1094 18-02-2004 02:54:01 3.4 C 76 % -0.42 C
1095 18-02-2004 03:06:01 3.4 C 77 % -0.24 C
1096 18-02-2004 03:18:00 3.7 C 79 % 0.4 C
1097 18-02-2004 03:30:00 3.8 C 79 % 0.5 C
1098 18-02-2004 03:42:01 3.8 C 79 % 0.5 C
1099 18-02-2004 03:54:01 3.8 C 79 % 0.5 C
1100 18-02-2004 04:06:01 3.9 C 78 % 0.42 C
Sensor: Nr:Datum:Temp:Feuchte:Taupunkt:
Aussen-T/F 1101 18-02-2004 04:18:00 3.8 C 78 % 0.33 C
1102 18-02-2004 04:30:00 3.9 C 77 % 0.25 C
1103 18-02-2004 04:42:00 3.8 C 77 % 0.15 C
1104 18-02-2004 04:54:01 4 C 73 % -0.39 C
1105 18-02-2004 05:06:01 3.9 C 73 % -0.49 C
1106 18-02-2004 05:18:01 3.9 C 72 % -0.68 C
1107 18-02-2004 05:30:01 3.6 C 73 % -0.78 C
1108 18-02-2004 05:42:01 3.7 C 68 % -1.64 C
1109 18-02-2004 05:54:01 3.7 C 65 % -2.25 C
1110 18-02-2004 06:06:01 3.8 C 63 % -2.58 C
1111 18-02-2004 06:18:01 3.8 C 65 % -2.16 C
1112 18-02-2004 06:30:01 3.8 C 66 % -1.95 C
1113 18-02-2004 06:42:01 3.8 C 66 % -1.95 C
1114 18-02-2004 06:54:00 3.8 C 66 % -1.95 C
1115 18-02-2004 07:06:00 3.7 C 67 % -1.85 C
1116 18-02-2004 07:18:59 3.8 C 66 % -1.95 C
1117 18-02-2004 07:30:57 3.7 C 67 % -1.85 C
1118 18-02-2004 07:42:57 3.8 C 67 % -1.75 C
1119 18-02-2004 07:54:01 3.8 C 66 % -1.95 C
1120 18-02-2004 08:06:01 3.9 C 67 % -1.65 C
1121 18-02-2004 08:18:01 3.9 C 67 % -1.65 C
1122 18-02-2004 08:30:01 4 C 66 % -1.76 C
1123 18-02-2004 08:42:01 4.1 C 66 % -1.67 C
1124 18-02-2004 08:54:00 4.2 C 66 % -1.57 C
1125 18-02-2004 09:05:59 4.3 C 65 % -1.68 C
Sensor: Nr:Datum:Temp:Feuchte:Taupunkt:
Aussen-T/F 1126 18-02-2004 09:18:58 4.4 C 65 % -1.59 C
1127 18-02-2004 09:30:57 4.5 C 64 % -1.7 C
1128 18-02-2004 09:42:57 4.7 C 64 % -1.51 C
1129 18-02-2004 09:54:01 4.7 C 64 % -1.51 C
1130 18-02-2004 10:06:01 4.7 C 64 % -1.51 C
1131 18-02-2004 10:18:01 4.6 C 63 % -1.82 C
1132 18-02-2004 10:30:01 4.6 C 63 % -1.82 C
1133 18-02-2004 10:42:01 5.3 C 57 % -2.51 C
1134 18-02-2004 10:54:01 5.3 C 57 % -2.51 C
1135 18-02-2004 11:06:01 5 C 59 % -2.33 C
1136 18-02-2004 11:18:01 5 C 54 % -3.52 C
1137 18-02-2004 11:30:01 5.6 C 46 % -5.09 C
1138 18-02-2004 11:42:01 5.5 C 46 % -5.18 C
1139 18-02-2004 11:54:00 5.6 C 45 % -5.38 C
1140 18-02-2004 12:06:00 5.7 C 46 % -5 C
1141 18-02-2004 12:18:59 5.7 C 48 % -4.43 C
1142 18-02-2004 12:30:57 5.6 C 52 % -3.46 C
1143 18-02-2004 12:42:57 5.5 C 53 % -3.3 C
1144 18-02-2004 12:54:01 5.4 C 55 % -2.9 C
1145 18-02-2004 13:06:01 5.5 C 57 % -2.33 C
1146 18-02-2004 13:18:01 5.6 C 57 % -2.23 C
1147 18-02-2004 13:30:01 5.6 C 57 % -2.23 C
1148 18-02-2004 13:42:01 5.2 C 60 % -1.92 C
1149 18-02-2004 13:54:00 4.8 C 66 % -1 C
1150 18-02-2004 14:06:00 4.5 C 69 % -0.68 C
Sensor: Nr:Datum:Temp:Feuchte:Taupunkt:
Aussen-T/F 1151 18-02-2004 14:18:58 4.7 C 69 % -0.49 C
1152 18-02-2004 14:30:57 5.6 C 69 % 0.37 C
1153 18-02-2004 14:42:57 5.8 C 63 % -0.69 C
1154 18-02-2004 14:54:01 6.6 C 59 % -0.83 C
1155 18-02-2004 15:06:01 6.9 C 51 % -2.52 C
1156 18-02-2004 15:18:01 6.7 C 54 % -1.94 C
1157 18-02-2004 15:30:01 6.3 C 51 % -3.08 C
1158 18-02-2004 15:42:01 7 C 52 % -2.17 C
1159 18-02-2004 15:54:01 7.8 C 46 % -3.08 C
1160 18-02-2004 16:06:01 7.1 C 48 % -3.15 C
1161 18-02-2004 16:18:01 6.6 C 48 % -3.61 C
1162 18-02-2004 16:30:01 6.7 C 49 % -3.24 C
1163 18-02-2004 16:42:01 7.2 C 46 % -3.63 C
1164 18-02-2004 16:54:00 7 C 45 % -4.1 C
1165 18-02-2004 17:06:00 7.2 C 45 % -3.92 C
1166 18-02-2004 17:18:58 7.2 C 45 % -3.92 C
1167 18-02-2004 17:30:57 6.5 C 46 % -4.27 C
1168 18-02-2004 17:42:57 6 C 48 % -4.16 C
1169 18-02-2004 17:54:01 5.6 C 50 % -3.99 C
1170 18-02-2004 18:06:01 5.2 C 51 % -4.09 C
1171 18-02-2004 18:18:01 4.9 C 53 % -3.86 C
1172 18-02-2004 18:30:01 4.6 C 54 % -3.89 C
1173 18-02-2004 18:42:01 4.3 C 56 % -3.69 C
1174 18-02-2004 18:54:00 3.8 C 60 % -3.23 C
1175 18-02-2004 19:06:59 3.9 C 60 % -3.14 C
Sensor: Nr:Datum:Temp:Feuchte:Taupunkt:
Aussen-T/F 1176 18-02-2004 19:18:58 4.1 C 58 % -3.41 C
1177 18-02-2004 19:30:57 4.1 C 58 % -3.41 C
1178 18-02-2004 19:42:57 4.1 C 60 % -2.95 C
1179 18-02-2004 19:54:01 3.7 C 61 % -3.11 C
1180 18-02-2004 20:06:01 3.3 C 63 % -3.05 C
1181 18-02-2004 20:18:01 2.7 C 65 % -3.21 C
1182 18-02-2004 20:30:01 2.4 C 67 % -3.09 C
1183 18-02-2004 20:42:01 2 C 67 % -3.47 C
1184 18-02-2004 20:54:01 1.8 C 69 % -3.27 C
1185 18-02-2004 21:06:01 1.6 C 70 % -3.27 C
1186 18-02-2004 21:18:01 1.4 C 70 % -3.46 C
1187 18-02-2004 21:30:01 1.2 C 71 % -3.46 C
1188 18-02-2004 21:42:01 0.9 C 72 % -3.56 C
1189 18-02-2004 21:54:00 0.7 C 72 % -3.76 C
1190 18-02-2004 22:06:00 0.6 C 73 % -3.67 C
1191 18-02-2004 22:18:58 0.5 C 74 % -3.58 C
1192 18-02-2004 22:30:57 0.2 C 74 % -3.87 C
1193 18-02-2004 22:42:57 0.1 C 74 % -3.97 C
1194 18-02-2004 22:54:01 0.1 C 75 % -3.79 C
1195 18-02-2004 23:06:01 0 C 76 % -3.71 C
1196 18-02-2004 23:18:01 0.2 C 76 % -3.52 C
1197 18-02-2004 23:30:01 0 C 75 % -3.89 C
1198 18-02-2004 23:42:01 0.1 C 75 % -3.79 C
1199 18-02-2004 23:54:00 0.4 C 75 % -3.5 C
1200 19-02-2004 00:06:59 0.3 C 74 % -3.78 C
Sensor: Nr:Datum:Temp:Feuchte:Taupunkt:
Aussen-T/F 1201 19-02-2004 00:18:58 0.1 C 74 % -3.97 C
1202 19-02-2004 00:30:57 0.1 C 75 % -3.79 C
1203 19-02-2004 00:42:57 0.2 C 75 % -3.69 C
1204 19-02-2004 00:54:01 0.2 C 75 % -3.69 C
1205 19-02-2004 01:06:01 0.3 C 75 % -3.6 C
1206 19-02-2004 01:18:01 0.1 C 75 % -3.79 C
1207 19-02-2004 01:30:01 -0.1 C 75 % -3.99 C
1208 19-02-2004 01:42:01 -0.3 C 76 % -4.01 C
1209 19-02-2004 01:54:01 -0.4 C 76 % -4.1 C
1210 19-02-2004 02:06:01 -0.6 C 76 % -4.3 C
1211 19-02-2004 02:18:01 -0.8 C 76 % -4.49 C
1212 19-02-2004 02:30:01 -1 C 77 % -4.51 C
1213 19-02-2004 02:42:01 -1 C 77 % -4.51 C
1214 19-02-2004 02:55:01 -1.2 C 77 % -4.71 C
1215 19-02-2004 03:07:01 -1.3 C 77 % -4.8 C
1216 19-02-2004 03:19:00 -1.2 C 78 % -4.54 C
1217 19-02-2004 03:31:01 -1.3 C 79 % -4.46 C
1218 19-02-2004 03:43:01 -1.5 C 78 % -4.83 C
1219 19-02-2004 03:55:01 -1.8 C 78 % -5.12 C
1220 19-02-2004 04:07:01 -1.9 C 78 % -5.22 C
1221 19-02-2004 04:19:00 -2 C 79 % -5.15 C
1222 19-02-2004 04:31:00 -2.1 C 79 % -5.24 C
1223 19-02-2004 04:43:00 -2 C 79 % -5.15 C
1224 19-02-2004 04:55:01 -1.2 C 80 % -4.2 C
1225 19-02-2004 05:07:01 -1.2 C 82 % -3.87 C
Sensor: Nr:Datum:Temp:Feuchte:Taupunkt:
Aussen-T/F 1226 19-02-2004 05:19:01 -1.1 C 82 % -3.77 C
1227 19-02-2004 05:31:01 -1 C 82 % -3.68 C
1228 19-02-2004 05:43:01 -1 C 82 % -3.68 C
1229 19-02-2004 05:55:01 -0.7 C 82 % -3.38 C
1230 19-02-2004 06:07:01 -0.5 C 82 % -3.19 C
1231 19-02-2004 06:19:01 -0.4 C 81 % -3.25 C
1232 19-02-2004 06:31:01 -0.3 C 80 % -3.32 C
1233 19-02-2004 06:43:01 -0.3 C 79 % -3.49 C
1234 19-02-2004 06:55:00 -0.2 C 78 % -3.56 C
1235 19-02-2004 07:07:00 -0.2 C 77 % -3.74 C
1236 19-02-2004 07:19:59 0 C 77 % -3.54 C
1237 19-02-2004 07:31:57 0 C 77 % -3.54 C
1238 19-02-2004 07:43:57 0.2 C 76 % -3.52 C
1239 19-02-2004 07:55:01 0.3 C 75 % -3.6 C
1240 19-02-2004 08:07:01 0.4 C 74 % -3.68 C
1241 19-02-2004 08:19:01 0.5 C 74 % -3.58 C
1242 19-02-2004 08:31:01 0.8 C 75 % -3.11 C
1243 19-02-2004 08:43:01 1.1 C 73 % -3.19 C
1244 19-02-2004 08:55:00 1.3 C 73 % -2.99 C
1245 19-02-2004 09:06:59 1.7 C 72 % -2.79 C
1246 19-02-2004 09:19:58 1.9 C 70 % -2.98 C
1247 19-02-2004 09:31:57 2.2 C 68 % -3.08 C
1248 19-02-2004 09:43:57 2.4 C 64 % -3.7 C
1249 19-02-2004 09:55:01 2.7 C 60 % -4.27 C
1250 19-02-2004 10:07:01 2.8 C 58 % -4.63 C
Sensor: Nr:Datum:Temp:Feuchte:Taupunkt:
Aussen-T/F 1251 19-02-2004 10:19:01 2.5 C 58 % -4.91 C
1252 19-02-2004 10:31:01 2.9 C 57 % -4.76 C
1253 19-02-2004 10:43:01 3.2 C 51 % -5.94 C
1254 19-02-2004 10:55:01 3.1 C 46 % -7.37 C
1255 19-02-2004 11:07:01 3.1 C 45 % -7.66 C
1256 19-02-2004 11:19:01 3.7 C 45 % -7.11 C
1257 19-02-2004 11:31:01 3.7 C 45 % -7.11 C
1258 19-02-2004 11:43:01 3.4 C 46 % -7.1 C
1259 19-02-2004 11:55:00 3.7 C 43 % -7.7 C
1260 19-02-2004 12:07:00 4.1 C 41 % -7.95 C
1261 19-02-2004 12:19:58 4.5 C 39 % -8.23 C
1262 19-02-2004 12:31:57 4.6 C 38 % -8.47 C
1263 19-02-2004 12:43:57 4.7 C 39 % -8.05 C
1264 19-02-2004 12:55:01 4.4 C 38 % -8.65 C
1265 19-02-2004 13:07:01 4.2 C 37 % -9.17 C
1266 19-02-2004 13:19:01 4.1 C 37 % -9.26 C
1267 19-02-2004 13:31:01 3.8 C 39 % -8.86 C
1268 19-02-2004 13:43:01 3.5 C 39 % -9.12 C
1269 19-02-2004 13:55:00 3.5 C 39 % -9.12 C
1270 19-02-2004 14:07:00 3.6 C 40 % -8.71 C
1271 19-02-2004 14:19:58 3.4 C 42 % -8.27 C
1272 19-02-2004 14:31:57 3.4 C 44 % -7.67 C
1273 19-02-2004 14:43:57 3.3 C 45 % -7.47 C
1274 19-02-2004 14:55:01 3.1 C 45 % -7.66 C
1275 19-02-2004 15:07:01 3 C 45 % -7.75 C
Sensor: Nr:Datum:Temp:Feuchte:Taupunkt:
Aussen-T/F 1276 19-02-2004 15:19:01 2.9 C 46 % -7.56 C
1277 19-02-2004 15:31:02 2.8 C 46 % -7.65 C
1278 19-02-2004 15:43:02 2.7 C 47 % -7.46 C
1279 19-02-2004 15:55:00 2.6 C 47 % -7.55 C
1280 19-02-2004 16:07:00 2.4 C 46 % -8.01 C
1281 19-02-2004 16:19:59 2.4 C 46 % -8.01 C
1282 19-02-2004 16:31:59 2.5 C 46 % -7.92 C
1283 19-02-2004 16:43:59 2.3 C 45 % -8.39 C
1284 19-02-2004 16:55:01 2.3 C 45 % -8.39 C
1285 19-02-2004 17:07:01 2.2 C 45 % -8.48 C
1286 19-02-2004 17:19:01 2 C 45 % -8.66 C
1287 19-02-2004 17:31:02 1.8 C 46 % -8.56 C
1288 19-02-2004 17:43:02 1.7 C 46 % -8.65 C
1289 19-02-2004 17:55:01 1.6 C 46 % -8.75 C
1290 19-02-2004 18:07:01 1.5 C 45 % -9.12 C
1291 19-02-2004 18:19:01 1.4 C 46 % -8.93 C
1292 19-02-2004 18:31:01 1.4 C 46 % -8.93 C
1293 19-02-2004 18:43:01 1.3 C 46 % -9.02 C
1294 19-02-2004 18:55:00 1.2 C 46 % -9.11 C
1295 19-02-2004 19:07:00 1.2 C 46 % -9.11 C
1296 19-02-2004 19:19:59 1.2 C 46 % -9.11 C
1297 19-02-2004 19:31:57 1.2 C 46 % -9.11 C
1298 19-02-2004 19:43:57 1.1 C 47 % -8.93 C
1299 19-02-2004 19:55:01 1.1 C 47 % -8.93 C
1300 19-02-2004 20:07:01 1.1 C 47 % -8.93 C
Sensor: Nr:Datum:Temp:Feuchte:Taupunkt:
Aussen-T/F 1301 19-02-2004 20:19:01 1.1 C 47 % -8.93 C
1302 19-02-2004 20:31:01 1.1 C 47 % -8.93 C
1303 19-02-2004 20:43:01 1.1 C 47 % -8.93 C
1304 19-02-2004 20:55:00 1.1 C 47 % -8.93 C
1305 19-02-2004 21:07:00 1.1 C 48 % -8.66 C
1306 19-02-2004 21:19:58 1.1 C 48 % -8.66 C
1307 19-02-2004 21:31:57 1.1 C 48 % -8.66 C
1308 19-02-2004 21:43:57 1.1 C 48 % -8.66 C
1309 19-02-2004 21:55:01 1 C 48 % -8.75 C
1310 19-02-2004 22:07:01 0.9 C 50 % -8.33 C
1311 19-02-2004 22:19:01 1 C 48 % -8.75 C
1312 19-02-2004 22:31:01 0.9 C 49 % -8.58 C
1313 19-02-2004 22:43:01 0.9 C 48 % -8.85 C
1314 19-02-2004 22:55:01 1 C 47 % -9.02 C
1315 19-02-2004 23:07:01 0.9 C 49 % -8.58 C
1316 19-02-2004 23:19:01 0.9 C 49 % -8.58 C
1317 19-02-2004 23:31:01 0.9 C 49 % -8.58 C
1318 19-02-2004 23:43:01 0.8 C 49 % -8.68 C
1319 19-02-2004 23:55:01 0.8 C 50 % -8.42 C
1320 20-02-2004 00:07:00 0.8 C 49 % -8.68 C
1321 20-02-2004 00:19:59 0.8 C 49 % -8.68 C
1322 20-02-2004 00:31:57 0.8 C 49 % -8.68 C
1323 20-02-2004 00:43:57 0.7 C 49 % -8.77 C
1324 20-02-2004 00:55:01 0.7 C 49 % -8.77 C
1325 20-02-2004 01:07:01 0.7 C 49 % -8.77 C
Sensor: Nr:Datum:Temp:Feuchte:Taupunkt:
Aussen-T/F 1326 20-02-2004 01:19:01 0.4 C 50 % -8.79 C
1327 20-02-2004 01:31:01 0.3 C 51 % -8.63 C
1328 20-02-2004 01:43:01 0.2 C 51 % -8.72 C
1329 20-02-2004 01:55:00 0.3 C 51 % -8.63 C
1330 20-02-2004 02:07:59 0.3 C 51 % -8.63 C
1331 20-02-2004 02:19:58 0.1 C 52 % -8.56 C
1332 20-02-2004 02:31:57 0 C 52 % -8.66 C
1333 20-02-2004 02:43:57 -0.2 C 54 % -8.37 C
1334 20-02-2004 02:56:02 -0.2 C 54 % -8.37 C
1335 20-02-2004 03:08:02 -0.3 C 54 % -8.47 C
1336 20-02-2004 03:20:02 -0.3 C 55 % -8.23 C
1337 20-02-2004 03:32:00 -0.3 C 55 % -8.23 C
1338 20-02-2004 03:44:00 -0.3 C 55 % -8.23 C
1339 20-02-2004 03:56:00 -0.4 C 56 % -8.09 C
1340 20-02-2004 04:08:00 -0.6 C 56 % -8.28 C
1341 20-02-2004 04:20:59 -0.7 C 56 % -8.38 C
1342 20-02-2004 04:32:57 -1 C 57 % -8.43 C
1343 20-02-2004 04:44:01 -1.1 C 57 % -8.52 C
1344 20-02-2004 04:56:01 -1.1 C 57 % -8.52 C
1345 20-02-2004 05:08:01 -1.2 C 57 % -8.62 C
1346 20-02-2004 05:20:01 -1.2 C 57 % -8.62 C
1347 20-02-2004 05:32:01 -1.2 C 57 % -8.62 C
1348 20-02-2004 05:44:01 -1.3 C 58 % -8.49 C
1349 20-02-2004 05:56:00 -1.5 C 58 % -8.68 C
1350 20-02-2004 06:08:00 -1.6 C 60 % -8.34 C
Sensor: Nr:Datum:Temp:Feuchte:Taupunkt:
Aussen-T/F 1351 20-02-2004 06:20:58 -1.5 C 59 % -8.46 C
1352 20-02-2004 06:32:57 -1.4 C 59 % -8.36 C
1353 20-02-2004 06:44:01 -1.4 C 59 % -8.36 C
1354 20-02-2004 06:56:01 -1.5 C 59 % -8.46 C
1355 20-02-2004 07:08:01 -1.6 C 60 % -8.34 C
1356 20-02-2004 07:20:01 -1.6 C 61 % -8.13 C
1357 20-02-2004 07:32:01 -1.7 C 61 % -8.22 C
1358 20-02-2004 07:44:01 -1.8 C 61 % -8.31 C
1359 20-02-2004 07:56:01 -1.8 C 61 % -8.31 C
1360 20-02-2004 08:08:01 -1.6 C 61 % -8.13 C
1361 20-02-2004 08:20:01 -1.6 C 60 % -8.34 C
1362 20-02-2004 08:32:01 -1.5 C 60 % -8.24 C
1363 20-02-2004 08:44:01 -1.4 C 60 % -8.15 C
1364 20-02-2004 08:56:00 -1.2 C 59 % -8.18 C
1365 20-02-2004 09:08:00 -1.3 C 59 % -8.27 C
1366 20-02-2004 09:20:59 -1.2 C 59 % -8.18 C
1367 20-02-2004 09:32:58 -1.1 C 58 % -8.3 C
1368 20-02-2004 09:44:01 -0.8 C 57 % -8.24 C
1369 20-02-2004 09:56:01 -0.7 C 57 % -8.15 C
1370 20-02-2004 10:08:01 -0.6 C 56 % -8.28 C
1371 20-02-2004 10:20:01 -0.2 C 55 % -8.14 C
1372 20-02-2004 10:32:01 0.4 C 54 % -7.8 C
1373 20-02-2004 10:44:01 0.7 C 52 % -8.01 C
1374 20-02-2004 10:56:00 1.2 C 50 % -8.05 C
1375 20-02-2004 11:08:00 1.5 C 49 % -8.03 C
Sensor: Nr:Datum:Temp:Feuchte:Taupunkt:
Aussen-T/F 1376 20-02-2004 11:20:58 2 C 47 % -8.1 C
1377 20-02-2004 11:32:57 2.2 C 46 % -8.2 C
1378 20-02-2004 11:44:01 2.6 C 44 % -8.4 C
1379 20-02-2004 11:56:01 2.9 C 43 % -8.42 C
1380 20-02-2004 12:08:01 3.4 C 42 % -8.27 C
1381 20-02-2004 12:20:01 3.9 C 40 % -8.44 C
1382 20-02-2004 12:32:01 4.3 C 38 % -8.74 C
1383 20-02-2004 12:44:01 4.6 C 37 % -8.81 C
1384 20-02-2004 12:56:00 5 C 37 % -8.45 C
1385 20-02-2004 13:08:59 5.6 C 36 % -8.27 C
1386 20-02-2004 13:20:58 6 C 33 % -9.03 C
1387 20-02-2004 13:32:57 6.6 C 34 % -8.12 C
1388 20-02-2004 13:44:01 6.9 C 31 % -9.03 C
1389 20-02-2004 13:56:01 7.1 C 30 % -9.27 C
1390 20-02-2004 14:08:01 7.7 C 29 % -9.18 C
1391 20-02-2004 14:20:01 8.2 C 29 % -8.75 C
1392 20-02-2004 14:32:00 8.2 C 26 % -10.13 C
1393 20-02-2004 14:44:00 8.4 C 27 % -9.48 C
1394 20-02-2004 14:56:01 8.7 C 26 % -9.7 C
1395 20-02-2004 15:08:01 9.1 C 25 % -9.86 C
1396 20-02-2004 15:20:01 8.9 C 25 % -10.03 C
1397 20-02-2004 15:32:01 9.1 C 25 % -9.86 C
1398 20-02-2004 15:44:01 9.2 C 25 % -9.77 C
1399 20-02-2004 15:56:00 9.3 C 25 % -9.69 C
1400 20-02-2004 16:07:59 9.1 C 26 % -9.36 C
Sensor: Nr:Datum:Temp:Feuchte:Taupunkt:
Aussen-T/F 1401 20-02-2004 16:20:58 9.3 C 25 % -9.69 C
1402 20-02-2004 16:32:04 9.2 C 25 % -9.77 C
1403 20-02-2004 16:44:04 8.8 C 26 % -9.62 C
1404 20-02-2004 16:56:02 8.7 C 29 % -8.32 C
1405 20-02-2004 17:08:02 8.6 C 30 % -7.97 C
1406 20-02-2004 17:20:10 7.9 C 32 % -7.75 C
1407 20-02-2004 17:32:13 7.1 C 34 % -7.67 C
1408 20-02-2004 17:44:13 5.8 C 38 % -7.4 C
1409 20-02-2004 17:56:01 5 C 40 % -7.45 C
1410 20-02-2004 18:08:01 4.2 C 42 % -7.55 C
1411 20-02-2004 18:20:01 3.6 C 45 % -7.2 C
1412 20-02-2004 18:32:01 3.3 C 46 % -7.19 C
1413 20-02-2004 18:44:01 3.1 C 46 % -7.37 C
1414 20-02-2004 18:56:01 2.9 C 48 % -7.01 C
1415 20-02-2004 19:08:01 2.7 C 48 % -7.19 C
1416 20-02-2004 19:20:01 2.5 C 49 % -7.11 C
1417 20-02-2004 19:32:01 2.4 C 50 % -6.94 C
1418 20-02-2004 19:44:01 2.3 C 50 % -7.03 C
1419 20-02-2004 19:56:00 2.3 C 50 % -7.03 C
1420 20-02-2004 20:08:57 2.1 C 51 % -6.96 C
1421 20-02-2004 20:20:56 1.9 C 52 % -6.89 C
1422 20-02-2004 20:32:54 1.7 C 53 % -6.83 C
1423 20-02-2004 20:44:00 1.5 C 53 % -7.02 C
1424 20-02-2004 20:56:00 1.4 C 54 % -6.87 C
1425 20-02-2004 21:08:00 1.3 C 55 % -6.73 C
Sensor: Nr:Datum:Temp:Feuchte:Taupunkt:
Aussen-T/F 1426 20-02-2004 21:20:59 1.2 C 55 % -6.82 C
1427 20-02-2004 21:32:58 1 C 56 % -6.77 C
1428 20-02-2004 21:44:01 0.9 C 57 % -6.64 C
1429 20-02-2004 21:56:01 0.7 C 57 % -6.82 C
1430 20-02-2004 22:08:00 0.6 C 58 % -6.69 C
1431 20-02-2004 22:20:59 0.5 C 59 % -6.56 C
1432 20-02-2004 22:32:58 0.4 C 59 % -6.66 C
1433 20-02-2004 22:44:01 0.2 C 59 % -6.85 C
1434 20-02-2004 22:56:01 0.1 C 59 % -6.94 C
1435 20-02-2004 23:08:01 0 C 60 % -6.82 C
1436 20-02-2004 23:20:00 -0.1 C 60 % -6.92 C
1437 20-02-2004 23:32:00 -0.1 C 60 % -6.92 C
1438 20-02-2004 23:44:00 -0.1 C 59 % -7.14 C
1439 20-02-2004 23:56:01 -0.1 C 59 % -7.14 C
1440 21-02-2004 00:08:01 -0.2 C 59 % -7.23 C
1441 21-02-2004 00:20:02 -0.3 C 60 % -7.11 C
1442 21-02-2004 00:32:01 -0.3 C 60 % -7.11 C
1443 21-02-2004 00:44:01 -0.4 C 61 % -6.99 C
1444 21-02-2004 00:56:01 -0.6 C 62 % -6.97 C
1445 21-02-2004 01:08:01 -0.9 C 61 % -7.46 C
1446 21-02-2004 01:20:01 -1 C 62 % -7.35 C
1447 21-02-2004 01:32:01 -1.1 C 63 % -7.24 C
1448 21-02-2004 01:44:01 -1.3 C 64 % -7.22 C
1449 21-02-2004 01:56:01 -1.2 C 63 % -7.33 C
1450 21-02-2004 02:08:01 -1.4 C 63 % -7.52 C
Sensor: Nr:Datum:Temp:Feuchte:Taupunkt:
Aussen-T/F 1451 21-02-2004 02:20:01 -1.4 C 63 % -7.52 C
1452 21-02-2004 02:32:01 -1.3 C 63 % -7.43 C
1453 21-02-2004 02:44:01 -1.5 C 65 % -7.21 C
1454 21-02-2004 02:57:01 -1.6 C 66 % -7.11 C
1455 21-02-2004 03:09:01 -1.8 C 65 % -7.5 C
1456 21-02-2004 03:20:59 -1.9 C 66 % -7.4 C
1457 21-02-2004 03:33:01 -2 C 65 % -7.69 C
1458 21-02-2004 03:45:01 -2.1 C 66 % -7.59 C
1459 21-02-2004 03:57:01 -2.3 C 66 % -7.78 C
1460 21-02-2004 04:09:01 -2.5 C 66 % -7.97 C
1461 21-02-2004 04:21:01 -2.4 C 66 % -7.87 C
1462 21-02-2004 04:33:01 -2.3 C 67 % -7.58 C
1463 21-02-2004 04:45:00 -2 C 66 % -7.49 C
1464 21-02-2004 04:57:00 -1.9 C 65 % -7.59 C
1465 21-02-2004 05:09:59 -1.8 C 63 % -7.9 C
1466 21-02-2004 05:21:58 -1.8 C 63 % -7.9 C
1467 21-02-2004 05:33:57 -1.8 C 62 % -8.11 C
1468 21-02-2004 05:45:01 -1.8 C 62 % -8.11 C
1469 21-02-2004 05:57:01 -2 C 63 % -8.09 C
1470 21-02-2004 06:09:01 -1.9 C 63 % -8 C
1471 21-02-2004 06:21:01 -2 C 63 % -8.09 C
1472 21-02-2004 06:33:01 -2 C 63 % -8.09 C
1473 21-02-2004 06:45:01 -2 C 64 % -7.89 C
1474 21-02-2004 06:57:01 -1.8 C 63 % -7.9 C
1475 21-02-2004 07:09:01 -1.4 C 61 % -7.94 C
Sensor: Nr:Datum:Temp:Feuchte:Taupunkt:
Aussen-T/F 1476 21-02-2004 07:21:01 -1.4 C 60 % -8.15 C
1477 21-02-2004 07:33:01 -1.1 C 59 % -8.08 C
1478 21-02-2004 07:45:00 -1.1 C 58 % -8.3 C
1479 21-02-2004 07:57:00 -1.4 C 60 % -8.15 C
1480 21-02-2004 08:09:00 -0.9 C 58 % -8.11 C
1481 21-02-2004 08:21:58 -0.7 C 58 % -7.92 C
1482 21-02-2004 08:33:57 -0.4 C 56 % -8.09 C
1483 21-02-2004 08:45:01 -0.4 C 56 % -8.09 C
1484 21-02-2004 08:57:01 -0.4 C 57 % -7.87 C
1485 21-02-2004 09:09:01 -0.3 C 57 % -7.77 C
1486 21-02-2004 09:21:01 0.1 C 56 % -7.61 C
1487 21-02-2004 09:33:01 0.4 C 55 % -7.57 C
1488 21-02-2004 09:45:00 0.5 C 54 % -7.71 C
1489 21-02-2004 09:57:00 0.7 C 54 % -7.52 C
1490 21-02-2004 10:09:59 1 C 52 % -7.73 C
1491 21-02-2004 10:21:58 1.1 C 52 % -7.64 C
1492 21-02-2004 10:33:57 1.2 C 53 % -7.3 C
1493 21-02-2004 10:45:01 1.3 C 51 % -7.7 C
1494 21-02-2004 10:57:01 1.5 C 50 % -7.77 C
1495 21-02-2004 11:09:01 1.5 C 50 % -7.77 C
1496 21-02-2004 11:21:01 1.5 C 51 % -7.52 C
1497 21-02-2004 11:33:01 1.6 C 51 % -7.42 C
1498 21-02-2004 11:45:01 1.8 C 51 % -7.24 C
1499 21-02-2004 11:57:01 2.2 C 50 % -7.12 C
1500 21-02-2004 12:09:01 2.4 C 50 % -6.94 C
Sensor: Nr:Datum:Temp:Feuchte:Taupunkt:
Aussen-T/F 1501 21-02-2004 12:21:01 3 C 46 % -7.47 C
1502 21-02-2004 12:33:01 3.1 C 45 % -7.66 C
1503 21-02-2004 12:45:00 3.3 C 46 % -7.19 C
1504 21-02-2004 12:57:00 3.5 C 45 % -7.29 C
1505 21-02-2004 13:09:00 3.4 C 45 % -7.38 C
1506 21-02-2004 13:21:58 3.7 C 45 % -7.11 C
1507 21-02-2004 13:33:57 3.7 C 45 % -7.11 C
1508 21-02-2004 13:45:01 3.5 C 46 % -7.01 C
1509 21-02-2004 13:57:01 3.5 C 46 % -7.01 C
1510 21-02-2004 14:09:01 3.6 C 45 % -7.2 C
1511 21-02-2004 14:21:01 3.6 C 45 % -7.2 C
1512 21-02-2004 14:33:01 3.7 C 45 % -7.11 C
1513 21-02-2004 14:45:01 3.9 C 45 % -6.93 C
1514 21-02-2004 14:57:01 4.2 C 44 % -6.94 C
1515 21-02-2004 15:09:28 4.4 C 44 % -6.76 C
1516 21-02-2004 15:21:01 4.8 C 43 % -6.7 C
1517 21-02-2004 15:33:01 5.3 C 41 % -6.86 C
1518 21-02-2004 15:45:00 5.5 C 41 % -6.68 C
1519 21-02-2004 15:57:00 5.5 C 41 % -6.68 C
1520 21-02-2004 16:09:00 5.8 C 41 % -6.41 C
1521 21-02-2004 16:21:59 5.7 C 40 % -6.82 C
1522 21-02-2004 16:33:57 5.5 C 41 % -6.68 C
1523 21-02-2004 16:45:02 5.1 C 42 % -6.73 C
1524 21-02-2004 16:57:02 4.8 C 43 % -6.7 C
1525 21-02-2004 17:09:04 4.6 C 44 % -6.58 C
Sensor: Nr:Datum:Temp:Feuchte:Taupunkt:
Aussen-T/F 1526 21-02-2004 17:21:02 4.4 C 45 % -6.47 C
1527 21-02-2004 17:33:02 4.3 C 45 % -6.56 C
1528 21-02-2004 17:45:02 4.2 C 45 % -6.65 C
1529 21-02-2004 17:57:02 4.1 C 46 % -6.46 C
1530 21-02-2004 18:09:01 3.9 C 47 % -6.36 C
1531 21-02-2004 18:21:59 3.8 C 49 % -5.91 C
1532 21-02-2004 18:33:59 3.7 C 48 % -6.27 C
1533 21-02-2004 18:45:01 3.7 C 50 % -5.74 C
1534 21-02-2004 18:57:01 3.6 C 50 % -5.83 C
1535 21-02-2004 19:09:01 3.4 C 51 % -5.76 C
1536 21-02-2004 19:21:00 3 C 51 % -6.13 C
1537 21-02-2004 19:33:00 2.7 C 53 % -5.9 C
1538 21-02-2004 19:45:01 2.5 C 54 % -5.85 C
1539 21-02-2004 19:57:01 2.5 C 55 % -5.61 C
1540 21-02-2004 20:09:01 2.6 C 55 % -5.51 C
1541 21-02-2004 20:21:01 2.7 C 55 % -5.42 C
1542 21-02-2004 20:33:01 2.8 C 56 % -5.09 C
1543 21-02-2004 20:45:01 2.9 C 55 % -5.23 C
1544 21-02-2004 20:57:01 2.8 C 55 % -5.33 C
1545 21-02-2004 21:09:01 2.8 C 56 % -5.09 C
1546 21-02-2004 21:21:01 2.4 C 56 % -5.46 C
1547 21-02-2004 21:33:01 1.9 C 58 % -5.47 C
1548 21-02-2004 21:45:00 1.6 C 59 % -5.53 C
1549 21-02-2004 21:57:00 1.4 C 59 % -5.72 C
1550 21-02-2004 22:09:00 1.2 C 60 % -5.69 C
Sensor: Nr:Datum:Temp:Feuchte:Taupunkt:
Aussen-T/F 1551 21-02-2004 22:21:58 1.1 C 61 % -5.56 C
1552 21-02-2004 22:33:57 0.9 C 62 % -5.54 C
1553 21-02-2004 22:45:01 0.9 C 62 % -5.54 C
1554 21-02-2004 22:57:01 0.7 C 63 % -5.52 C
1555 21-02-2004 23:09:01 0.6 C 64 % -5.41 C
1556 21-02-2004 23:21:01 0.4 C 65 % -5.39 C
1557 21-02-2004 23:33:01 0.3 C 65 % -5.49 C
1558 21-02-2004 23:45:01 0.3 C 66 % -5.29 C
1559 21-02-2004 23:57:01 0.1 C 66 % -5.48 C
1560 22-02-2004 00:09:01 0.2 C 66 % -5.38 C
1561 22-02-2004 00:21:01 0.1 C 66 % -5.48 C
1562 22-02-2004 00:33:01 0 C 66 % -5.58 C
1563 22-02-2004 00:45:00 0 C 65 % -5.78 C
1564 22-02-2004 00:57:00 -0.1 C 66 % -5.68 C
1565 22-02-2004 01:09:00 -0.2 C 67 % -5.58 C
1566 22-02-2004 01:21:59 -0.1 C 67 % -5.48 C
1567 22-02-2004 01:33:57 -0.1 C 68 % -5.29 C
1568 22-02-2004 01:45:01 0 C 67 % -5.38 C
1569 22-02-2004 01:57:01 0.2 C 67 % -5.19 C
1570 22-02-2004 02:09:01 0.3 C 67 % -5.09 C
1571 22-02-2004 02:21:01 0.2 C 66 % -5.38 C
1572 22-02-2004 02:33:01 0.1 C 67 % -5.28 C
1573 22-02-2004 02:46:01 -0.1 C 67 % -5.48 C
1574 22-02-2004 02:58:01 -0.2 C 68 % -5.38 C
1575 22-02-2004 03:10:00 -0.3 C 69 % -5.29 C
Sensor: Nr:Datum:Temp:Feuchte:Taupunkt:
Aussen-T/F 1576 22-02-2004 03:22:00 -0.3 C 69 % -5.29 C
1577 22-02-2004 03:34:01 -0.1 C 69 % -5.09 C
1578 22-02-2004 03:46:01 0.2 C 68 % -4.99 C
1579 22-02-2004 03:58:01 0.1 C 69 % -4.9 C
1580 22-02-2004 04:10:00 0.1 C 69 % -4.9 C
1581 22-02-2004 04:22:00 0.2 C 68 % -4.99 C
1582 22-02-2004 04:34:00 0.2 C 68 % -4.99 C
1583 22-02-2004 04:46:01 0.3 C 68 % -4.9 C
1584 22-02-2004 04:58:01 0.4 C 67 % -5 C
1585 22-02-2004 05:10:01 0.4 C 67 % -5 C
1586 22-02-2004 05:22:01 0.4 C 68 % -4.8 C
1587 22-02-2004 05:34:00 0.4 C 69 % -4.61 C
1588 22-02-2004 05:46:01 0.4 C 69 % -4.61 C
1589 22-02-2004 05:58:01 0.4 C 69 % -4.61 C
1590 22-02-2004 06:10:01 0.4 C 69 % -4.61 C
1591 22-02-2004 06:22:01 0.4 C 69 % -4.61 C
1592 22-02-2004 06:34:01 0.5 C 69 % -4.51 C
1593 22-02-2004 06:46:00 0.4 C 69 % -4.61 C
1594 22-02-2004 06:58:00 0.4 C 70 % -4.42 C
1595 22-02-2004 07:10:00 0.5 C 69 % -4.51 C
1596 22-02-2004 07:22:58 0.6 C 69 % -4.42 C
1597 22-02-2004 07:34:57 0.7 C 68 % -4.51 C
1598 22-02-2004 07:46:01 1 C 67 % -4.42 C
1599 22-02-2004 07:58:01 1.2 C 66 % -4.43 C
1600 22-02-2004 08:10:01 1.3 C 66 % -4.34 C
Sensor: Nr:Datum:Temp:Feuchte:Taupunkt:
Aussen-T/F 1601 22-02-2004 08:22:01 1.4 C 66 % -4.24 C
1602 22-02-2004 08:34:01 1.5 C 66 % -4.15 C
1603 22-02-2004 08:46:00 1.6 C 65 % -4.25 C
1604 22-02-2004 08:58:00 1.7 C 65 % -4.16 C
1605 22-02-2004 09:10:59 1.8 C 65 % -4.06 C
1606 22-02-2004 09:22:58 1.8 C 65 % -4.06 C
1607 22-02-2004 09:34:57 2 C 65 % -3.87 C
1608 22-02-2004 09:46:01 1.9 C 66 % -3.76 C
1609 22-02-2004 09:58:01 1.9 C 66 % -3.76 C
1610 22-02-2004 10:10:01 1.8 C 66 % -3.86 C
1611 22-02-2004 10:22:01 1.6 C 66 % -4.05 C
1612 22-02-2004 10:34:00 1.7 C 66 % -3.95 C
1613 22-02-2004 10:46:16 1.5 C 66 % -4.15 C
1614 22-02-2004 10:58:01 1.7 C 66 % -3.95 C
1615 22-02-2004 11:10:01 1.8 C 66 % -3.86 C
1616 22-02-2004 11:22:01 1.7 C 66 % -3.95 C
1617 22-02-2004 11:34:01 1.9 C 66 % -3.76 C
1618 22-02-2004 11:46:40 2.1 C 64 % -3.98 C
1619 22-02-2004 11:58:00 2 C 63 % -4.29 C
1620 22-02-2004 12:10:00 1.9 C 65 % -3.97 C
1621 22-02-2004 12:22:59 1.6 C 64 % -4.46 C
1622 22-02-2004 12:34:58 2 C 63 % -4.29 C
1623 22-02-2004 12:46:01 1.9 C 63 % -4.38 C
1624 22-02-2004 12:58:01 2.1 C 62 % -4.4 C
1625 22-02-2004 13:10:01 2.3 C 60 % -4.65 C
Sensor: Nr:Datum:Temp:Feuchte:Taupunkt:
Aussen-T/F 1626 22-02-2004 13:22:01 2.5 C 58 % -4.91 C
1627 22-02-2004 13:34:01 2.8 C 58 % -4.63 C
1628 22-02-2004 13:46:00 2.8 C 56 % -5.09 C
1629 22-02-2004 13:58:00 3.3 C 54 % -5.1 C
1630 22-02-2004 14:10:00 3.3 C 53 % -5.35 C
1631 22-02-2004 14:22:59 3.4 C 52 % -5.5 C
1632 22-02-2004 14:34:57 3.6 C 51 % -5.57 C
1633 22-02-2004 14:46:01 4 C 49 % -5.73 C
1634 22-02-2004 14:58:01 4.3 C 46 % -6.28 C
1635 22-02-2004 15:10:01 4.5 C 44 % -6.67 C
1636 22-02-2004 15:22:01 5.1 C 41 % -7.04 C
1637 22-02-2004 15:34:01 5.4 C 38 % -7.75 C
1638 22-02-2004 15:46:00 5.8 C 37 % -7.74 C
1639 22-02-2004 15:58:00 5.5 C 36 % -8.36 C
1640 22-02-2004 16:09:59 4.8 C 41 % -7.31 C
1641 22-02-2004 16:22:58 4.7 C 43 % -6.79 C
1642 22-02-2004 16:34:57 4.6 C 45 % -6.29 C
1643 22-02-2004 16:46:01 4.4 C 46 % -6.18 C
1644 22-02-2004 16:58:01 4.1 C 46 % -6.46 C
1645 22-02-2004 17:10:01 3.9 C 47 % -6.36 C
1646 22-02-2004 17:22:01 3.7 C 47 % -6.55 C
1647 22-02-2004 17:34:01 3.6 C 48 % -6.36 C
1648 22-02-2004 17:46:01 3.6 C 49 % -6.1 C
1649 22-02-2004 17:58:01 3.6 C 49 % -6.1 C
1650 22-02-2004 18:10:01 3.5 C 49 % -6.19 C
Sensor: Nr:Datum:Temp:Feuchte:Taupunkt:
Aussen-T/F 1651 22-02-2004 18:22:01 3.5 C 50 % -5.92 C
1652 22-02-2004 18:34:01 3.5 C 50 % -5.92 C
1653 22-02-2004 18:46:00 3.5 C 51 % -5.66 C
1654 22-02-2004 18:58:00 3.5 C 51 % -5.66 C
1655 22-02-2004 19:10:00 3.5 C 52 % -5.41 C
1656 22-02-2004 19:22:59 3.5 C 53 % -5.16 C
1657 22-02-2004 19:34:57 3.3 C 53 % -5.35 C
1658 22-02-2004 19:46:01 2.7 C 56 % -5.18 C
1659 22-02-2004 19:58:01 2.4 C 58 % -5 C
1660 22-02-2004 20:10:01 2.5 C 58 % -4.91 C
1661 22-02-2004 20:22:01 2.6 C 59 % -4.59 C
1662 22-02-2004 20:34:01 2.7 C 58 % -4.72 C
1663 22-02-2004 20:46:00 2.8 C 58 % -4.63 C
1664 22-02-2004 20:58:00 2.9 C 59 % -4.31 C
1665 22-02-2004 21:10:59 2.9 C 60 % -4.08 C
1666 22-02-2004 21:22:58 3 C 58 % -4.44 C
1667 22-02-2004 21:34:57 3 C 58 % -4.44 C
1668 22-02-2004 21:46:01 3 C 58 % -4.44 C
1669 22-02-2004 21:58:01 3.1 C 58 % -4.34 C
1670 22-02-2004 22:10:01 3.1 C 56 % -4.81 C
1671 22-02-2004 22:22:01 3 C 53 % -5.62 C
1672 22-02-2004 22:34:01 2.8 C 51 % -6.31 C
1673 22-02-2004 22:46:01 2.6 C 49 % -7.02 C
1674 22-02-2004 22:58:01 2.2 C 48 % -7.65 C
1675 22-02-2004 23:10:01 2 C 47 % -8.1 C
Sensor: Nr:Datum:Temp:Feuchte:Taupunkt:
Aussen-T/F 1676 22-02-2004 23:22:01 1.8 C 48 % -8.02 C
1677 22-02-2004 23:34:01 1.5 C 50 % -7.77 C
1678 22-02-2004 23:46:00 1.3 C 51 % -7.7 C
1679 22-02-2004 23:58:00 1.1 C 52 % -7.64 C
1680 23-02-2004 00:10:00 0.8 C 54 % -7.43 C
1681 23-02-2004 00:22:59 0.8 C 55 % -7.19 C
1682 23-02-2004 00:34:57 0.6 C 56 % -7.15 C
1683 23-02-2004 00:46:01 0.4 C 56 % -7.33 C
1684 23-02-2004 00:58:01 0.3 C 57 % -7.2 C
1685 23-02-2004 01:10:01 0.2 C 58 % -7.07 C
1686 23-02-2004 01:22:01 0 C 60 % -6.82 C
1687 23-02-2004 01:34:01 -0.3 C 61 % -6.9 C
1688 23-02-2004 01:46:00 -0.4 C 61 % -6.99 C
1689 23-02-2004 01:58:00 -0.3 C 62 % -6.68 C
1690 23-02-2004 02:09:59 -0.3 C 62 % -6.68 C
1691 23-02-2004 02:22:58 -0.6 C 63 % -6.76 C
1692 23-02-2004 02:34:57 -0.9 C 63 % -7.05 C
1693 23-02-2004 02:47:02 -0.9 C 65 % -6.64 C
1694 23-02-2004 02:59:02 -1 C 66 % -6.54 C
1695 23-02-2004 03:11:02 -1.1 C 67 % -6.44 C
1696 23-02-2004 03:23:02 -1.1 C 67 % -6.44 C
1697 23-02-2004 03:35:00 -1.5 C 67 % -6.82 C
1698 23-02-2004 03:47:00 -1.7 C 69 % -6.63 C
1699 23-02-2004 03:59:00 -1.9 C 70 % -6.63 C
1700 23-02-2004 04:11:00 -1.6 C 71 % -6.16 C
Sensor: Nr:Datum:Temp:Feuchte:Taupunkt:
Aussen-T/F 1701 23-02-2004 04:23:59 -1.4 C 70 % -6.15 C
1702 23-02-2004 04:35:57 -1.4 C 70 % -6.15 C
1703 23-02-2004 04:47:01 -1.4 C 70 % -6.15 C
1704 23-02-2004 04:59:01 -1.4 C 69 % -6.34 C
1705 23-02-2004 05:11:01 -1.4 C 70 % -6.15 C
1706 23-02-2004 05:23:01 -1 C 69 % -5.96 C
1707 23-02-2004 05:35:01 -0.9 C 68 % -6.05 C
1708 23-02-2004 05:47:00 -0.9 C 67 % -6.25 C
1709 23-02-2004 05:59:00 -0.9 C 67 % -6.25 C
1710 23-02-2004 06:11:00 -0.8 C 68 % -5.96 C
1711 23-02-2004 06:23:58 -0.7 C 67 % -6.05 C
1712 23-02-2004 06:35:57 -0.7 C 68 % -5.86 C
1713 23-02-2004 06:47:01 -0.7 C 68 % -5.86 C
1714 23-02-2004 06:59:01 -0.6 C 68 % -5.76 C
1715 23-02-2004 07:11:01 -0.6 C 68 % -5.76 C
1716 23-02-2004 07:23:01 -0.6 C 68 % -5.76 C
1717 23-02-2004 07:35:01 -0.5 C 68 % -5.67 C
1718 23-02-2004 07:47:01 -0.4 C 68 % -5.57 C
1719 23-02-2004 07:59:01 -0.4 C 68 % -5.57 C
1720 23-02-2004 08:11:01 -0.3 C 68 % -5.48 C
1721 23-02-2004 08:23:01 -0.3 C 68 % -5.48 C
1722 23-02-2004 08:35:01 -0.3 C 68 % -5.48 C
1723 23-02-2004 08:47:00 -0.4 C 69 % -5.38 C
1724 23-02-2004 08:59:00 -0.1 C 69 % -5.09 C
1725 23-02-2004 09:11:00 0.2 C 68 % -4.99 C
Sensor: Nr:Datum:Temp:Feuchte:Taupunkt:
Aussen-T/F 1726 23-02-2004 09:23:59 0.5 C 66 % -5.1 C
1727 23-02-2004 09:35:57 0.7 C 65 % -5.11 C
1728 23-02-2004 09:47:23 0.8 C 65 % -5.01 C
1729 23-02-2004 09:59:02 1.1 C 63 % -5.14 C
1730 23-02-2004 10:02:24 0.8 C 64 % -5.22 C
1731 23-02-2004 10:05:01 0.8 C 64 % -5.22 C
1732 23-02-2004 10:14:01 1 C 63 % -5.23 C
1733 23-02-2004 10:26:01 1 C 63 % -5.23 C
1734 23-02-2004 10:38:01 1 C 63 % -5.23 C
1735 23-02-2004 10:50:01 1.3 C 63 % -4.95 C
1736 23-02-2004 11:13:59 1.4 C 62 % -5.07 C
1737 23-02-2004 11:14:58 1.5 C 60 % -5.4 C
1738 23-02-2004 11:26:58 1.9 C 57 % -5.7 C
1739 23-02-2004 11:38:57 1.9 C 58 % -5.47 C
1740 23-02-2004 11:50:01 2.5 C 56 % -5.37 C
1741 23-02-2004 12:02:01 2.2 C 56 % -5.65 C
1742 23-02-2004 12:14:01 2.6 C 57 % -5.04 C
1743 23-02-2004 12:26:01 2.8 C 55 % -5.33 C
1744 23-02-2004 12:38:01 3 C 51 % -6.13 C
1745 23-02-2004 12:50:01 3.8 C 48 % -6.18 C
1746 23-02-2004 13:02:01 3.7 C 45 % -7.11 C
1747 23-02-2004 13:14:01 4.1 C 44 % -7.04 C
1748 23-02-2004 13:26:01 4.3 C 43 % -7.15 C
1749 23-02-2004 13:38:01 4.6 C 42 % -7.18 C
1750 23-02-2004 13:50:00 5 C 39 % -7.78 C
Sensor: Nr:Datum:Temp:Feuchte:Taupunkt:
Aussen-T/F 1751 23-02-2004 14:02:00 3.6 C 46 % -6.92 C
1752 23-02-2004 14:14:00 1.7 C 60 % -5.21 C
1753 23-02-2004 14:26:59 2.1 C 57 % -5.51 C
1754 23-02-2004 14:38:57 3 C 52 % -5.87 C
1755 23-02-2004 14:50:01 3.3 C 53 % -5.35 C
1756 23-02-2004 15:02:01 4.2 C 50 % -5.28 C
1757 23-02-2004 15:14:01 4.9 C 47 % -5.45 C
1758 23-02-2004 15:26:01 3.6 C 47 % -6.64 C
1759 23-02-2004 15:38:01 2.9 C 51 % -6.22 C
1760 23-02-2004 15:50:01 2.7 C 49 % -6.92 C
1761 23-02-2004 16:02:59 3.1 C 45 % -7.66 C
1762 23-02-2004 16:13:59 3.6 C 42 % -8.09 C
1763 23-02-2004 16:26:58 3.2 C 38 % -9.72 C
1764 23-02-2004 16:38:57 3.5 C 37 % -9.79 C
1765 23-02-2004 16:50:01 3.8 C 35 % -10.23 C
1766 23-02-2004 17:02:01 3.8 C 35 % -10.23 C
1767 23-02-2004 17:14:01 3.7 C 35 % -10.31 C
1768 23-02-2004 17:26:01 3.2 C 37 % -10.06 C
1769 23-02-2004 17:38:01 2.6 C 40 % -9.61 C
1770 23-02-2004 17:50:01 2.4 C 42 % -9.18 C
1771 23-02-2004 18:02:01 2.3 C 45 % -8.39 C
1772 23-02-2004 18:14:01 2 C 50 % -7.31 C
1773 23-02-2004 18:26:01 1.5 C 54 % -6.78 C
1774 23-02-2004 18:38:01 1 C 56 % -6.77 C
1775 23-02-2004 18:50:00 0.6 C 59 % -6.47 C
Sensor: Nr:Datum:Temp:Feuchte:Taupunkt:
Aussen-T/F 1776 23-02-2004 19:02:00 0.2 C 60 % -6.63 C
1777 23-02-2004 19:14:00 0.2 C 59 % -6.85 C
1778 23-02-2004 19:26:59 -0.2 C 60 % -7.02 C
1779 23-02-2004 19:38:58 -0.5 C 61 % -7.08 C
1780 23-02-2004 19:50:01 -0.5 C 61 % -7.08 C
1781 23-02-2004 20:02:01 -0.8 C 62 % -7.16 C
1782 23-02-2004 20:14:01 -0.9 C 64 % -6.84 C
1783 23-02-2004 20:26:01 -1 C 65 % -6.74 C
1784 23-02-2004 20:38:01 -1.3 C 65 % -7.02 C
1785 23-02-2004 20:50:00 -1.3 C 67 % -6.63 C
1786 23-02-2004 21:02:00 -1.6 C 67 % -6.91 C
1787 23-02-2004 21:14:00 -1.8 C 67 % -7.11 C
1788 23-02-2004 21:26:59 -2 C 67 % -7.3 C
1789 23-02-2004 21:38:57 -2.1 C 68 % -7.2 C
1790 23-02-2004 21:50:01 -2.3 C 68 % -7.39 C
1791 23-02-2004 22:02:01 -2.3 C 69 % -7.2 C
1792 23-02-2004 22:14:01 -2.4 C 69 % -7.3 C
1793 23-02-2004 22:26:01 -2.4 C 69 % -7.3 C
1794 23-02-2004 22:38:01 -2.6 C 70 % -7.31 C
1795 23-02-2004 22:50:00 -2.6 C 70 % -7.31 C
1796 23-02-2004 23:02:59 -2.7 C 71 % -7.22 C
1797 23-02-2004 23:14:58 -3 C 71 % -7.51 C
1798 23-02-2004 23:26:58 -2.9 C 72 % -7.23 C
1799 23-02-2004 23:38:57 -2.9 C 72 % -7.23 C
1800 23-02-2004 23:50:01 -3 C 73 % -7.15 C
Sensor: Nr:Datum:Temp:Feuchte:Taupunkt:
Aussen-T/F 1801 24-02-2004 00:02:01 -3.2 C 73 % -7.34 C
1802 24-02-2004 00:14:01 -3.2 C 73 % -7.34 C
1803 24-02-2004 00:26:01 -3.4 C 72 % -7.71 C
1804 24-02-2004 00:38:01 -3.2 C 72 % -7.52 C
1805 24-02-2004 00:50:01 -3.4 C 73 % -7.53 C
1806 24-02-2004 01:02:01 -3.5 C 73 % -7.63 C
1807 24-02-2004 01:14:01 -3.7 C 74 % -7.65 C
1808 24-02-2004 01:26:01 -3.7 C 74 % -7.65 C
1809 24-02-2004 01:38:01 -3.8 C 74 % -7.75 C
1810 24-02-2004 01:50:00 -4 C 74 % -7.94 C
1811 24-02-2004 02:02:00 -4 C 74 % -7.94 C
1812 24-02-2004 02:14:00 -4 C 74 % -7.94 C
1813 24-02-2004 02:26:58 -4.2 C 74 % -8.13 C
1814 24-02-2004 02:38:57 -4.3 C 74 % -8.23 C
1815 24-02-2004 02:51:03 -4.5 C 74 % -8.42 C
1816 24-02-2004 03:03:03 -4.6 C 74 % -8.52 C
1817 24-02-2004 03:15:02 -4.6 C 74 % -8.52 C
1818 24-02-2004 03:27:02 -4.8 C 74 % -8.71 C
1819 24-02-2004 03:39:00 -4.8 C 74 % -8.71 C
1820 24-02-2004 03:51:00 -5.1 C 73 % -9.18 C
1821 24-02-2004 04:03:00 -4.9 C 73 % -8.98 C
1822 24-02-2004 04:15:59 -5 C 73 % -9.08 C
1823 24-02-2004 04:27:59 -5.3 C 73 % -9.37 C
1824 24-02-2004 04:39:58 -5.2 C 73 % -9.27 C
1825 24-02-2004 04:51:01 -5.3 C 73 % -9.37 C
Sensor: Nr:Datum:Temp:Feuchte:Taupunkt:
Aussen-T/F 1826 24-02-2004 05:03:01 -5.6 C 73 % -9.66 C
1827 24-02-2004 05:15:01 -5.7 C 73 % -9.75 C
1828 24-02-2004 05:27:01 -5.6 C 73 % -9.66 C
1829 24-02-2004 05:39:01 -5.6 C 73 % -9.66 C
1830 24-02-2004 05:51:00 -5.8 C 73 % -9.85 C
1831 24-02-2004 06:03:00 -5.8 C 73 % -9.85 C
1832 24-02-2004 06:15:59 -6 C 73 % -10.04 C
1833 24-02-2004 06:27:59 -6.1 C 73 % -10.14 C
1834 24-02-2004 06:39:57 -6.1 C 73 % -10.14 C
1835 24-02-2004 06:51:01 -6.1 C 73 % -10.14 C
1836 24-02-2004 07:03:01 -6.2 C 72 % -10.41 C
1837 24-02-2004 07:15:01 -6.2 C 73 % -10.24 C
1838 24-02-2004 07:27:01 -6.1 C 72 % -10.32 C
1839 24-02-2004 07:39:01 -6 C 72 % -10.22 C
1840 24-02-2004 07:51:00 -5.7 C 71 % -10.11 C
1841 24-02-2004 08:03:59 -5.5 C 70 % -10.09 C
1842 24-02-2004 08:15:58 -5.3 C 69 % -10.08 C
1843 24-02-2004 08:27:58 -4.8 C 69 % -9.6 C
1844 24-02-2004 08:39:57 -4.4 C 67 % -9.59 C
1845 24-02-2004 08:51:01 -4.4 C 67 % -9.59 C
1846 24-02-2004 09:03:01 -4.1 C 67 % -9.31 C
1847 24-02-2004 09:15:01 -3.9 C 67 % -9.11 C
1848 24-02-2004 09:27:01 -3.5 C 67 % -8.73 C
1849 24-02-2004 09:39:01 -3.1 C 66 % -8.54 C
1850 24-02-2004 09:51:01 -2.6 C 65 % -8.26 C
Sensor: Nr:Datum:Temp:Feuchte:Taupunkt:
Aussen-T/F 1851 24-02-2004 10:03:01 -2.3 C 64 % -8.17 C
1852 24-02-2004 10:15:01 -1.9 C 64 % -7.79 C
1853 24-02-2004 10:27:01 -1.4 C 62 % -7.73 C
1854 24-02-2004 10:39:01 -1.1 C 61 % -7.65 C
1855 24-02-2004 10:51:01 -0.6 C 60 % -7.39 C
1856 24-02-2004 11:03:01 -0.1 C 59 % -7.14 C
1857 24-02-2004 11:15:01 0 C 56 % -7.71 C
1858 24-02-2004 11:27:01 0.2 C 56 % -7.52 C
1859 24-02-2004 11:39:01 0.5 C 55 % -7.47 C
1860 24-02-2004 11:51:01 0.8 C 52 % -7.92 C
1861 24-02-2004 12:03:01 1.3 C 51 % -7.7 C
1862 24-02-2004 12:15:01 1.9 C 50 % -7.4 C
1863 24-02-2004 12:27:01 2.3 C 46 % -8.11 C
1864 24-02-2004 12:39:01 2.3 C 45 % -8.39 C
1865 24-02-2004 12:51:01 2.5 C 44 % -8.49 C
1866 24-02-2004 13:03:02 2.6 C 42 % -8.99 C
1867 24-02-2004 13:15:01 3.1 C 40 % -9.16 C
1868 24-02-2004 13:27:01 3.1 C 40 % -9.16 C
1869 24-02-2004 13:39:01 3.4 C 40 % -8.89 C
1870 24-02-2004 13:51:01 3.8 C 40 % -8.53 C
1871 24-02-2004 14:03:01 3.3 C 41 % -8.67 C
1872 24-02-2004 14:15:01 3.4 C 43 % -7.97 C
1873 24-02-2004 14:27:01 3.5 C 44 % -7.58 C
1874 24-02-2004 14:39:01 3.5 C 46 % -7.01 C
1875 24-02-2004 14:51:00 3.3 C 46 % -7.19 C
Sensor: Nr:Datum:Temp:Feuchte:Taupunkt:
Aussen-T/F 1876 24-02-2004 15:03:00 3.3 C 46 % -7.19 C
1877 24-02-2004 15:15:59 3.2 C 47 % -7 C
1878 24-02-2004 15:27:59 3.2 C 47 % -7 C
1879 24-02-2004 15:39:58 3.3 C 47 % -6.91 C
1880 24-02-2004 15:51:01 3.3 C 47 % -6.91 C
1881 24-02-2004 16:03:01 3.2 C 47 % -7 C
1882 24-02-2004 16:15:01 3.2 C 48 % -6.73 C
1883 24-02-2004 16:27:01 3 C 48 % -6.92 C
1884 24-02-2004 16:39:01 2.7 C 50 % -6.66 C
1885 24-02-2004 16:51:01 2.7 C 51 % -6.41 C
1886 24-02-2004 17:03:01 2.7 C 52 % -6.15 C
1887 24-02-2004 17:15:01 2.7 C 53 % -5.9 C
1888 24-02-2004 17:27:01 2.5 C 54 % -5.85 C
1889 24-02-2004 17:39:01 2.1 C 56 % -5.74 C
1890 24-02-2004 17:51:00 1.8 C 59 % -5.34 C
1891 24-02-2004 18:03:00 1.7 C 60 % -5.21 C
1892 24-02-2004 18:15:59 1.7 C 60 % -5.21 C
1893 24-02-2004 18:27:59 1.6 C 60 % -5.31 C
1894 24-02-2004 18:39:58 1.6 C 60 % -5.31 C
1895 24-02-2004 18:51:01 1.5 C 60 % -5.4 C
1896 24-02-2004 19:03:01 1.6 C 60 % -5.31 C
1897 24-02-2004 19:15:01 1.6 C 59 % -5.53 C
1898 24-02-2004 19:27:01 1.6 C 59 % -5.53 C
1899 24-02-2004 19:39:02 1.5 C 59 % -5.62 C
1900 24-02-2004 19:51:00 1.5 C 58 % -5.85 C
Sensor: Nr:Datum:Temp:Feuchte:Taupunkt:
Aussen-T/F 1901 24-02-2004 20:03:00 1.4 C 58 % -5.94 C
1902 24-02-2004 20:15:59 1.4 C 58 % -5.94 C
1903 24-02-2004 20:27:59 1.4 C 58 % -5.94 C
1904 24-02-2004 20:39:57 1.2 C 58 % -6.13 C
1905 24-02-2004 20:51:01 1.2 C 59 % -5.91 C
1906 24-02-2004 21:03:01 1.2 C 59 % -5.91 C
1907 24-02-2004 21:15:01 1.2 C 58 % -6.13 C
1908 24-02-2004 21:27:01 1.3 C 58 % -6.03 C
1909 24-02-2004 21:39:01 1.2 C 59 % -5.91 C
1910 24-02-2004 21:51:01 1.1 C 60 % -5.78 C
1911 24-02-2004 22:03:00 1.2 C 60 % -5.69 C
1912 24-02-2004 22:15:58 1.3 C 60 % -5.59 C
1913 24-02-2004 22:27:58 1.3 C 60 % -5.59 C
1914 24-02-2004 22:39:57 1.3 C 61 % -5.37 C
1915 24-02-2004 22:51:01 1.3 C 61 % -5.37 C
1916 24-02-2004 23:03:01 1.4 C 61 % -5.28 C
1917 24-02-2004 23:15:01 1.3 C 63 % -4.95 C
1918 24-02-2004 23:27:01 1.3 C 65 % -4.54 C
1919 24-02-2004 23:39:01 1.3 C 66 % -4.34 C
1920 24-02-2004 23:51:01 1.2 C 67 % -4.23 C
1921 25-02-2004 00:03:01 1.2 C 67 % -4.23 C
1922 25-02-2004 00:15:01 1.5 C 65 % -4.35 C
1923 25-02-2004 00:27:01 1.5 C 64 % -4.55 C
1924 25-02-2004 00:39:02 1.6 C 63 % -4.67 C
1925 25-02-2004 00:51:00 1.6 C 63 % -4.67 C
Sensor: Nr:Datum:Temp:Feuchte:Taupunkt:
Aussen-T/F 1926 25-02-2004 01:03:00 1.6 C 63 % -4.67 C
1927 25-02-2004 01:15:59 1.6 C 63 % -4.67 C
1928 25-02-2004 01:27:59 1.6 C 63 % -4.67 C
1929 25-02-2004 01:39:58 1.5 C 64 % -4.55 C
1930 25-02-2004 01:51:01 1.5 C 65 % -4.35 C
1931 25-02-2004 02:03:01 1.5 C 65 % -4.35 C
1932 25-02-2004 02:15:01 1.4 C 65 % -4.44 C
1933 25-02-2004 02:27:01 1.2 C 68 % -4.04 C
1934 25-02-2004 02:39:00 1.2 C 68 % -4.04 C
1935 25-02-2004 02:52:03 1.2 C 68 % -4.04 C
1936 25-02-2004 03:04:03 1.3 C 67 % -4.14 C
1937 25-02-2004 03:16:02 1.3 C 67 % -4.14 C
1938 25-02-2004 03:28:02 1.3 C 66 % -4.34 C
1939 25-02-2004 03:40:00 1.3 C 67 % -4.14 C
1940 25-02-2004 03:52:00 1.2 C 69 % -3.84 C
1941 25-02-2004 04:04:00 1 C 72 % -3.47 C
1942 25-02-2004 04:16:59 0.7 C 75 % -3.21 C
1943 25-02-2004 04:28:59 0.7 C 76 % -3.03 C
1944 25-02-2004 04:40:58 0.7 C 76 % -3.03 C
1945 25-02-2004 04:52:00 0.7 C 75 % -3.21 C
1946 25-02-2004 05:04:00 0.6 C 77 % -2.96 C
1947 25-02-2004 05:16:00 0.6 C 77 % -2.96 C
1948 25-02-2004 05:28:00 0.5 C 78 % -2.88 C
1949 25-02-2004 05:40:00 0.5 C 79 % -2.71 C
1950 25-02-2004 05:52:01 0.4 C 79 % -2.81 C
Sensor: Nr:Datum:Temp:Feuchte:Taupunkt:
Aussen-T/F 1951 25-02-2004 06:04:01 0.5 C 79 % -2.71 C
1952 25-02-2004 06:16:01 0.5 C 79 % -2.71 C
1953 25-02-2004 06:28:01 0.5 C 79 % -2.71 C
1954 25-02-2004 06:40:01 0.6 C 79 % -2.61 C
1955 25-02-2004 06:52:00 0.5 C 80 % -2.54 C
1956 25-02-2004 07:04:00 0.4 C 81 % -2.47 C
1957 25-02-2004 07:16:58 0.4 C 82 % -2.3 C
1958 25-02-2004 07:28:58 0.4 C 82 % -2.3 C
1959 25-02-2004 07:40:57 0.4 C 82 % -2.3 C
1960 25-02-2004 07:52:01 0.5 C 82 % -2.21 C
1961 25-02-2004 08:04:01 0.5 C 82 % -2.21 C
1962 25-02-2004 08:16:01 0.4 C 83 % -2.14 C
1963 25-02-2004 08:28:01 0.4 C 83 % -2.14 C
1964 25-02-2004 08:40:01 0.4 C 84 % -1.98 C
1965 25-02-2004 08:52:00 0.4 C 84 % -1.98 C
1966 25-02-2004 09:04:59 0.4 C 84 % -1.98 C
1967 25-02-2004 09:16:58 0.5 C 84 % -1.88 C
1968 25-02-2004 09:28:58 0.6 C 84 % -1.78 C
1969 25-02-2004 09:40:57 0.8 C 82 % -1.91 C
1970 25-02-2004 09:52:01 1 C 81 % -1.88 C
1971 25-02-2004 10:04:01 1.2 C 80 % -1.86 C
1972 25-02-2004 10:16:01 1.5 C 80 % -1.57 C
1973 25-02-2004 10:28:01 1.6 C 80 % -1.47 C
1974 25-02-2004 10:40:00 1.9 C 79 % -1.35 C
1975 25-02-2004 10:52:01 2.2 C 77 % -1.4 C
Sensor: Nr:Datum:Temp:Feuchte:Taupunkt:
Aussen-T/F 1976 25-02-2004 11:04:01 2.2 C 75 % -1.76 C
1977 25-02-2004 11:16:01 2.6 C 74 % -1.56 C
1978 25-02-2004 11:28:01 3 C 71 % -1.73 C
1979 25-02-2004 11:40:01 3.7 C 68 % -1.64 C
1980 25-02-2004 11:52:00 3.6 C 65 % -2.35 C
1981 25-02-2004 12:04:00 3.4 C 66 % -2.33 C
1982 25-02-2004 12:16:59 3.7 C 64 % -2.46 C
1983 25-02-2004 12:28:59 3.8 C 64 % -2.37 C
1984 25-02-2004 12:40:58 3.8 C 63 % -2.58 C
1985 25-02-2004 12:52:01 3.8 C 63 % -2.58 C
1986 25-02-2004 13:04:00 3.8 C 61 % -3.01 C
1987 25-02-2004 13:16:00 3.6 C 62 % -2.98 C
1988 25-02-2004 13:28:00 3.7 C 64 % -2.46 C
1989 25-02-2004 13:40:00 4.4 C 61 % -2.45 C
1990 25-02-2004 13:52:01 5 C 56 % -3.03 C
1991 25-02-2004 14:04:01 5 C 54 % -3.52 C
1992 25-02-2004 14:16:01 4.6 C 54 % -3.89 C
1993 25-02-2004 14:28:01 4.4 C 55 % -3.83 C
1994 25-02-2004 14:40:01 4.3 C 54 % -4.17 C
1995 25-02-2004 14:52:01 4.1 C 55 % -4.11 C
1996 25-02-2004 15:04:01 4.2 C 55 % -4.02 C
1997 25-02-2004 15:16:01 4 C 55 % -4.21 C
1998 25-02-2004 15:28:01 3.7 C 57 % -4.01 C
1999 25-02-2004 15:40:01 3.4 C 60 % -3.61 C
2000 25-02-2004 15:52:00 3.1 C 63 % -3.24 C
Sensor: Nr:Datum:Temp:Feuchte:Taupunkt:
Aussen-T/F 2001 25-02-2004 16:04:00 3.3 C 67 % -2.23 C
2002 25-02-2004 16:16:58 1.1 C 72 % -3.37 C
2003 25-02-2004 16:28:58 0.8 C 78 % -2.59 C
2004 25-02-2004 16:40:57 0.7 C 79 % -2.51 C
2005 25-02-2004 16:52:01 0.7 C 79 % -2.51 C
2006 25-02-2004 17:04:01 0.6 C 80 % -2.44 C
2007 25-02-2004 17:16:01 0.7 C 80 % -2.34 C
2008 25-02-2004 17:28:01 0.7 C 80 % -2.34 C
2009 25-02-2004 17:40:01 0.7 C 80 % -2.34 C
2010 25-02-2004 17:52:00 0.6 C 80 % -2.44 C
2011 25-02-2004 18:04:00 0.6 C 80 % -2.44 C
2012 25-02-2004 18:16:59 0.7 C 80 % -2.34 C
2013 25-02-2004 18:28:59 0.7 C 81 % -2.18 C
2014 25-02-2004 18:40:58 0.5 C 80 % -2.54 C
2015 25-02-2004 18:52:01 0.3 C 81 % -2.57 C
2016 25-02-2004 19:04:02 0.3 C 81 % -2.57 C
2017 25-02-2004 19:16:01 0.1 C 81 % -2.76 C
2018 25-02-2004 19:28:01 0.1 C 82 % -2.6 C
2019 25-02-2004 19:40:01 0.1 C 81 % -2.76 C
2020 25-02-2004 19:52:00 0.1 C 81 % -2.76 C
2021 25-02-2004 20:04:00 0.1 C 81 % -2.76 C
2022 25-02-2004 20:16:58 0 C 81 % -2.86 C
2023 25-02-2004 20:28:58 0 C 81 % -2.86 C
2024 25-02-2004 20:40:57 0 C 81 % -2.86 C
2025 25-02-2004 20:52:01 0 C 81 % -2.86 C
Sensor: Nr:Datum:Temp:Feuchte:Taupunkt:
Aussen-T/F 2026 25-02-2004 21:04:01 0.1 C 81 % -2.76 C
2027 25-02-2004 21:16:01 0 C 81 % -2.86 C
2028 25-02-2004 21:28:01 -0.1 C 81 % -2.96 C
2029 25-02-2004 21:40:01 -0.1 C 81 % -2.96 C
2030 25-02-2004 21:52:00 0 C 80 % -3.03 C
2031 25-02-2004 22:04:59 0 C 80 % -3.03 C
2032 25-02-2004 22:16:58 0 C 80 % -3.03 C
2033 25-02-2004 22:28:58 0.1 C 80 % -2.93 C
2034 25-02-2004 22:40:57 0 C 79 % -3.2 C
2035 25-02-2004 22:52:01 0.1 C 79 % -3.1 C
2036 25-02-2004 23:04:01 0 C 78 % -3.37 C
2037 25-02-2004 23:16:01 0 C 78 % -3.37 C
2038 25-02-2004 23:28:01 0 C 80 % -3.03 C
2039 25-02-2004 23:40:01 0 C 80 % -3.03 C
2040 25-02-2004 23:52:01 0 C 81 % -2.86 C
2041 26-02-2004 00:04:01 -0.1 C 79 % -3.3 C
2042 26-02-2004 00:16:01 -0.1 C 79 % -3.3 C
2043 26-02-2004 00:28:01 -0.1 C 80 % -3.13 C
2044 26-02-2004 00:40:01 -0.1 C 80 % -3.13 C
2045 26-02-2004 00:52:01 -0.1 C 80 % -3.13 C
2046 26-02-2004 01:04:00 -0.1 C 80 % -3.13 C
2047 26-02-2004 01:16:58 -0.1 C 79 % -3.3 C
2048 26-02-2004 01:28:58 -0.1 C 79 % -3.3 C
2049 26-02-2004 01:40:57 -0.2 C 79 % -3.39 C
2050 26-02-2004 01:52:01 -0.2 C 79 % -3.39 C
Sensor: Nr:Datum:Temp:Feuchte:Taupunkt:
Aussen-T/F 2051 26-02-2004 02:04:01 -0.3 C 78 % -3.66 C
2052 26-02-2004 02:16:01 -0.3 C 77 % -3.83 C
2053 26-02-2004 02:28:01 -0.4 C 77 % -3.93 C
2054 26-02-2004 02:40:01 -0.6 C 76 % -4.3 C
2055 26-02-2004 02:53:02 -0.7 C 76 % -4.4 C
2056 26-02-2004 03:05:02 -1.1 C 76 % -4.78 C
2057 26-02-2004 03:17:02 -1.3 C 76 % -4.98 C
2058 26-02-2004 03:29:02 -1.4 C 76 % -5.07 C
2059 26-02-2004 03:41:00 -1.5 C 77 % -5 C
2060 26-02-2004 03:53:00 -1.6 C 77 % -5.1 C
2061 26-02-2004 04:05:00 -1.9 C 76 % -5.56 C
2062 26-02-2004 04:17:59 -2.1 C 76 % -5.75 C
2063 26-02-2004 04:29:59 -2.1 C 77 % -5.58 C
2064 26-02-2004 04:41:57 -1.8 C 77 % -5.29 C
2065 26-02-2004 04:53:01 -1.7 C 77 % -5.19 C
2066 26-02-2004 05:05:01 -1.6 C 76 % -5.27 C
2067 26-02-2004 05:17:01 -1.6 C 76 % -5.27 C
2068 26-02-2004 05:29:01 -1.6 C 76 % -5.27 C
2069 26-02-2004 05:41:01 -1.5 C 76 % -5.17 C
2070 26-02-2004 05:53:00 -1.6 C 76 % -5.27 C
2071 26-02-2004 06:04:59 -1.6 C 76 % -5.27 C
2072 26-02-2004 06:17:58 -1.7 C 76 % -5.36 C
2073 26-02-2004 06:29:58 -1.7 C 76 % -5.36 C
2074 26-02-2004 06:41:57 -1.7 C 76 % -5.36 C
2075 26-02-2004 06:53:01 -1.9 C 75 % -5.73 C
Sensor: Nr:Datum:Temp:Feuchte:Taupunkt:
Aussen-T/F 2076 26-02-2004 07:05:01 -2.1 C 75 % -5.93 C
2077 26-02-2004 07:17:01 -2.5 C 74 % -6.49 C
2078 26-02-2004 07:29:01 -2.6 C 74 % -6.58 C
2079 26-02-2004 07:41:01 -2.6 C 75 % -6.41 C
2080 26-02-2004 07:53:01 -2.3 C 75 % -6.12 C
2081 26-02-2004 08:05:01 -2 C 74 % -6 C
2082 26-02-2004 08:17:01 -1.8 C 71 % -6.35 C
2083 26-02-2004 08:29:01 -1.9 C 70 % -6.63 C
2084 26-02-2004 08:41:01 -2.1 C 70 % -6.83 C
2085 26-02-2004 08:53:00 -2.2 C 70 % -6.92 C
2086 26-02-2004 09:05:00 -2.4 C 71 % -6.93 C
2087 26-02-2004 09:17:58 -2.2 C 69 % -7.11 C
2088 26-02-2004 09:29:58 -2 C 68 % -7.11 C
2089 26-02-2004 09:41:57 -1.9 C 68 % -7.01 C
2090 26-02-2004 09:53:01 -1.7 C 68 % -6.82 C
2091 26-02-2004 10:05:01 -1.4 C 68 % -6.53 C
2092 26-02-2004 10:17:01 -1.1 C 67 % -6.44 C
2093 26-02-2004 10:29:01 -1.1 C 66 % -6.63 C
2094 26-02-2004 10:41:01 -0.9 C 64 % -6.84 C
2095 26-02-2004 10:53:00 -0.6 C 60 % -7.39 C
2096 26-02-2004 11:05:59 -0.4 C 60 % -7.2 C
2097 26-02-2004 11:17:58 -0.3 C 60 % -7.11 C
2098 26-02-2004 11:29:58 -0.1 C 57 % -7.58 C
2099 26-02-2004 11:41:57 0.1 C 56 % -7.61 C
2100 26-02-2004 11:53:01 0.1 C 53 % -8.32 C
Sensor: Nr:Datum:Temp:Feuchte:Taupunkt:
Aussen-T/F 2101 26-02-2004 12:05:01 0.4 C 52 % -8.29 C
2102 26-02-2004 12:17:01 0.4 C 52 % -8.29 C
2103 26-02-2004 12:29:01 0.5 C 51 % -8.44 C
2104 26-02-2004 12:41:00 1.1 C 50 % -8.14 C
2105 26-02-2004 12:53:01 1.5 C 47 % -8.56 C
2106 26-02-2004 13:05:01 1.7 C 45 % -8.93 C
2107 26-02-2004 13:17:01 2 C 45 % -8.66 C
2108 26-02-2004 13:29:01 2.2 C 45 % -8.48 C
2109 26-02-2004 13:41:01 2.6 C 42 % -8.99 C
2110 26-02-2004 13:53:00 2.7 C 44 % -8.31 C
2111 26-02-2004 14:05:00 3.2 C 41 % -8.76 C
2112 26-02-2004 14:17:58 3.3 C 42 % -8.36 C
2113 26-02-2004 14:29:58 3.1 C 41 % -8.85 C
2114 26-02-2004 14:41:57 3.3 C 41 % -8.67 C
2115 26-02-2004 14:53:01 3.4 C 41 % -8.58 C
2116 26-02-2004 15:05:01 3.4 C 40 % -8.89 C
2117 26-02-2004 15:17:01 2.6 C 41 % -9.3 C
2118 26-02-2004 15:29:01 2.4 C 43 % -8.88 C
2119 26-02-2004 15:41:01 2.6 C 44 % -8.4 C
2120 26-02-2004 15:53:01 2.6 C 45 % -8.11 C
2121 26-02-2004 16:05:01 2.7 C 45 % -8.02 C
2122 26-02-2004 16:17:01 2.1 C 46 % -8.29 C
2123 26-02-2004 16:29:01 1.7 C 51 % -7.33 C
2124 26-02-2004 16:41:01 1.5 C 52 % -7.27 C
2125 26-02-2004 16:53:00 1.3 C 54 % -6.96 C
Sensor: Nr:Datum:Temp:Feuchte:Taupunkt:
Aussen-T/F 2126 26-02-2004 17:05:00 1.1 C 60 % -5.78 C
2127 26-02-2004 17:17:59 1.2 C 60 % -5.69 C
2128 26-02-2004 17:29:59 1.2 C 61 % -5.47 C
2129 26-02-2004 17:41:57 1.1 C 62 % -5.35 C
2130 26-02-2004 17:53:01 1.1 C 63 % -5.14 C
2131 26-02-2004 18:05:01 1.2 C 62 % -5.26 C
2132 26-02-2004 18:17:01 0.7 C 67 % -4.71 C
2133 26-02-2004 18:29:01 0.5 C 70 % -4.32 C
2134 26-02-2004 18:41:01 0.5 C 68 % -4.71 C
2135 26-02-2004 18:53:00 0.5 C 66 % -5.1 C
2136 26-02-2004 19:04:59 0.6 C 63 % -5.61 C
2137 26-02-2004 19:17:58 0.6 C 61 % -6.04 C
2138 26-02-2004 19:29:58 0.7 C 60 % -6.16 C
2139 26-02-2004 19:41:57 0.8 C 59 % -6.28 C
2140 26-02-2004 19:53:01 0.8 C 58 % -6.5 C
2141 26-02-2004 20:05:01 0.6 C 59 % -6.47 C
2142 26-02-2004 20:17:01 0.5 C 60 % -6.35 C
2143 26-02-2004 20:29:01 0.4 C 60 % -6.44 C
2144 26-02-2004 20:41:01 0.2 C 61 % -6.41 C
2145 26-02-2004 20:53:01 0 C 61 % -6.6 C
2146 26-02-2004 21:05:01 -0.2 C 61 % -6.8 C
2147 26-02-2004 21:17:01 -0.3 C 62 % -6.68 C
2148 26-02-2004 21:29:01 -0.4 C 63 % -6.57 C
2149 26-02-2004 21:41:01 -0.7 C 64 % -6.65 C
2150 26-02-2004 21:53:00 -1 C 66 % -6.54 C
Sensor: Nr:Datum:Temp:Feuchte:Taupunkt:
Aussen-T/F 2151 26-02-2004 22:05:00 -1.1 C 67 % -6.44 C
2152 26-02-2004 22:17:58 -1.2 C 66 % -6.73 C
2153 26-02-2004 22:29:58 -1.4 C 66 % -6.92 C
2154 26-02-2004 22:41:57 -1.7 C 66 % -7.2 C
2155 26-02-2004 22:53:01 -1.7 C 67 % -7.01 C
2156 26-02-2004 23:05:01 -1.9 C 68 % -7.01 C
2157 26-02-2004 23:17:01 -1.9 C 68 % -7.01 C
2158 26-02-2004 23:29:01 -2 C 68 % -7.11 C
2159 26-02-2004 23:41:01 -2.1 C 67 % -7.39 C
2160 26-02-2004 23:53:00 -2.2 C 68 % -7.3 C
2161 27-02-2004 00:05:59 -2.1 C 67 % -7.39 C
2162 27-02-2004 00:17:58 -2.2 C 66 % -7.68 C
2163 27-02-2004 00:29:58 -2.3 C 66 % -7.78 C
2164 27-02-2004 00:41:57 -2.2 C 65 % -7.88 C
2165 27-02-2004 00:53:01 -2.3 C 65 % -7.97 C
2166 27-02-2004 01:05:01 -2.3 C 66 % -7.78 C
2167 27-02-2004 01:17:01 -2.6 C 66 % -8.06 C
2168 27-02-2004 01:29:01 -2.7 C 66 % -8.16 C
2169 27-02-2004 01:41:00 -2.6 C 65 % -8.26 C
2170 27-02-2004 01:53:01 -2.8 C 65 % -8.45 C
2171 27-02-2004 02:05:01 -3.1 C 66 % -8.54 C
2172 27-02-2004 02:17:01 -3.4 C 67 % -8.64 C
2173 27-02-2004 02:29:01 -3.5 C 68 % -8.54 C
2174 27-02-2004 02:41:01 -3.7 C 69 % -8.55 C
2175 27-02-2004 02:54:01 -3.9 C 69 % -8.74 C
Sensor: Nr:Datum:Temp:Feuchte:Taupunkt:
Aussen-T/F 2176 27-02-2004 03:06:01 -3.7 C 70 % -8.36 C
2177 27-02-2004 03:18:00 -3.5 C 70 % -8.17 C
2178 27-02-2004 03:30:00 -3.8 C 69 % -8.64 C
2179 27-02-2004 03:42:01 -3.9 C 69 % -8.74 C
2180 27-02-2004 03:54:01 -4.1 C 70 % -8.75 C
2181 27-02-2004 04:06:00 -4 C 68 % -9.02 C
2182 27-02-2004 04:18:00 -4.1 C 68 % -9.12 C
2183 27-02-2004 04:30:00 -4.1 C 69 % -8.93 C
2184 27-02-2004 04:42:00 -4.3 C 69 % -9.12 C
2185 27-02-2004 04:54:01 -4.5 C 69 % -9.31 C
2186 27-02-2004 05:06:01 -4.8 C 70 % -9.42 C
2187 27-02-2004 05:18:01 -5 C 70 % -9.61 C
2188 27-02-2004 05:30:01 -5.1 C 71 % -9.53 C
2189 27-02-2004 05:42:01 -5.2 C 72 % -9.45 C
2190 27-02-2004 05:54:01 -5.3 C 72 % -9.54 C
2191 27-02-2004 06:06:01 -5.6 C 72 % -9.83 C
2192 27-02-2004 06:18:01 -5.7 C 72 % -9.93 C
2193 27-02-2004 06:30:01 -5.5 C 72 % -9.74 C
2194 27-02-2004 06:42:01 -5.3 C 72 % -9.54 C
2195 27-02-2004 06:54:00 -5.5 C 71 % -9.91 C
2196 27-02-2004 07:06:00 -5.8 C 71 % -10.2 C
2197 27-02-2004 07:18:59 -5.8 C 71 % -10.2 C
2198 27-02-2004 07:30:57 -5.8 C 71 % -10.2 C
2199 27-02-2004 07:42:57 -5.8 C 72 % -10.03 C
2200 27-02-2004 07:54:01 -5.8 C 72 % -10.03 C
Sensor: Nr:Datum:Temp:Feuchte:Taupunkt:
Aussen-T/F 2201 27-02-2004 08:06:01 -5.8 C 72 % -10.03 C
2202 27-02-2004 08:18:01 -5.7 C 73 % -9.75 C
2203 27-02-2004 08:30:01 -5.5 C 73 % -9.56 C
2204 27-02-2004 08:42:01 -5.3 C 72 % -9.54 C
2205 27-02-2004 08:54:00 -5.1 C 71 % -9.53 C
2206 27-02-2004 09:06:59 -5 C 70 % -9.61 C
2207 27-02-2004 09:18:58 -4.5 C 68 % -9.5 C
2208 27-02-2004 09:30:57 -4 C 67 % -9.21 C
2209 27-02-2004 09:42:57 -3.7 C 66 % -9.11 C
2210 27-02-2004 09:54:01 -3.4 C 65 % -9.02 C
2211 27-02-2004 10:06:01 -3 C 64 % -8.84 C
2212 27-02-2004 10:18:01 -2.5 C 64 % -8.36 C
2213 27-02-2004 10:30:01 -2.1 C 63 % -8.19 C
2214 27-02-2004 10:42:00 -1.6 C 61 % -8.13 C
2215 27-02-2004 10:54:01 -1.2 C 59 % -8.18 C
2216 27-02-2004 11:06:01 -0.8 C 57 % -8.24 C
2217 27-02-2004 11:18:01 -0.6 C 56 % -8.28 C
2218 27-02-2004 11:30:01 -0.4 C 56 % -8.09 C
2219 27-02-2004 11:42:01 0 C 57 % -7.48 C
2220 27-02-2004 11:54:00 0.1 C 55 % -7.85 C
2221 27-02-2004 12:06:00 0.4 C 50 % -8.79 C
2222 27-02-2004 12:18:58 0.5 C 48 % -9.21 C
2223 27-02-2004 12:30:57 0.4 C 47 % -9.57 C
2224 27-02-2004 12:42:57 1.2 C 45 % -9.39 C
2225 27-02-2004 12:54:01 1.8 C 43 % -9.42 C
Sensor: Nr:Datum:Temp:Feuchte:Taupunkt:
Aussen-T/F 2226 27-02-2004 13:06:01 2.2 C 39 % -10.29 C
2227 27-02-2004 13:18:01 2.3 C 41 % -9.57 C
2228 27-02-2004 13:30:01 2.1 C 41 % -9.75 C
2229 27-02-2004 13:42:01 2.7 C 42 % -8.9 C
2230 27-02-2004 13:54:01 3 C 37 % -10.24 C
2231 27-02-2004 14:06:01 3.1 C 37 % -10.15 C
2232 27-02-2004 14:18:01 2.6 C 40 % -9.61 C
2233 27-02-2004 14:30:01 2.5 C 39 % -10.02 C
2234 27-02-2004 14:42:01 2.4 C 39 % -10.11 C
2235 27-02-2004 14:54:00 2.6 C 40 % -9.61 C
2236 27-02-2004 15:06:00 3.1 C 38 % -9.81 C
2237 27-02-2004 15:18:59 2.7 C 38 % -10.17 C
2238 27-02-2004 15:30:57 2.3 C 39 % -10.2 C
2239 27-02-2004 15:42:57 2 C 41 % -9.84 C
2240 27-02-2004 15:54:01 1.6 C 46 % -8.75 C
2241 27-02-2004 16:06:01 1.4 C 50 % -7.86 C
2242 27-02-2004 16:18:01 1 C 56 % -6.77 C
2243 27-02-2004 16:30:01 1.1 C 56 % -6.68 C
2244 27-02-2004 16:42:01 1 C 58 % -6.32 C
2245 27-02-2004 16:54:00 0.5 C 59 % -6.56 C
2246 27-02-2004 17:06:00 0.6 C 60 % -6.25 C
2247 27-02-2004 17:18:59 0.7 C 60 % -6.16 C
2248 27-02-2004 17:30:58 0.7 C 58 % -6.6 C
2249 27-02-2004 17:42:58 0.8 C 58 % -6.5 C
2250 27-02-2004 17:54:01 0.9 C 58 % -6.41 C
Sensor: Nr:Datum:Temp:Feuchte:Taupunkt:
Aussen-T/F 2251 27-02-2004 18:06:01 0.7 C 57 % -6.82 C
2252 27-02-2004 18:18:01 0.6 C 57 % -6.92 C
2253 27-02-2004 18:30:01 0.5 C 57 % -7.01 C
2254 27-02-2004 18:42:01 0.4 C 59 % -6.66 C
2255 27-02-2004 18:54:00 0.1 C 60 % -6.72 C
2256 27-02-2004 19:06:00 -0.3 C 60 % -7.11 C
2257 27-02-2004 19:18:59 -0.6 C 62 % -6.97 C
2258 27-02-2004 19:30:57 -0.9 C 63 % -7.05 C
2259 27-02-2004 19:42:57 -0.9 C 62 % -7.25 C
2260 27-02-2004 19:54:01 -1.1 C 61 % -7.65 C
2261 27-02-2004 20:06:01 -1.1 C 61 % -7.65 C
2262 27-02-2004 20:18:01 -1.1 C 60 % -7.87 C
2263 27-02-2004 20:30:01 -1.1 C 58 % -8.3 C
2264 27-02-2004 20:42:01 -0.8 C 55 % -8.7 C
2265 27-02-2004 20:54:00 -0.5 C 52 % -9.14 C
2266 27-02-2004 21:06:00 -0.7 C 51 % -9.57 C
2267 27-02-2004 21:18:59 -0.8 C 51 % -9.66 C
2268 27-02-2004 21:30:58 -0.9 C 51 % -9.75 C
2269 27-02-2004 21:42:58 -1.2 C 52 % -9.79 C
2270 27-02-2004 21:54:01 -1.6 C 55 % -9.45 C
2271 27-02-2004 22:06:00 -1.7 C 56 % -9.31 C
2272 27-02-2004 22:18:00 -1.9 C 57 % -9.28 C
2273 27-02-2004 22:30:00 -1.8 C 59 % -8.74 C
2274 27-02-2004 22:42:00 -1.5 C 58 % -8.68 C
2275 27-02-2004 22:54:01 -1.4 C 58 % -8.58 C
Sensor: Nr:Datum:Temp:Feuchte:Taupunkt:
Aussen-T/F 2276 27-02-2004 23:06:01 -1.1 C 58 % -8.3 C
2277 27-02-2004 23:18:01 -1.1 C 60 % -7.87 C
2278 27-02-2004 23:30:01 -1 C 59 % -7.99 C
2279 27-02-2004 23:42:00 -1.1 C 60 % -7.87 C
2280 27-02-2004 23:54:01 -1.4 C 60 % -8.15 C
2281 28-02-2004 00:06:01 -1.5 C 61 % -8.03 C
2282 28-02-2004 00:18:01 -1.4 C 60 % -8.15 C
2283 28-02-2004 00:30:01 -1.4 C 60 % -8.15 C
2284 28-02-2004 00:42:01 -1.4 C 60 % -8.15 C
2285 28-02-2004 00:54:00 -1.4 C 60 % -8.15 C
2286 28-02-2004 01:06:00 -1.3 C 59 % -8.27 C
2287 28-02-2004 01:18:58 -1.2 C 56 % -8.84 C
2288 28-02-2004 01:30:57 -1.4 C 57 % -8.81 C
2289 28-02-2004 01:42:57 -1.6 C 57 % -8.99 C
2290 28-02-2004 01:54:01 -1.7 C 56 % -9.31 C
2291 28-02-2004 02:06:01 -2 C 57 % -9.37 C
2292 28-02-2004 02:18:01 -2.4 C 59 % -9.31 C
2293 28-02-2004 02:30:01 -2.5 C 58 % -9.62 C
2294 28-02-2004 02:42:01 -2.7 C 58 % -9.81 C
2295 28-02-2004 02:55:03 -2.9 C 60 % -9.57 C
2296 28-02-2004 03:07:03 -2.8 C 59 % -9.68 C
2297 28-02-2004 03:19:03 -2.6 C 60 % -9.28 C
2298 28-02-2004 03:31:00 -2.6 C 60 % -9.28 C
2299 28-02-2004 03:43:00 -2.7 C 61 % -9.17 C
2300 28-02-2004 03:55:00 -2.7 C 62 % -8.96 C
Sensor: Nr:Datum:Temp:Feuchte:Taupunkt:
Aussen-T/F 2301 28-02-2004 04:07:00 -2.7 C 62 % -8.96 C
2302 28-02-2004 04:19:59 -2.7 C 61 % -9.17 C
2303 28-02-2004 04:31:58 -2.8 C 62 % -9.05 C
2304 28-02-2004 04:43:58 -2.8 C 61 % -9.26 C
2305 28-02-2004 04:55:01 -2.7 C 59 % -9.59 C
2306 28-02-2004 05:07:01 -2.7 C 59 % -9.59 C
2307 28-02-2004 05:19:00 -2.8 C 60 % -9.47 C
2308 28-02-2004 05:31:00 -2.5 C 59 % -9.4 C
2309 28-02-2004 05:43:00 -2.5 C 59 % -9.4 C
2310 28-02-2004 05:55:01 -2.6 C 60 % -9.28 C
2311 28-02-2004 06:07:01 -2.1 C 59 % -9.02 C
2312 28-02-2004 06:19:01 -2.1 C 59 % -9.02 C
2313 28-02-2004 06:31:01 -2.2 C 59 % -9.12 C
2314 28-02-2004 06:43:01 -2.1 C 60 % -8.81 C
2315 28-02-2004 06:55:00 -2.1 C 60 % -8.81 C
2316 28-02-2004 07:07:59 -2 C 61 % -8.5 C
2317 28-02-2004 07:19:58 -1.9 C 61 % -8.41 C
2318 28-02-2004 07:31:57 -1.8 C 62 % -8.11 C
2319 28-02-2004 07:43:57 -1.8 C 62 % -8.11 C
2320 28-02-2004 07:55:01 -1.8 C 63 % -7.9 C
2321 28-02-2004 08:07:01 -1.9 C 64 % -7.79 C
2322 28-02-2004 08:19:01 -1.9 C 66 % -7.4 C
2323 28-02-2004 08:31:01 -1.8 C 67 % -7.11 C
2324 28-02-2004 08:43:01 -1.8 C 67 % -7.11 C
2325 28-02-2004 08:55:03 -1.7 C 66 % -7.2 C
Sensor: Nr:Datum:Temp:Feuchte:Taupunkt:
Aussen-T/F 2326 28-02-2004 09:07:01 -1.6 C 66 % -7.11 C
2327 28-02-2004 09:19:01 -1.2 C 66 % -6.73 C
2328 28-02-2004 09:31:01 -1 C 65 % -6.74 C
2329 28-02-2004 09:43:01 -0.9 C 65 % -6.64 C
2330 28-02-2004 09:55:00 -0.4 C 64 % -6.37 C
2331 28-02-2004 10:07:00 0 C 62 % -6.39 C
2332 28-02-2004 10:19:59 0.1 C 61 % -6.51 C
2333 28-02-2004 10:31:58 0.2 C 60 % -6.63 C
2334 28-02-2004 10:43:58 0.7 C 58 % -6.6 C
2335 28-02-2004 10:55:01 1 C 55 % -7.01 C
2336 28-02-2004 11:07:01 0.8 C 59 % -6.28 C
2337 28-02-2004 11:19:01 1.2 C 59 % -5.91 C
2338 28-02-2004 11:31:01 0.7 C 60 % -6.16 C
2339 28-02-2004 11:43:01 0.7 C 60 % -6.16 C
2340 28-02-2004 11:55:00 1.3 C 58 % -6.03 C
2341 28-02-2004 12:07:00 2.1 C 56 % -5.74 C
2342 28-02-2004 12:19:58 2.3 C 53 % -6.28 C
2343 28-02-2004 12:31:57 2.9 C 51 % -6.22 C
2344 28-02-2004 12:43:57 2.6 C 50 % -6.75 C
2345 28-02-2004 12:55:01 2.9 C 50 % -6.48 C
2346 28-02-2004 13:07:01 3.6 C 48 % -6.36 C
2347 28-02-2004 13:19:01 4.7 C 44 % -6.49 C
2348 28-02-2004 13:31:01 3.8 C 43 % -7.61 C
2349 28-02-2004 13:43:01 3.5 C 45 % -7.29 C
2350 28-02-2004 13:55:00 5.1 C 41 % -7.04 C
Sensor: Nr:Datum:Temp:Feuchte:Taupunkt:
Aussen-T/F 2351 28-02-2004 14:07:00 5.4 C 37 % -8.1 C
2352 28-02-2004 14:19:58 4.3 C 40 % -8.08 C
2353 28-02-2004 14:31:57 5 C 39 % -7.78 C
2354 28-02-2004 14:43:57 6 C 35 % -8.27 C
2355 28-02-2004 14:55:02 6.8 C 33 % -8.32 C
2356 28-02-2004 15:07:01 7.3 C 31 % -8.68 C
2357 28-02-2004 15:19:02 6.9 C 31 % -9.03 C
2358 28-02-2004 15:31:03 4.9 C 32 % -10.38 C
2359 28-02-2004 15:43:03 5 C 33 % -9.91 C
2360 28-02-2004 15:55:00 6.1 C 33 % -8.94 C
2361 28-02-2004 16:07:00 6.9 C 31 % -9.03 C
2362 28-02-2004 16:19:59 6.7 C 29 % -10.05 C
2363 28-02-2004 16:31:58 6.8 C 31 % -9.12 C
2364 28-02-2004 16:43:58 6.2 C 31 % -9.64 C
2365 28-02-2004 16:55:02 6.2 C 31 % -9.64 C
2366 28-02-2004 17:07:01 5.9 C 31 % -9.91 C
2367 28-02-2004 17:19:01 5.3 C 30 % -10.84 C
2368 28-02-2004 17:31:01 4.6 C 32 % -10.64 C
2369 28-02-2004 17:43:01 3.6 C 36 % -10.05 C
2370 28-02-2004 17:55:00 2.6 C 40 % -9.61 C
2371 28-02-2004 18:07:00 2.1 C 45 % -8.57 C
2372 28-02-2004 18:19:59 1.5 C 48 % -8.29 C
2373 28-02-2004 18:31:58 1 C 48 % -8.75 C
2374 28-02-2004 18:43:58 0.7 C 50 % -8.51 C
2375 28-02-2004 18:55:01 0.4 C 51 % -8.53 C
Sensor: Nr:Datum:Temp:Feuchte:Taupunkt:
Aussen-T/F 2376 28-02-2004 19:07:01 0.2 C 53 % -8.23 C
2377 28-02-2004 19:19:01 0 C 54 % -8.18 C
2378 28-02-2004 19:36:01 -0.3 C 55 % -8.23 C
2379 28-02-2004 19:48:01 -0.4 C 56 % -8.09 C
2380 28-02-2004 20:00:01 -0.6 C 56 % -8.28 C
2381 28-02-2004 20:12:00 -0.7 C 57 % -8.15 C
2382 28-02-2004 20:24:59 -1 C 56 % -8.66 C
2383 28-02-2004 20:36:58 -1.1 C 57 % -8.52 C
2384 28-02-2004 20:48:01 -1.3 C 57 % -8.71 C
2385 28-02-2004 21:00:01 -1.4 C 57 % -8.81 C
2386 28-02-2004 21:12:01 -1.6 C 58 % -8.77 C
2387 28-02-2004 21:24:01 -1.8 C 58 % -8.96 C
2388 28-02-2004 21:36:01 -2 C 59 % -8.93 C
2389 28-02-2004 21:48:00 -2.1 C 61 % -8.6 C
2390 28-02-2004 22:00:00 -2.2 C 60 % -8.9 C
2391 28-02-2004 22:12:00 -2.3 C 59 % -9.21 C
2392 28-02-2004 22:24:58 -2.5 C 59 % -9.4 C
2393 28-02-2004 22:36:57 -2.6 C 59 % -9.5 C
2394 28-02-2004 22:48:01 -2.8 C 60 % -9.47 C
2395 28-02-2004 23:00:01 -2.9 C 61 % -9.36 C
2396 28-02-2004 23:12:01 -3 C 61 % -9.45 C
2397 28-02-2004 23:24:01 -3.2 C 63 % -9.23 C
2398 28-02-2004 23:36:01 -3.4 C 62 % -9.62 C
2399 29-02-2004 00:00:00 -3.4 C 64 % -9.22 C
2400 29-02-2004 00:11:59 -3.7 C 63 % -9.71 C
Sensor: Nr:Datum:Temp:Feuchte:Taupunkt:
Aussen-T/F 2401 29-02-2004 00:24:58 -3.9 C 63 % -9.9 C
2402 29-02-2004 00:36:57 -3.9 C 64 % -9.7 C
2403 29-02-2004 00:48:36 -3.9 C 64 % -9.7 C
2404 29-02-2004 01:00:39 -4 C 64 % -9.79 C
2405 29-02-2004 01:12:39 -4.1 C 64 % -9.89 C
2406 29-02-2004 01:24:34 -4.1 C 65 % -9.69 C
2407 29-02-2004 01:36:37 -3.9 C 65 % -9.5 C
2408 29-02-2004 01:48:30 -4.2 C 65 % -9.79 C
2409 29-02-2004 02:00:33 -4.2 C 65 % -9.79 C
2410 29-02-2004 02:12:28 -4.3 C 65 % -9.88 C
2411 29-02-2004 02:24:31 -4.6 C 65 % -10.17 C
2412 29-02-2004 02:36:31 -4.8 C 66 % -10.16 C
2413 29-02-2004 02:58:04 -4.8 C 68 % -9.79 C
2414 29-02-2004 03:11:05 -4.9 C 68 % -9.88 C
2415 29-02-2004 03:23:05 -4.9 C 68 % -9.88 C
2416 29-02-2004 03:37:04 -5 C 68 % -9.98 C
2417 29-02-2004 03:49:04 -5 C 69 % -9.79 C
2418 29-02-2004 04:02:04 -5.1 C 69 % -9.89 C
2419 29-02-2004 04:14:04 -5.4 C 69 % -10.18 C
2420 29-02-2004 04:27:04 -5.6 C 69 % -10.37 C
2421 29-02-2004 04:40:04 -5.5 C 70 % -10.09 C
2422 29-02-2004 04:53:04 -5.6 C 70 % -10.19 C
2423 29-02-2004 05:01:15 -5.7 C 71 % -10.11 C
2424 29-02-2004 05:06:05 -5.7 C 70 % -10.29 C
2425 29-02-2004 05:13:18 -5.3 C 72 % -9.54 C
Sensor: Nr:Datum:Temp:Feuchte:Taupunkt:
Aussen-T/F 2426 29-02-2004 05:25:12 -4.8 C 71 % -9.24 C
2427 29-02-2004 05:37:12 -4.6 C 69 % -9.41 C
2428 29-02-2004 05:49:15 -4.7 C 68 % -9.69 C
2429 29-02-2004 06:01:09 -4.6 C 68 % -9.6 C
2430 29-02-2004 06:13:12 -4.4 C 68 % -9.4 C
2431 29-02-2004 06:25:53 -4.1 C 68 % -9.12 C
2432 29-02-2004 06:37:07 -3.9 C 67 % -9.11 C
2433 29-02-2004 06:49:07 -4 C 67 % -9.21 C
2434 29-02-2004 07:01:32 -3.9 C 67 % -9.11 C
2435 29-02-2004 07:13:46 -4.1 C 67 % -9.31 C
2436 29-02-2004 07:25:11 -4 C 68 % -9.02 C
2437 29-02-2004 07:37:11 -4.3 C 68 % -9.31 C
2438 29-02-2004 07:49:25 -4.6 C 69 % -9.41 C
2439 29-02-2004 08:01:49 -4.7 C 69 % -9.51 C
2440 29-02-2004 08:13:49 -4.8 C 70 % -9.42 C
2441 29-02-2004 08:25:03 -4.8 C 70 % -9.42 C
2442 29-02-2004 08:37:28 -4.7 C 70 % -9.32 C
2443 29-02-2004 08:49:42 -4.6 C 71 % -9.05 C
2444 29-02-2004 09:01:42 -4.4 C 71 % -8.85 C
2445 29-02-2004 09:13:06 -3.8 C 70 % -8.46 C
2446 29-02-2004 09:25:21 -3.4 C 69 % -8.26 C
2447 29-02-2004 09:37:45 -3.3 C 68 % -8.35 C
2448 29-02-2004 09:49:45 -3 C 69 % -7.88 C
2449 29-02-2004 10:01:59 -2.5 C 68 % -7.58 C
2450 29-02-2004 10:13:23 -2.2 C 63 % -8.28 C
Sensor: Nr:Datum:Temp:Feuchte:Taupunkt:
Aussen-T/F 2451 29-02-2004 10:25:37 -2 C 65 % -7.69 C
2452 29-02-2004 10:37:37 -1.6 C 64 % -7.51 C
2453 29-02-2004 10:49:02 -1.1 C 64 % -7.03 C
2454 29-02-2004 11:01:16 -0.6 C 62 % -6.97 C
2455 29-02-2004 11:13:41 0.2 C 58 % -7.07 C
2456 29-02-2004 11:25:41 0.8 C 56 % -6.96 C
2457 29-02-2004 11:37:00 1.3 C 54 % -6.96 C
2458 29-02-2004 11:49:02 0.9 C 53 % -7.58 C
2459 29-02-2004 12:01:01 0.9 C 53 % -7.58 C
2460 29-02-2004 12:13:01 0.6 C 53 % -7.86 C
2461 29-02-2004 12:25:01 0.6 C 53 % -7.86 C
2462 29-02-2004 12:37:02 0.8 C 52 % -7.92 C
2463 29-02-2004 12:49:00 1.4 C 51 % -7.61 C
2464 29-02-2004 13:01:00 1.9 C 50 % -7.4 C
2465 29-02-2004 13:13:00 2.2 C 48 % -7.65 C
2466 29-02-2004 13:25:59 3.2 C 46 % -7.28 C
2467 29-02-2004 13:37:58 3.8 C 42 % -7.91 C
2468 29-02-2004 13:49:01 3.8 C 42 % -7.91 C
2469 29-02-2004 14:01:01 4.2 C 38 % -8.83 C
2470 29-02-2004 14:13:01 3.5 C 39 % -9.12 C
2471 29-02-2004 14:25:01 3.3 C 41 % -8.67 C
2472 29-02-2004 14:37:01 3.2 C 43 % -8.15 C
2473 29-02-2004 14:49:00 3.9 C 39 % -8.77 C
2474 29-02-2004 15:01:00 4.6 C 36 % -9.16 C
2475 29-02-2004 15:13:00 5.2 C 35 % -8.98 C
Sensor: Nr:Datum:Temp:Feuchte:Taupunkt:
Aussen-T/F 2476 29-02-2004 15:25:58 4.7 C 35 % -9.43 C
2477 29-02-2004 15:37:57 5.5 C 34 % -9.09 C
2478 29-02-2004 15:49:01 4.6 C 35 % -9.52 C
2479 29-02-2004 16:01:01 5.2 C 34 % -9.35 C
2480 29-02-2004 16:13:01 4.5 C 35 % -9.6 C
2481 29-02-2004 16:25:01 4.7 C 35 % -9.43 C
2482 29-02-2004 16:37:01 5.2 C 35 % -8.98 C
2483 29-02-2004 16:49:00 5.2 C 32 % -10.12 C
2484 29-02-2004 17:01:00 5.2 C 32 % -10.12 C
2485 29-02-2004 17:13:00 5.5 C 34 % -9.09 C
2486 29-02-2004 17:25:58 4.7 C 41 % -7.4 C
2487 29-02-2004 17:37:57 3.4 C 48 % -6.55 C
2488 29-02-2004 17:49:03 3.2 C 50 % -6.2 C
2489 29-02-2004 18:01:01 2.5 C 50 % -6.85 C
2490 29-02-2004 18:13:01 2.2 C 48 % -7.65 C
2491 29-02-2004 18:25:01 1.8 C 50 % -7.49 C
2492 29-02-2004 18:37:01 1.5 C 52 % -7.27 C
2493 29-02-2004 18:49:00 1.1 C 54 % -7.15 C
2494 29-02-2004 19:01:59 0.8 C 56 % -6.96 C
2495 29-02-2004 19:13:59 0.6 C 56 % -7.15 C
2496 29-02-2004 19:25:58 0.3 C 59 % -6.75 C
2497 29-02-2004 19:37:57 0.1 C 60 % -6.72 C
2498 29-02-2004 19:49:01 0.3 C 60 % -6.53 C
2499 29-02-2004 20:01:01 0.2 C 60 % -6.63 C
2500 29-02-2004 20:13:01 0.1 C 61 % -6.51 C
Sensor: Nr:Datum:Temp:Feuchte:Taupunkt:
Aussen-T/F 2501 29-02-2004 20:25:01 -0.1 C 61 % -6.71 C
2502 29-02-2004 20:37:00 -0.3 C 62 % -6.68 C
2503 29-02-2004 20:49:01 -0.4 C 63 % -6.57 C
2504 29-02-2004 21:01:01 -0.6 C 65 % -6.35 C
2505 29-02-2004 21:13:01 -0.8 C 66 % -6.35 C
2506 29-02-2004 21:25:01 -0.9 C 66 % -6.44 C
2507 29-02-2004 21:37:01 -1 C 66 % -6.54 C
2508 29-02-2004 21:49:01 -1.1 C 66 % -6.63 C
2509 29-02-2004 22:01:00 -1.2 C 66 % -6.73 C
2510 29-02-2004 22:13:00 -1.2 C 66 % -6.73 C
2511 29-02-2004 22:25:58 -1.4 C 66 % -6.92 C
2512 29-02-2004 22:37:57 -1.5 C 66 % -7.01 C
2513 29-02-2004 22:49:01 -1.6 C 66 % -7.11 C
2514 29-02-2004 23:01:01 -1.6 C 65 % -7.31 C
2515 29-02-2004 23:13:01 -1.7 C 65 % -7.4 C
2516 29-02-2004 23:25:01 -1.7 C 65 % -7.4 C
2517 29-02-2004 23:37:01 -1.7 C 65 % -7.4 C
2518 29-02-2004 23:49:01 -1.8 C 65 % -7.5 C
2519 01-03-2004 00:01:00 -1.8 C 65 % -7.5 C
2520 01-03-2004 00:13:01 -1.8 C 64 % -7.7 C
2521 01-03-2004 00:25:00 -1.7 C 63 % -7.81 C
2522 01-03-2004 00:37:00 -1.8 C 64 % -7.7 C
2523 01-03-2004 00:49:00 -1.9 C 64 % -7.79 C
2524 01-03-2004 01:01:00 -2 C 64 % -7.89 C
2525 01-03-2004 01:13:00 -2 C 64 % -7.89 C
Sensor: Nr:Datum:Temp:Feuchte:Taupunkt:
Aussen-T/F 2526 01-03-2004 01:25:01 -2.2 C 63 % -8.28 C
2527 01-03-2004 01:37:01 -2.3 C 62 % -8.58 C
2528 01-03-2004 01:49:00 -2.3 C 61 % -8.79 C
2529 01-03-2004 02:01:00 -2.3 C 61 % -8.79 C
2530 01-03-2004 02:13:00 -2.6 C 62 % -8.86 C
2531 01-03-2004 02:25:00 -2.6 C 63 % -8.66 C
2532 01-03-2004 02:37:00 -2.8 C 63 % -8.85 C
2533 01-03-2004 02:50:03 -2.8 C 63 % -8.85 C
2534 01-03-2004 03:02:03 -3 C 64 % -8.84 C
2535 01-03-2004 03:14:03 -3.3 C 64 % -9.12 C
2536 01-03-2004 03:26:03 -3.3 C 65 % -8.93 C
2537 01-03-2004 03:37:59 -3.4 C 65 % -9.02 C
2538 01-03-2004 03:49:59 -3.4 C 65 % -9.02 C
2539 01-03-2004 04:02:59 -3.1 C 65 % -8.74 C
2540 01-03-2004 04:14:58 -3 C 64 % -8.84 C
2541 01-03-2004 04:26:58 -2.9 C 65 % -8.55 C
2542 01-03-2004 04:38:57 -2.9 C 65 % -8.55 C
2543 01-03-2004 04:50:01 -2.9 C 66 % -8.35 C
2544 01-03-2004 05:02:01 -3.2 C 66 % -8.64 C
2545 01-03-2004 05:14:01 -3.4 C 69 % -8.26 C
2546 01-03-2004 05:26:01 -3.5 C 69 % -8.36 C
2547 01-03-2004 05:38:00 -3.8 C 71 % -8.28 C
2548 01-03-2004 05:50:01 -3.8 C 72 % -8.1 C
2549 01-03-2004 06:02:01 -3.8 C 72 % -8.1 C
2550 01-03-2004 06:14:01 -3.9 C 72 % -8.19 C
Sensor: Nr:Datum:Temp:Feuchte:Taupunkt:
Aussen-T/F 2551 01-03-2004 06:26:01 -4 C 72 % -8.29 C
2552 01-03-2004 06:38:01 -4.1 C 73 % -8.21 C
2553 01-03-2004 06:50:00 -4.1 C 73 % -8.21 C
2554 01-03-2004 07:02:00 -4.4 C 72 % -8.68 C
2555 01-03-2004 07:14:00 -4.4 C 73 % -8.5 C
2556 01-03-2004 07:26:59 -4.2 C 73 % -8.31 C
2557 01-03-2004 07:38:58 -4.3 C 73 % -8.4 C
2558 01-03-2004 07:50:01 -4.2 C 73 % -8.31 C
2559 01-03-2004 08:02:00 -4.2 C 73 % -8.31 C
2560 01-03-2004 08:14:00 -4.1 C 73 % -8.21 C
2561 01-03-2004 08:26:01 -4.3 C 73 % -8.4 C
2562 01-03-2004 08:38:01 -4.2 C 73 % -8.31 C
2563 01-03-2004 08:50:01 -4.2 C 73 % -8.31 C
2564 01-03-2004 09:02:00 -3.9 C 72 % -8.19 C
2565 01-03-2004 09:14:00 -3.8 C 71 % -8.28 C
2566 01-03-2004 09:26:59 -3.5 C 71 % -7.99 C
2567 01-03-2004 09:38:58 -3.2 C 70 % -7.88 C
2568 01-03-2004 09:50:01 -2.8 C 69 % -7.68 C
2569 01-03-2004 10:02:01 -2.3 C 68 % -7.39 C
2570 01-03-2004 10:14:01 -1.9 C 65 % -7.59 C
2571 01-03-2004 10:26:01 -1.3 C 63 % -7.43 C
2572 01-03-2004 10:38:01 -0.9 C 61 % -7.46 C
2573 01-03-2004 10:50:00 -0.3 C 58 % -7.55 C
2574 01-03-2004 11:02:00 0.2 C 54 % -7.99 C
2575 01-03-2004 11:14:00 0.5 C 52 % -8.19 C
Sensor: Nr:Datum:Temp:Feuchte:Taupunkt:
Aussen-T/F 2576 01-03-2004 11:26:58 1.6 C 45 % -9.03 C
2577 01-03-2004 11:38:57 1.4 C 45 % -9.21 C
2578 01-03-2004 11:50:01 1.4 C 45 % -9.21 C
2579 01-03-2004 12:02:01 2.2 C 43 % -9.06 C
2580 01-03-2004 12:14:01 2 C 40 % -10.15 C
2581 01-03-2004 12:26:01 2.2 C 41 % -9.66 C
2582 01-03-2004 12:38:01 3 C 39 % -9.57 C
2583 01-03-2004 12:50:01 3.3 C 38 % -9.63 C
2584 01-03-2004 13:02:01 2.3 C 39 % -10.2 C
2585 01-03-2004 13:14:01 2.9 C 40 % -9.34 C
2586 01-03-2004 13:26:01 3 C 35 % -10.93 C
2587 01-03-2004 13:38:01 3.1 C 36 % -10.49 C
2588 01-03-2004 13:50:00 4.3 C 34 % -10.15 C
2589 01-03-2004 14:02:00 4.4 C 32 % -10.82 C
2590 01-03-2004 14:14:00 3.7 C 35 % -10.31 C
2591 01-03-2004 14:26:59 4 C 33 % -10.79 C
2592 01-03-2004 14:38:57 4.7 C 33 % -10.17 C
2593 01-03-2004 14:50:01 4 C 32 % -11.17 C
2594 01-03-2004 15:02:01 3.8 C 35 % -10.23 C
2595 01-03-2004 15:14:01 4.4 C 34 % -10.06 C
2596 01-03-2004 15:26:01 4.3 C 33 % -10.52 C
2597 01-03-2004 15:38:01 4.8 C 31 % -10.87 C
2598 01-03-2004 15:50:00 4.9 C 30 % -11.19 C
2599 01-03-2004 16:14:00 5.2 C 28 % -11.79 C
2600 01-03-2004 16:14:58 5.1 C 28 % -11.87 C
Sensor: Nr:Datum:Temp:Feuchte:Taupunkt:
Aussen-T/F 2601 01-03-2004 16:26:58 5.9 C 28 % -11.18 C
2602 01-03-2004 16:38:57 4.9 C 30 % -11.19 C
2603 01-03-2004 16:50:01 5.1 C 30 % -11.02 C
2604 01-03-2004 17:02:01 4.8 C 32 % -10.47 C
2605 01-03-2004 17:14:01 4.2 C 34 % -10.24 C
2606 01-03-2004 17:26:01 4 C 34 % -10.41 C
2607 01-03-2004 17:38:01 3.5 C 36 % -10.14 C
2608 01-03-2004 17:50:01 2.7 C 39 % -9.84 C
2609 01-03-2004 18:02:00 2.2 C 41 % -9.66 C
2610 01-03-2004 18:14:00 1.8 C 44 % -9.13 C
2611 01-03-2004 18:26:59 1.6 C 45 % -9.03 C
2612 01-03-2004 18:38:58 1.3 C 46 % -9.02 C
2613 01-03-2004 18:50:01 1.1 C 47 % -8.93 C
2614 01-03-2004 19:02:01 1 C 48 % -8.75 C
2615 01-03-2004 19:14:01 1 C 48 % -8.75 C
2616 01-03-2004 19:26:01 1 C 49 % -8.49 C
2617 01-03-2004 19:38:01 0.8 C 50 % -8.42 C
2618 01-03-2004 19:50:01 0.7 C 51 % -8.26 C
2619 01-03-2004 20:13:59 0.6 C 51 % -8.35 C
2620 01-03-2004 20:14:58 0.6 C 52 % -8.1 C
2621 01-03-2004 20:26:58 0.6 C 53 % -7.86 C
2622 01-03-2004 20:38:57 0.6 C 53 % -7.86 C
2623 01-03-2004 20:50:01 0.8 C 52 % -7.92 C
2624 01-03-2004 21:02:01 1 C 51 % -7.98 C
2625 01-03-2004 21:14:01 1 C 51 % -7.98 C
Sensor: Nr:Datum:Temp:Feuchte:Taupunkt:
Aussen-T/F 2626 01-03-2004 21:26:01 1.1 C 51 % -7.89 C
2627 01-03-2004 21:38:01 1.1 C 51 % -7.89 C
2628 01-03-2004 21:50:00 1.1 C 52 % -7.64 C
2629 01-03-2004 22:02:00 1 C 52 % -7.73 C
2630 01-03-2004 22:14:00 1 C 53 % -7.48 C
2631 01-03-2004 22:26:58 0.9 C 55 % -7.1 C
2632 01-03-2004 22:38:57 1 C 54 % -7.24 C
2633 01-03-2004 22:50:01 1 C 56 % -6.77 C
2634 01-03-2004 23:02:01 1 C 55 % -7.01 C
2635 01-03-2004 23:14:01 1 C 57 % -6.54 C
2636 01-03-2004 23:26:01 1 C 60 % -5.87 C
2637 01-03-2004 23:38:01 0.7 C 63 % -5.52 C
2638 01-03-2004 23:50:00 0.6 C 66 % -5 C
2639 02-03-2004 00:02:59 0.5 C 65 % -5.3 C
2640 02-03-2004 00:14:58 0.5 C 66 % -5.1 C
2641 02-03-2004 00:26:58 0.4 C 67 % -5 C
2642 02-03-2004 00:38:57 0.4 C 67 % -5 C
2643 02-03-2004 00:50:01 0.4 C 67 % -5 C
2644 02-03-2004 01:02:01 0.3 C 67 % -5.09 C
2645 02-03-2004 01:14:01 0.3 C 67 % -5.09 C
2646 02-03-2004 01:26:01 0.2 C 67 % -5.19 C
2647 02-03-2004 01:38:01 0.2 C 68 % -4.99 C
2648 02-03-2004 01:50:01 0.2 C 67 % -5.19 C
2649 02-03-2004 02:02:01 0.2 C 67 % -5.19 C
2650 02-03-2004 02:14:01 0.3 C 67 % -5.09 C
Sensor: Nr:Datum:Temp:Feuchte:Taupunkt:
Aussen-T/F 2651 02-03-2004 02:26:01 0.4 C 67 % -5 C
2652 02-03-2004 02:38:01 0.5 C 66 % -5.1 C
2653 02-03-2004 02:51:01 0.5 C 66 % -5.1 C
2654 02-03-2004 03:03:01 0.6 C 66 % -5 C
2655 02-03-2004 03:15:59 0.7 C 66 % -4.91 C
2656 02-03-2004 03:26:59 0.7 C 66 % -4.91 C
2657 02-03-2004 03:39:01 0.7 C 66 % -4.91 C
2658 02-03-2004 03:51:01 0.8 C 66 % -4.81 C
2659 02-03-2004 04:03:01 0.8 C 66 % -4.81 C
2660 02-03-2004 04:15:01 1 C 65 % -4.82 C
2661 02-03-2004 04:27:01 0.9 C 67 % -4.52 C
2662 02-03-2004 04:39:01 1.1 C 67 % -4.33 C
2663 02-03-2004 04:51:00 1.5 C 70 % -3.36 C
2664 02-03-2004 05:03:59 1.8 C 70 % -3.07 C
2665 02-03-2004 05:15:58 1.8 C 72 % -2.7 C
2666 02-03-2004 05:27:58 1.8 C 74 % -2.33 C
2667 02-03-2004 05:39:57 1.8 C 74 % -2.33 C
2668 02-03-2004 05:51:01 1.9 C 76 % -1.87 C
2669 02-03-2004 06:03:01 1.8 C 77 % -1.79 C
2670 02-03-2004 06:15:01 1.7 C 78 % -1.71 C
2671 02-03-2004 06:27:01 1.7 C 78 % -1.71 C
2672 02-03-2004 06:39:00 1.7 C 78 % -1.71 C
2673 02-03-2004 06:51:01 1.8 C 78 % -1.62 C
2674 02-03-2004 07:03:01 1.8 C 79 % -1.44 C
2675 02-03-2004 07:15:01 1.8 C 79 % -1.44 C
Sensor: Nr:Datum:Temp:Feuchte:Taupunkt:
Aussen-T/F 2676 02-03-2004 07:27:01 1.9 C 79 % -1.35 C
2677 02-03-2004 07:39:01 2 C 78 % -1.42 C
2678 02-03-2004 07:51:00 2 C 78 % -1.42 C
2679 02-03-2004 08:03:00 2.2 C 78 % -1.23 C
2680 02-03-2004 08:15:58 2.1 C 79 % -1.15 C
2681 02-03-2004 08:27:58 2.1 C 79 % -1.15 C
2682 02-03-2004 08:39:57 2.1 C 80 % -0.98 C
2683 02-03-2004 08:51:01 2.1 C 81 % -0.81 C
2684 02-03-2004 09:03:01 2.2 C 81 % -0.71 C
2685 02-03-2004 09:15:01 2.3 C 80 % -0.79 C
2686 02-03-2004 09:27:01 2.4 C 79 % -0.86 C
2687 02-03-2004 09:39:01 2.6 C 79 % -0.67 C
2688 02-03-2004 09:51:01 2.8 C 78 % -0.65 C
2689 02-03-2004 10:03:01 3 C 76 % -0.81 C
2690 02-03-2004 10:15:02 3 C 76 % -0.81 C
2691 02-03-2004 10:27:02 3.1 C 75 % -0.89 C
2692 02-03-2004 10:39:01 3.1 C 75 % -0.89 C
2693 02-03-2004 10:51:00 3.1 C 75 % -0.89 C
2694 02-03-2004 11:03:00 2.9 C 76 % -0.9 C
2695 02-03-2004 11:15:59 3 C 75 % -0.99 C
2696 02-03-2004 11:27:59 3 C 74 % -1.17 C
2697 02-03-2004 11:39:57 3.1 C 74 % -1.07 C
2698 02-03-2004 11:51:01 3.3 C 73 % -1.06 C
2699 02-03-2004 12:03:01 3.3 C 72 % -1.25 C
2700 02-03-2004 12:15:01 3.3 C 72 % -1.25 C
Sensor: Nr:Datum:Temp:Feuchte:Taupunkt:
Aussen-T/F 2701 02-03-2004 12:27:01 3.5 C 71 % -1.25 C
2702 02-03-2004 12:39:02 3.6 C 68 % -1.74 C
2703 02-03-2004 12:51:00 3.8 C 63 % -2.58 C
2704 02-03-2004 13:03:00 4 C 60 % -3.05 C
2705 02-03-2004 13:15:59 4.3 C 57 % -3.45 C
2706 02-03-2004 13:27:59 4.2 C 57 % -3.54 C
2707 02-03-2004 13:39:58 4.5 C 57 % -3.26 C
2708 02-03-2004 13:51:01 4.5 C 57 % -3.26 C
2709 02-03-2004 14:03:00 4.4 C 56 % -3.59 C
2710 02-03-2004 14:15:00 4.5 C 55 % -3.74 C
2711 02-03-2004 14:27:00 4.7 C 53 % -4.05 C
2712 02-03-2004 14:39:00 4.9 C 51 % -4.37 C
2713 02-03-2004 14:51:01 5 C 51 % -4.28 C
2714 02-03-2004 15:03:01 5.3 C 50 % -4.26 C
2715 02-03-2004 15:15:01 5.2 C 48 % -4.89 C
2716 02-03-2004 15:27:01 5.4 C 48 % -4.71 C
2717 02-03-2004 15:39:01 6 C 47 % -4.44 C
2718 02-03-2004 15:51:01 6.4 C 47 % -4.07 C
2719 02-03-2004 16:03:01 6.4 C 43 % -5.25 C
2720 02-03-2004 16:15:01 6.7 C 44 % -4.67 C
2721 02-03-2004 16:27:01 7 C 41 % -5.33 C
2722 02-03-2004 16:39:01 5.7 C 46 % -5 C
2723 02-03-2004 16:51:00 5.8 C 47 % -4.62 C
2724 02-03-2004 17:03:00 5.7 C 47 % -4.71 C
2725 02-03-2004 17:15:58 5.5 C 48 % -4.62 C
Sensor: Nr:Datum:Temp:Feuchte:Taupunkt:
Aussen-T/F 2726 02-03-2004 17:27:58 5.4 C 48 % -4.71 C
2727 02-03-2004 17:39:57 5.4 C 48 % -4.71 C
2728 02-03-2004 17:51:01 5.4 C 48 % -4.71 C
2729 02-03-2004 18:03:01 5.3 C 48 % -4.8 C
2730 02-03-2004 18:15:01 5 C 48 % -5.08 C
2731 02-03-2004 18:27:01 4.7 C 50 % -4.82 C
2732 02-03-2004 18:39:01 4.8 C 50 % -4.72 C
2733 02-03-2004 18:51:01 4.6 C 51 % -4.65 C
2734 02-03-2004 19:03:01 4.6 C 50 % -4.91 C
2735 02-03-2004 19:15:01 4.3 C 51 % -4.92 C
2736 02-03-2004 19:27:01 4.3 C 51 % -4.92 C
2737 02-03-2004 19:39:01 4.3 C 51 % -4.92 C
2738 02-03-2004 19:51:01 4.2 C 51 % -5.02 C
2739 02-03-2004 20:03:00 4.2 C 51 % -5.02 C
2740 02-03-2004 20:15:59 4 C 52 % -4.95 C
2741 02-03-2004 20:27:59 4 C 52 % -4.95 C
2742 02-03-2004 20:39:57 4 C 52 % -4.95 C
2743 02-03-2004 20:51:01 3.9 C 54 % -4.54 C
2744 02-03-2004 21:03:01 3.8 C 54 % -4.63 C
2745 02-03-2004 21:15:01 3.8 C 55 % -4.39 C
2746 02-03-2004 21:27:01 3.8 C 55 % -4.39 C
2747 02-03-2004 21:39:01 3.8 C 56 % -4.15 C
2748 02-03-2004 21:51:00 3.7 C 55 % -4.49 C
2749 02-03-2004 22:03:00 3.6 C 56 % -4.34 C
2750 02-03-2004 22:15:58 3.6 C 57 % -4.11 C
Sensor: Nr:Datum:Temp:Feuchte:Taupunkt:
Aussen-T/F 2751 02-03-2004 22:27:58 3.8 C 56 % -4.15 C
2752 02-03-2004 22:39:57 3.8 C 56 % -4.15 C
2753 02-03-2004 22:51:01 3.9 C 56 % -4.06 C
2754 02-03-2004 23:03:01 3.9 C 56 % -4.06 C
2755 02-03-2004 23:15:01 3.9 C 56 % -4.06 C
2756 02-03-2004 23:27:01 3.7 C 56 % -4.25 C
2757 02-03-2004 23:39:01 3.6 C 56 % -4.34 C
2758 02-03-2004 23:51:01 3.3 C 57 % -4.39 C
2759 03-03-2004 00:03:01 3.5 C 58 % -3.97 C
2760 03-03-2004 00:15:01 3.5 C 57 % -4.2 C
2761 03-03-2004 00:27:01 3.5 C 57 % -4.2 C
2762 03-03-2004 00:39:01 3.5 C 58 % -3.97 C
2763 03-03-2004 00:51:00 3.4 C 58 % -4.06 C
2764 03-03-2004 01:03:00 3.4 C 59 % -3.84 C
2765 03-03-2004 01:15:59 3.3 C 59 % -3.93 C
2766 03-03-2004 01:27:59 3.3 C 59 % -3.93 C
2767 03-03-2004 01:39:57 3.3 C 59 % -3.93 C
2768 03-03-2004 01:51:01 3.2 C 60 % -3.8 C
2769 03-03-2004 02:03:01 3.1 C 60 % -3.89 C
2770 03-03-2004 02:15:01 3 C 61 % -3.77 C
2771 03-03-2004 02:27:01 2.8 C 62 % -3.74 C
2772 03-03-2004 02:39:01 2.8 C 62 % -3.74 C
2773 03-03-2004 02:52:01 2.8 C 61 % -3.96 C
2774 03-03-2004 03:04:01 2.8 C 61 % -3.96 C
2775 03-03-2004 03:16:00 2.7 C 61 % -4.05 C
Sensor: Nr:Datum:Temp:Feuchte:Taupunkt:
Aussen-T/F 2776 03-03-2004 03:28:00 2.6 C 61 % -4.15 C
2777 03-03-2004 03:40:01 2.6 C 61 % -4.15 C
2778 03-03-2004 03:52:01 2.5 C 62 % -4.03 C
2779 03-03-2004 04:04:00 2.4 C 62 % -4.12 C
2780 03-03-2004 04:16:00 2.3 C 62 % -4.21 C
2781 03-03-2004 04:28:00 2.2 C 62 % -4.31 C
2782 03-03-2004 04:40:00 2.1 C 61 % -4.62 C
2783 03-03-2004 04:52:01 1.7 C 63 % -4.57 C
2784 03-03-2004 05:04:01 1.3 C 63 % -4.95 C
2785 03-03-2004 05:16:01 1.1 C 64 % -4.93 C
2786 03-03-2004 05:28:01 0.8 C 65 % -5.01 C
2787 03-03-2004 05:40:00 0.7 C 65 % -5.11 C
2788 03-03-2004 05:52:01 0.5 C 65 % -5.3 C
2789 03-03-2004 06:04:01 0.5 C 65 % -5.3 C
2790 03-03-2004 06:16:01 0.5 C 64 % -5.5 C
2791 03-03-2004 06:28:01 0.3 C 65 % -5.49 C
2792 03-03-2004 06:40:01 0.1 C 66 % -5.48 C
2793 03-03-2004 06:52:00 0.1 C 66 % -5.48 C
2794 03-03-2004 07:04:00 0 C 66 % -5.58 C
2795 03-03-2004 07:16:58 0.2 C 66 % -5.38 C
2796 03-03-2004 07:28:58 0.4 C 65 % -5.39 C
2797 03-03-2004 07:40:57 0.6 C 64 % -5.41 C
2798 03-03-2004 07:52:01 0.7 C 63 % -5.52 C
2799 03-03-2004 08:04:01 0.7 C 63 % -5.52 C
2800 03-03-2004 08:16:01 0.6 C 63 % -5.61 C
Sensor: Nr:Datum:Temp:Feuchte:Taupunkt:
Aussen-T/F 2801 03-03-2004 08:28:01 0.6 C 63 % -5.61 C
2802 03-03-2004 08:40:01 0.5 C 63 % -5.71 C
2803 03-03-2004 08:52:01 0.4 C 64 % -5.6 C
2804 03-03-2004 09:04:01 0.5 C 63 % -5.71 C
2805 03-03-2004 09:16:01 0.6 C 63 % -5.61 C
2806 03-03-2004 09:28:01 0.8 C 62 % -5.63 C
2807 03-03-2004 09:40:01 1 C 60 % -5.87 C
2808 03-03-2004 09:52:00 1.4 C 60 % -5.5 C
2809 03-03-2004 10:04:00 1.7 C 58 % -5.66 C
2810 03-03-2004 10:16:59 1.9 C 58 % -5.47 C
2811 03-03-2004 10:28:59 2.2 C 55 % -5.89 C
2812 03-03-2004 10:40:57 2.5 C 54 % -5.85 C
2813 03-03-2004 10:52:01 2.8 C 53 % -5.81 C
2814 03-03-2004 11:04:01 3.2 C 52 % -5.69 C
2815 03-03-2004 11:16:01 3.5 C 51 % -5.66 C
2816 03-03-2004 11:28:01 3.8 C 50 % -5.65 C
2817 03-03-2004 11:40:01 4.2 C 48 % -5.81 C
2818 03-03-2004 11:52:00 4.6 C 47 % -5.72 C
2819 03-03-2004 12:03:59 5 C 46 % -5.64 C
2820 03-03-2004 12:16:58 5.4 C 45 % -5.56 C
2821 03-03-2004 12:28:58 6 C 43 % -5.61 C
2822 03-03-2004 12:40:57 6.4 C 41 % -5.87 C
2823 03-03-2004 12:52:01 7.2 C 41 % -5.15 C
2824 03-03-2004 13:04:01 8 C 39 % -5.09 C
2825 03-03-2004 13:16:01 8.2 C 37 % -5.6 C
Sensor: Nr:Datum:Temp:Feuchte:Taupunkt:
Aussen-T/F 2826 03-03-2004 13:28:01 8 C 36 % -6.14 C
2827 03-03-2004 13:40:01 8.5 C 37 % -5.33 C
2828 03-03-2004 13:52:01 8.5 C 35 % -6.06 C
2829 03-03-2004 14:04:01 8.6 C 34 % -6.35 C
2830 03-03-2004 14:16:01 8.9 C 34 % -6.09 C
2831 03-03-2004 14:28:01 9.6 C 33 % -5.86 C
2832 03-03-2004 14:40:01 10.1 C 32 % -5.82 C
2833 03-03-2004 14:52:00 10.1 C 31 % -6.24 C
2834 03-03-2004 15:04:00 10.2 C 29 % -7.02 C
2835 03-03-2004 15:16:58 9.8 C 31 % -6.5 C
2836 03-03-2004 15:28:58 10.4 C 30 % -6.4 C
2837 03-03-2004 15:40:57 11.1 C 28 % -6.69 C
2838 03-03-2004 15:52:01 10.8 C 29 % -6.5 C
2839 03-03-2004 16:04:01 11 C 27 % -7.25 C
2840 03-03-2004 16:16:01 11.2 C 27 % -7.08 C
2841 03-03-2004 16:28:01 10.4 C 28 % -7.3 C
2842 03-03-2004 16:40:01 10.7 C 28 % -7.04 C
2843 03-03-2004 16:52:00 10.3 C 28 % -7.38 C
2844 03-03-2004 17:04:59 9.8 C 30 % -6.92 C
2845 03-03-2004 17:16:58 10 C 32 % -5.91 C
2846 03-03-2004 17:28:58 9.5 C 30 % -7.19 C
2847 03-03-2004 17:40:57 8.9 C 33 % -6.47 C
2848 03-03-2004 17:52:01 8.2 C 33 % -7.09 C
2849 03-03-2004 18:04:01 7.4 C 35 % -7.03 C
2850 03-03-2004 18:16:01 6.9 C 36 % -7.11 C
Sensor: Nr:Datum:Temp:Feuchte:Taupunkt:
Aussen-T/F 2851 03-03-2004 18:28:01 6.6 C 38 % -6.68 C
2852 03-03-2004 18:40:01 5.8 C 41 % -6.41 C
2853 03-03-2004 18:52:01 5.2 C 45 % -5.74 C
2854 03-03-2004 19:04:01 4.7 C 47 % -5.63 C
2855 03-03-2004 19:16:01 4.3 C 48 % -5.72 C
2856 03-03-2004 19:28:01 4.1 C 49 % -5.63 C
2857 03-03-2004 19:40:01 3.6 C 52 % -5.32 C
2858 03-03-2004 19:52:01 3.5 C 52 % -5.41 C
2859 03-03-2004 20:04:00 3.1 C 54 % -5.29 C
2860 03-03-2004 20:16:59 2.7 C 57 % -4.95 C
2861 03-03-2004 20:28:59 2.5 C 59 % -4.68 C
2862 03-03-2004 20:40:58 2.4 C 59 % -4.78 C
2863 03-03-2004 20:52:01 2.1 C 59 % -5.06 C
2864 03-03-2004 21:04:00 1.8 C 62 % -4.69 C
2865 03-03-2004 21:16:01 1.7 C 61 % -5 C
2866 03-03-2004 21:28:01 1.5 C 62 % -4.97 C
2867 03-03-2004 21:40:00 1.3 C 63 % -4.95 C
2868 03-03-2004 21:52:01 1.1 C 62 % -5.35 C
2869 03-03-2004 22:04:01 1 C 63 % -5.23 C
2870 03-03-2004 22:16:01 0.7 C 64 % -5.31 C
2871 03-03-2004 22:28:01 0.6 C 65 % -5.2 C
2872 03-03-2004 22:40:01 0.5 C 66 % -5.1 C
2873 03-03-2004 22:52:01 0.4 C 66 % -5.19 C
2874 03-03-2004 23:04:01 0.2 C 66 % -5.38 C
2875 03-03-2004 23:16:01 0.1 C 66 % -5.48 C
Sensor: Nr:Datum:Temp:Feuchte:Taupunkt:
Aussen-T/F 2876 03-03-2004 23:28:01 -0.1 C 66 % -5.68 C
2877 03-03-2004 23:40:01 -0.1 C 67 % -5.48 C
2878 03-03-2004 23:52:00 0 C 67 % -5.38 C
2879 04-03-2004 00:04:00 -0.2 C 67 % -5.58 C
2880 04-03-2004 00:16:59 -0.4 C 67 % -5.77 C
2881 04-03-2004 00:28:59 -0.6 C 67 % -5.96 C
2882 04-03-2004 00:40:57 -0.9 C 68 % -6.05 C
2883 04-03-2004 00:52:01 -1 C 69 % -5.96 C
2884 04-03-2004 01:04:01 -1.1 C 70 % -5.86 C
2885 04-03-2004 01:16:01 -1.3 C 70 % -6.06 C
2886 04-03-2004 01:28:01 -1.4 C 71 % -5.97 C
2887 04-03-2004 01:40:01 -1.6 C 71 % -6.16 C
2888 04-03-2004 01:52:00 -1.7 C 72 % -6.07 C
2889 04-03-2004 02:04:00 -1.8 C 73 % -5.99 C
2890 04-03-2004 02:16:58 -1.9 C 73 % -6.09 C
2891 04-03-2004 02:28:58 -2.1 C 72 % -6.46 C
2892 04-03-2004 02:40:57 -2.1 C 73 % -6.28 C
2893 04-03-2004 02:53:02 -2.2 C 73 % -6.38 C
2894 04-03-2004 03:05:02 -2.3 C 73 % -6.47 C
2895 04-03-2004 03:17:02 -2.3 C 73 % -6.47 C
2896 04-03-2004 03:29:02 -2.2 C 74 % -6.2 C
2897 04-03-2004 03:41:00 -2.4 C 74 % -6.39 C
2898 04-03-2004 03:53:00 -2.5 C 74 % -6.49 C
2899 04-03-2004 04:05:00 -2.4 C 74 % -6.39 C
2900 04-03-2004 04:17:59 -2.5 C 74 % -6.49 C
Sensor: Nr:Datum:Temp:Feuchte:Taupunkt:
Aussen-T/F 2901 04-03-2004 04:29:59 -2.5 C 74 % -6.49 C
2902 04-03-2004 04:41:57 -2.5 C 74 % -6.49 C
2903 04-03-2004 04:53:01 -2.6 C 74 % -6.58 C
2904 04-03-2004 05:05:01 -2.4 C 75 % -6.22 C
2905 04-03-2004 05:17:01 -2.3 C 74 % -6.29 C
2906 04-03-2004 05:29:01 -2.5 C 73 % -6.67 C
2907 04-03-2004 05:41:01 -2.7 C 73 % -6.86 C
2908 04-03-2004 05:53:00 -2.8 C 73 % -6.95 C
2909 04-03-2004 06:05:00 -2.6 C 74 % -6.58 C
2910 04-03-2004 06:17:58 -2.6 C 74 % -6.58 C
2911 04-03-2004 06:29:58 -2.6 C 75 % -6.41 C
2912 04-03-2004 06:41:57 -2.6 C 74 % -6.58 C
2913 04-03-2004 06:53:01 -2.7 C 75 % -6.51 C
2914 04-03-2004 07:05:01 -2.8 C 75 % -6.6 C
2915 04-03-2004 07:17:01 -2.7 C 75 % -6.51 C
2916 04-03-2004 07:29:01 -2.6 C 75 % -6.41 C
2917 04-03-2004 07:41:01 -2.7 C 74 % -6.68 C
2918 04-03-2004 07:53:01 -2.5 C 75 % -6.31 C
2919 04-03-2004 08:05:01 -2.4 C 75 % -6.22 C
2920 04-03-2004 08:17:01 -2.4 C 74 % -6.39 C
2921 04-03-2004 08:29:01 -2.5 C 74 % -6.49 C
2922 04-03-2004 08:41:01 -2.4 C 75 % -6.22 C
2923 04-03-2004 08:53:00 -2.2 C 75 % -6.02 C
2924 04-03-2004 09:05:00 -2 C 75 % -5.83 C
2925 04-03-2004 09:17:59 -1.8 C 75 % -5.64 C
Sensor: Nr:Datum:Temp:Feuchte:Taupunkt:
Aussen-T/F 2926 04-03-2004 09:29:59 -1.5 C 74 % -5.52 C
2927 04-03-2004 09:41:57 -0.8 C 74 % -4.84 C
2928 04-03-2004 09:53:01 -0.1 C 70 % -4.9 C
2929 04-03-2004 10:05:01 0.4 C 68 % -4.8 C
2930 04-03-2004 10:17:01 1.4 C 66 % -4.24 C
2931 04-03-2004 10:29:01 2.1 C 62 % -4.4 C
2932 04-03-2004 10:41:01 2.2 C 60 % -4.74 C
2933 04-03-2004 10:53:00 2.8 C 57 % -4.86 C
2934 04-03-2004 11:05:00 3.5 C 57 % -4.2 C
2935 04-03-2004 11:17:58 4.1 C 54 % -4.36 C
2936 04-03-2004 11:29:58 4.7 C 52 % -4.3 C
2937 04-03-2004 11:41:57 4.8 C 52 % -4.2 C
2938 04-03-2004 11:53:01 5.1 C 51 % -4.18 C
2939 04-03-2004 12:05:01 5.3 C 52 % -3.74 C
2940 04-03-2004 12:17:01 6.2 C 48 % -3.98 C
2941 04-03-2004 12:29:01 7.1 C 45 % -4.01 C
2942 04-03-2004 12:41:01 7.4 C 44 % -4.04 C
2943 04-03-2004 12:53:01 7.8 C 42 % -4.29 C
2944 04-03-2004 13:05:01 8.6 C 41 % -3.89 C
2945 04-03-2004 13:17:01 8.9 C 40 % -3.95 C
2946 04-03-2004 13:29:01 8.9 C 38 % -4.63 C
2947 04-03-2004 13:41:01 9.5 C 37 % -4.44 C
2948 04-03-2004 13:53:00 10.2 C 35 % -4.56 C
2949 04-03-2004 14:05:00 10.7 C 35 % -4.11 C
2950 04-03-2004 14:17:59 10.5 C 32 % -5.47 C
Sensor: Nr:Datum:Temp:Feuchte:Taupunkt:
Aussen-T/F 2951 04-03-2004 14:29:59 10.4 C 32 % -5.56 C
2952 04-03-2004 14:41:57 9.9 C 35 % -4.82 C
2953 04-03-2004 14:53:01 10 C 33 % -5.51 C
2954 04-03-2004 15:05:01 10.8 C 32 % -5.21 C
2955 04-03-2004 15:17:01 11.1 C 30 % -5.79 C
2956 04-03-2004 15:29:01 11.1 C 31 % -5.37 C
2957 04-03-2004 15:41:01 10.5 C 31 % -5.89 C
2958 04-03-2004 15:53:00 10.3 C 31 % -6.06 C
2959 04-03-2004 16:05:59 10.1 C 31 % -6.24 C
2960 04-03-2004 16:17:58 10.3 C 32 % -5.65 C
2961 04-03-2004 16:29:58 10.3 C 31 % -6.06 C
2962 04-03-2004 16:41:57 10 C 32 % -5.91 C
2963 04-03-2004 16:53:01 9.7 C 41 % -2.9 C
2964 04-03-2004 17:05:01 9.4 C 37 % -4.53 C
2965 04-03-2004 17:17:01 9.1 C 37 % -4.8 C
2966 04-03-2004 17:29:01 8.9 C 40 % -3.95 C
2967 04-03-2004 17:41:01 8.6 C 39 % -4.55 C
2968 04-03-2004 17:53:01 8.4 C 41 % -4.07 C
2969 04-03-2004 18:05:01 8.1 C 42 % -4.02 C
2970 04-03-2004 18:17:01 7.8 C 45 % -3.37 C
2971 04-03-2004 18:29:01 7.4 C 46 % -3.44 C
2972 04-03-2004 18:41:01 7.1 C 47 % -3.43 C
2973 04-03-2004 18:53:01 6.9 C 48 % -3.33 C
2974 04-03-2004 19:05:00 6.8 C 47 % -3.71 C
2975 04-03-2004 19:17:58 6.8 C 46 % -3.99 C
Sensor: Nr:Datum:Temp:Feuchte:Taupunkt:
Aussen-T/F 2976 04-03-2004 19:29:58 6.8 C 45 % -4.28 C
2977 04-03-2004 19:41:57 6.6 C 45 % -4.47 C
2978 04-03-2004 19:53:01 6.5 C 44 % -4.85 C
2979 04-03-2004 20:05:01 6.5 C 43 % -5.16 C
2980 04-03-2004 20:17:01 6.4 C 42 % -5.56 C
2981 04-03-2004 20:29:01 6.3 C 44 % -5.03 C
2982 04-03-2004 20:41:01 6 C 46 % -4.72 C
2983 04-03-2004 20:53:00 5.7 C 48 % -4.43 C
2984 04-03-2004 21:05:59 5.5 C 49 % -4.35 C
2985 04-03-2004 21:17:58 5.4 C 49 % -4.44 C
2986 04-03-2004 21:29:58 5.2 C 48 % -4.89 C
2987 04-03-2004 21:41:57 5 C 49 % -4.81 C
2988 04-03-2004 21:53:01 4.9 C 49 % -4.9 C
2989 04-03-2004 22:05:01 4.6 C 50 % -4.91 C
2990 04-03-2004 22:17:01 4.3 C 51 % -4.92 C
2991 04-03-2004 22:29:01 3.8 C 54 % -4.63 C
2992 04-03-2004 22:41:01 3.6 C 53 % -5.07 C
2993 04-03-2004 22:53:00 3.5 C 53 % -5.16 C
2994 04-03-2004 23:05:59 3.3 C 53 % -5.35 C
2995 04-03-2004 23:17:58 3.1 C 55 % -5.05 C
2996 04-03-2004 23:29:58 2.8 C 56 % -5.09 C
2997 04-03-2004 23:41:57 2.4 C 56 % -5.46 C
2998 04-03-2004 23:53:01 2.3 C 56 % -5.56 C
2999 05-03-2004 00:05:01 2.1 C 56 % -5.74 C
3000 05-03-2004 00:17:01 2.1 C 56 % -5.74 C
Sensor: Nr:Datum:Temp:Feuchte:Taupunkt:
Aussen-T/F 3001 05-03-2004 00:29:01 1.9 C 58 % -5.47 C
3002 05-03-2004 00:41:00 1.8 C 58 % -5.57 C
3003 05-03-2004 00:53:01 1.7 C 58 % -5.66 C
3004 05-03-2004 01:05:01 1.5 C 59 % -5.62 C
3005 05-03-2004 01:17:01 1.4 C 59 % -5.72 C
3006 05-03-2004 01:29:01 1.2 C 60 % -5.69 C
3007 05-03-2004 01:41:01 1 C 60 % -5.87 C
3008 05-03-2004 01:53:01 1 C 60 % -5.87 C
3009 05-03-2004 02:05:00 0.8 C 62 % -5.63 C
3010 05-03-2004 02:17:58 0.6 C 62 % -5.82 C
3011 05-03-2004 02:29:58 0.5 C 63 % -5.71 C
3012 05-03-2004 02:41:57 0.5 C 63 % -5.71 C
3013 05-03-2004 02:54:03 0.4 C 63 % -5.8 C
3014 05-03-2004 03:06:03 0.3 C 65 % -5.49 C
3015 05-03-2004 03:18:02 0.3 C 65 % -5.49 C
3016 05-03-2004 03:30:02 0.3 C 65 % -5.49 C
3017 05-03-2004 03:42:00 0.2 C 65 % -5.58 C
3018 05-03-2004 03:54:00 0.1 C 65 % -5.68 C
3019 05-03-2004 04:06:00 0.2 C 65 % -5.58 C
3020 05-03-2004 04:18:59 -0.1 C 65 % -5.88 C
3021 05-03-2004 04:30:58 -0.3 C 65 % -6.07 C
3022 05-03-2004 04:42:58 -0.5 C 66 % -6.06 C
3023 05-03-2004 04:54:01 -0.5 C 67 % -5.86 C
3024 05-03-2004 05:06:01 -0.7 C 67 % -6.05 C
3025 05-03-2004 05:18:01 -0.8 C 68 % -5.96 C
Sensor: Nr:Datum:Temp:Feuchte:Taupunkt:
Aussen-T/F 3026 05-03-2004 05:30:01 -0.9 C 68 % -6.05 C
3027 05-03-2004 05:42:01 -1 C 67 % -6.34 C
3028 05-03-2004 05:54:00 -1 C 67 % -6.34 C
3029 05-03-2004 06:06:00 -1.1 C 68 % -6.24 C
3030 05-03-2004 06:18:58 -1.2 C 67 % -6.53 C
3031 05-03-2004 06:30:57 -1.2 C 66 % -6.73 C
3032 05-03-2004 06:42:57 -1.2 C 64 % -7.13 C
3033 05-03-2004 06:54:01 -1.2 C 64 % -7.13 C
3034 05-03-2004 07:06:01 -1.4 C 65 % -7.12 C
3035 05-03-2004 07:18:01 -1.4 C 63 % -7.52 C
3036 05-03-2004 07:30:01 -1.5 C 64 % -7.41 C
3037 05-03-2004 07:42:02 -1.4 C 64 % -7.32 C
3038 05-03-2004 07:54:00 -1.4 C 63 % -7.52 C
3039 05-03-2004 08:06:00 -1.3 C 64 % -7.22 C
3040 05-03-2004 08:18:58 -1.2 C 63 % -7.33 C
3041 05-03-2004 08:30:57 -1.1 C 63 % -7.24 C
3042 05-03-2004 08:42:57 -0.9 C 61 % -7.46 C
3043 05-03-2004 08:54:01 -0.8 C 60 % -7.58 C
3044 05-03-2004 09:06:01 -0.6 C 61 % -7.18 C
3045 05-03-2004 09:18:01 -0.6 C 61 % -7.18 C
3046 05-03-2004 09:30:01 -0.4 C 60 % -7.2 C
3047 05-03-2004 09:42:01 0.1 C 59 % -6.94 C
3048 05-03-2004 09:54:00 0.6 C 58 % -6.69 C
3049 05-03-2004 10:06:59 1.2 C 56 % -6.59 C
3050 05-03-2004 10:18:58 1.7 C 53 % -6.83 C
Sensor: Nr:Datum:Temp:Feuchte:Taupunkt:
Aussen-T/F 3051 05-03-2004 10:30:57 2.2 C 51 % -6.87 C
3052 05-03-2004 10:42:57 2.7 C 50 % -6.66 C
3053 05-03-2004 10:54:01 3.2 C 46 % -7.28 C
3054 05-03-2004 11:06:01 3.6 C 45 % -7.2 C
3055 05-03-2004 11:18:01 4 C 45 % -6.84 C
3056 05-03-2004 11:30:01 4.8 C 41 % -7.31 C
3057 05-03-2004 11:42:01 5.1 C 39 % -7.69 C
3058 05-03-2004 11:54:01 5.4 C 37 % -8.1 C
3059 05-03-2004 12:06:02 5.8 C 37 % -7.74 C
3060 05-03-2004 12:18:01 6.2 C 35 % -8.1 C
3061 05-03-2004 12:30:01 6.6 C 35 % -7.74 C
3062 05-03-2004 12:42:01 7 C 33 % -8.15 C
3063 05-03-2004 12:54:01 7.5 C 32 % -8.1 C
3064 05-03-2004 13:06:00 7.9 C 30 % -8.58 C
3065 05-03-2004 13:18:59 8 C 28 % -9.37 C
3066 05-03-2004 13:30:57 8.5 C 27 % -9.4 C
3067 05-03-2004 13:42:57 8.7 C 25 % -10.2 C
3068 05-03-2004 13:54:01 9 C 23 % -10.99 C
3069 05-03-2004 14:06:01 9.1 C 20 % -12.64 C
3070 05-03-2004 14:18:01 9.5 C 20 % -12.31 C
3071 05-03-2004 14:30:01 10.1 C 20 % -11.81 C
3072 05-03-2004 14:42:01 10 C 20 % -11.89 C
3073 05-03-2004 14:54:00 9.2 C 20 % -12.56 C
3074 05-03-2004 15:06:00 9 C 20 % -12.72 C
3075 05-03-2004 15:18:58 8.6 C 20 % -13.06 C
Sensor: Nr:Datum:Temp:Feuchte:Taupunkt:
Aussen-T/F 3076 05-03-2004 15:30:58 8.3 C 20 % -13.31 C
3077 05-03-2004 15:42:58 8.9 C 20 % -12.81 C
3078 05-03-2004 15:54:01 8.5 C 20 % -13.14 C
3079 05-03-2004 16:06:01 8.1 C 20 % -13.47 C
3080 05-03-2004 16:18:01 7.8 C 20 % -13.72 C
3081 05-03-2004 16:30:01 7.8 C 20 % -13.72 C
3082 05-03-2004 16:42:01 7.5 C 20 % -13.97 C
3083 05-03-2004 16:54:00 7.4 C 20 % -14.05 C
3084 05-03-2004 17:06:00 7.2 C 20 % -14.22 C
3085 05-03-2004 17:18:58 7.1 C 20 % -14.3 C
3086 05-03-2004 17:30:57 6.9 C 23 % -12.76 C
3087 05-03-2004 17:42:57 6.6 C 25 % -11.99 C
3088 05-03-2004 17:54:02 6.3 C 27 % -11.29 C
3089 05-03-2004 18:06:01 6.2 C 29 % -10.48 C
3090 05-03-2004 18:18:01 5.8 C 29 % -10.83 C
3091 05-03-2004 18:30:01 5.7 C 30 % -10.49 C
3092 05-03-2004 18:42:01 5.6 C 30 % -10.58 C
3093 05-03-2004 18:54:03 5.5 C 31 % -10.25 C
3094 05-03-2004 19:06:02 5.5 C 32 % -9.85 C
3095 05-03-2004 19:18:02 5.6 C 33 % -9.38 C
3096 05-03-2004 19:30:02 5.2 C 32 % -10.12 C
3097 05-03-2004 19:42:02 5.2 C 35 % -8.98 C
3098 05-03-2004 19:54:00 5.1 C 33 % -9.82 C
3099 05-03-2004 20:06:00 5.1 C 35 % -9.07 C
3100 05-03-2004 20:18:59 5.1 C 35 % -9.07 C
Sensor: Nr:Datum:Temp:Feuchte:Taupunkt:
Aussen-T/F 3101 05-03-2004 20:30:58 5 C 36 % -8.8 C
3102 05-03-2004 20:42:58 5 C 36 % -8.8 C
3103 05-03-2004 20:54:01 5 C 36 % -8.8 C
3104 05-03-2004 21:06:00 4.8 C 40 % -7.63 C
3105 05-03-2004 21:18:00 4.3 C 44 % -6.85 C
3106 05-03-2004 21:30:00 4.1 C 47 % -6.18 C
3107 05-03-2004 21:42:00 4.1 C 45 % -6.74 C
3108 05-03-2004 21:54:01 4.1 C 46 % -6.46 C
3109 05-03-2004 22:06:01 3.8 C 47 % -6.45 C
3110 05-03-2004 22:18:01 3.6 C 47 % -6.64 C
3111 05-03-2004 22:30:01 3.7 C 48 % -6.27 C
3112 05-03-2004 22:42:01 3.5 C 49 % -6.19 C
3113 05-03-2004 22:54:01 3.2 C 52 % -5.69 C
3114 05-03-2004 23:06:01 2.6 C 59 % -4.59 C
3115 05-03-2004 23:18:01 2.1 C 65 % -3.78 C
3116 05-03-2004 23:30:01 1.7 C 70 % -3.17 C
3117 05-03-2004 23:42:01 1.5 C 73 % -2.8 C
3118 05-03-2004 23:54:00 1.3 C 74 % -2.81 C
3119 06-03-2004 00:06:00 1.3 C 75 % -2.63 C
3120 06-03-2004 00:18:59 1.2 C 76 % -2.55 C
3121 06-03-2004 00:30:57 1.1 C 76 % -2.65 C
3122 06-03-2004 00:42:57 1 C 77 % -2.57 C
3123 06-03-2004 00:54:01 0.9 C 78 % -2.49 C
3124 06-03-2004 01:06:01 1 C 78 % -2.39 C
3125 06-03-2004 01:18:01 1 C 78 % -2.39 C
Sensor: Nr:Datum:Temp:Feuchte:Taupunkt:
Aussen-T/F 3126 06-03-2004 01:30:01 0.6 C 79 % -2.61 C
3127 06-03-2004 01:42:01 0.6 C 80 % -2.44 C
3128 06-03-2004 01:54:00 0.4 C 80 % -2.64 C
3129 06-03-2004 02:06:59 0.3 C 81 % -2.57 C
3130 06-03-2004 02:18:58 0.3 C 81 % -2.57 C
3131 06-03-2004 02:30:57 0.3 C 81 % -2.57 C
3132 06-03-2004 02:42:57 0.3 C 81 % -2.57 C
3133 06-03-2004 02:55:02 0.3 C 81 % -2.57 C
3134 06-03-2004 03:07:02 0.3 C 81 % -2.57 C
3135 06-03-2004 03:19:02 0.2 C 81 % -2.67 C
3136 06-03-2004 03:31:00 0.2 C 81 % -2.67 C
3137 06-03-2004 03:43:00 0.2 C 81 % -2.67 C
3138 06-03-2004 03:55:00 0.2 C 81 % -2.67 C
3139 06-03-2004 04:07:00 0.2 C 81 % -2.67 C
3140 06-03-2004 04:19:59 0.2 C 81 % -2.67 C
3141 06-03-2004 04:31:58 0.2 C 80 % -2.83 C
3142 06-03-2004 04:43:58 0.2 C 80 % -2.83 C
3143 06-03-2004 04:55:01 0.2 C 80 % -2.83 C
3144 06-03-2004 05:07:01 0.2 C 80 % -2.83 C
3145 06-03-2004 05:19:00 0.3 C 80 % -2.73 C
3146 06-03-2004 05:31:00 0.3 C 80 % -2.73 C
3147 06-03-2004 05:43:00 0.3 C 80 % -2.73 C
3148 06-03-2004 05:55:01 0.3 C 80 % -2.73 C
3149 06-03-2004 06:07:01 0.3 C 80 % -2.73 C
3150 06-03-2004 06:19:01 0.3 C 80 % -2.73 C
Sensor: Nr:Datum:Temp:Feuchte:Taupunkt:
Aussen-T/F 3151 06-03-2004 06:31:01 0.4 C 80 % -2.64 C
3152 06-03-2004 06:43:01 0.3 C 80 % -2.73 C
3153 06-03-2004 06:55:00 0.3 C 80 % -2.73 C
3154 06-03-2004 07:07:59 0.4 C 79 % -2.81 C
3155 06-03-2004 07:19:58 0.4 C 79 % -2.81 C
3156 06-03-2004 07:31:57 0.4 C 79 % -2.81 C
3157 06-03-2004 07:43:57 0.4 C 79 % -2.81 C
3158 06-03-2004 07:55:01 0.4 C 79 % -2.81 C
3159 06-03-2004 08:07:01 0.4 C 79 % -2.81 C
3160 06-03-2004 08:19:01 0.5 C 79 % -2.71 C
3161 06-03-2004 08:31:01 0.5 C 79 % -2.71 C
3162 06-03-2004 08:43:01 0.4 C 80 % -2.64 C
3163 06-03-2004 08:55:01 0.5 C 80 % -2.54 C
3164 06-03-2004 09:07:02 0.6 C 81 % -2.28 C
3165 06-03-2004 09:19:01 0.6 C 81 % -2.28 C
3166 06-03-2004 09:31:01 0.6 C 81 % -2.28 C
3167 06-03-2004 09:43:01 0.7 C 81 % -2.18 C
3168 06-03-2004 09:55:00 0.7 C 81 % -2.18 C
3169 06-03-2004 10:07:00 0.9 C 81 % -1.98 C
3170 06-03-2004 10:19:59 0.9 C 81 % -1.98 C
3171 06-03-2004 10:31:57 0.9 C 81 % -1.98 C
3172 06-03-2004 10:43:57 1 C 80 % -2.05 C
3173 06-03-2004 10:55:01 1 C 80 % -2.05 C
3174 06-03-2004 11:07:01 1.2 C 80 % -1.86 C
3175 06-03-2004 11:19:01 1.4 C 80 % -1.66 C
Sensor: Nr:Datum:Temp:Feuchte:Taupunkt:
Aussen-T/F 3176 06-03-2004 11:31:01 1.4 C 81 % -1.49 C
3177 06-03-2004 11:43:01 1.2 C 81 % -1.69 C
3178 06-03-2004 11:55:00 1.3 C 81 % -1.59 C
3179 06-03-2004 12:07:00 1.2 C 81 % -1.69 C
3180 06-03-2004 12:19:59 1.2 C 82 % -1.52 C
3181 06-03-2004 12:31:58 1.3 C 82 % -1.43 C
3182 06-03-2004 12:43:58 1.4 C 82 % -1.33 C
3183 06-03-2004 12:55:01 1.3 C 82 % -1.43 C
3184 06-03-2004 13:07:01 1.2 C 82 % -1.52 C
3185 06-03-2004 13:19:01 1.2 C 82 % -1.52 C
3186 06-03-2004 13:31:01 1.2 C 83 % -1.36 C
3187 06-03-2004 13:43:01 1.3 C 83 % -1.26 C
3188 06-03-2004 13:55:01 1.5 C 84 % -0.9 C
3189 06-03-2004 14:07:02 1.7 C 84 % -0.71 C
3190 06-03-2004 14:19:01 1.8 C 84 % -0.61 C
3191 06-03-2004 14:31:01 1.8 C 84 % -0.61 C
3192 06-03-2004 14:43:01 1.9 C 83 % -0.67 C
3193 06-03-2004 14:55:01 1.9 C 83 % -0.67 C
3194 06-03-2004 15:07:00 2 C 83 % -0.58 C
3195 06-03-2004 15:19:59 2.2 C 82 % -0.55 C
3196 06-03-2004 15:31:58 2.4 C 82 % -0.35 C
3197 06-03-2004 15:43:58 2.4 C 81 % -0.52 C
3198 06-03-2004 15:55:01 2.4 C 81 % -0.52 C
3199 06-03-2004 16:07:01 3 C 79 % -0.28 C
3200 06-03-2004 16:19:01 3.4 C 76 % -0.42 C
Sensor: Nr:Datum:Temp:Feuchte:Taupunkt:
Aussen-T/F 3201 06-03-2004 16:31:01 3.4 C 74 % -0.78 C
3202 06-03-2004 16:43:01 3.1 C 75 % -0.89 C
3203 06-03-2004 16:55:00 3.1 C 75 % -0.89 C
3204 06-03-2004 17:07:00 3.1 C 76 % -0.71 C
3205 06-03-2004 17:19:58 3.1 C 76 % -0.71 C
3206 06-03-2004 17:31:57 2.8 C 78 % -0.65 C
3207 06-03-2004 17:43:57 2.7 C 78 % -0.74 C
3208 06-03-2004 17:55:01 2.6 C 79 % -0.67 C
3209 06-03-2004 18:07:02 2.4 C 79 % -0.86 C
3210 06-03-2004 18:19:02 2.3 C 80 % -0.79 C
3211 06-03-2004 18:31:01 2.2 C 81 % -0.71 C
3212 06-03-2004 18:43:01 2.2 C 81 % -0.71 C
3213 06-03-2004 18:55:00 2.3 C 81 % -0.62 C
3214 06-03-2004 19:07:00 2.5 C 78 % -0.94 C
3215 06-03-2004 19:19:59 2.3 C 78 % -1.13 C
3216 06-03-2004 19:31:57 2.3 C 79 % -0.96 C
3217 06-03-2004 19:43:57 2.3 C 79 % -0.96 C
3218 06-03-2004 19:55:01 2.3 C 79 % -0.96 C
3219 06-03-2004 20:07:02 2.3 C 79 % -0.96 C
3220 06-03-2004 20:19:01 2.4 C 78 % -1.03 C
3221 06-03-2004 20:31:01 2.4 C 78 % -1.03 C
3222 06-03-2004 20:43:01 2.5 C 78 % -0.94 C
3223 06-03-2004 20:55:00 2.4 C 78 % -1.03 C
3224 06-03-2004 21:07:00 2.5 C 77 % -1.11 C
3225 06-03-2004 21:19:58 2.7 C 77 % -0.92 C
Sensor: Nr:Datum:Temp:Feuchte:Taupunkt:
Aussen-T/F 3226 06-03-2004 21:31:57 2.6 C 76 % -1.19 C
3227 06-03-2004 21:43:57 2.6 C 76 % -1.19 C
3228 06-03-2004 21:55:01 2.6 C 76 % -1.19 C
3229 06-03-2004 22:07:01 2.5 C 77 % -1.11 C
3230 06-03-2004 22:19:01 2.5 C 78 % -0.94 C
3231 06-03-2004 22:31:01 2.5 C 78 % -0.94 C
3232 06-03-2004 22:43:01 2.5 C 78 % -0.94 C
3233 06-03-2004 22:55:01 2.4 C 78 % -1.03 C
3234 06-03-2004 23:07:01 2.7 C 74 % -1.46 C
3235 06-03-2004 23:19:01 2.6 C 70 % -2.31 C
3236 06-03-2004 23:31:01 2.5 C 69 % -2.6 C
3237 06-03-2004 23:43:01 2.4 C 69 % -2.69 C
3238 06-03-2004 23:55:00 2.3 C 71 % -2.4 C
3239 07-03-2004 00:07:00 2.2 C 72 % -2.31 C
3240 07-03-2004 00:19:59 2.2 C 71 % -2.5 C
3241 07-03-2004 00:31:57 2.2 C 71 % -2.5 C
3242 07-03-2004 00:43:57 2.2 C 72 % -2.31 C
3243 07-03-2004 00:55:01 1.9 C 74 % -2.23 C
3244 07-03-2004 01:07:01 1.8 C 75 % -2.15 C
3245 07-03-2004 01:19:01 1.8 C 74 % -2.33 C
3246 07-03-2004 01:31:01 1.8 C 73 % -2.51 C
3247 07-03-2004 01:43:01 1.5 C 72 % -2.99 C
3248 07-03-2004 01:55:00 1.2 C 73 % -3.09 C
3249 07-03-2004 02:06:59 1.3 C 74 % -2.81 C
3250 07-03-2004 02:19:58 1.3 C 73 % -2.99 C
Sensor: Nr:Datum:Temp:Feuchte:Taupunkt:
Aussen-T/F 3251 07-03-2004 02:31:57 1.5 C 72 % -2.99 C
3252 07-03-2004 02:43:57 1.5 C 71 % -3.17 C
3253 07-03-2004 02:56:02 1.4 C 72 % -3.08 C
3254 07-03-2004 03:08:02 1.6 C 71 % -3.08 C
3255 07-03-2004 03:20:02 1.7 C 70 % -3.17 C
3256 07-03-2004 03:32:00 1.8 C 70 % -3.07 C
3257 07-03-2004 03:44:00 1.9 C 69 % -3.17 C
3258 07-03-2004 03:56:00 1.8 C 70 % -3.07 C
3259 07-03-2004 04:08:00 1.9 C 70 % -2.98 C
3260 07-03-2004 04:20:59 2 C 70 % -2.88 C
3261 07-03-2004 04:32:57 2 C 70 % -2.88 C
3262 07-03-2004 04:44:01 2.2 C 70 % -2.69 C
3263 07-03-2004 04:56:01 2.2 C 70 % -2.69 C
3264 07-03-2004 05:08:01 2.3 C 70 % -2.59 C
3265 07-03-2004 05:20:01 2.3 C 70 % -2.59 C
3266 07-03-2004 05:32:01 2.2 C 71 % -2.5 C
3267 07-03-2004 05:44:01 1.8 C 75 % -2.15 C
3268 07-03-2004 05:56:00 1.5 C 79 % -1.74 C
3269 07-03-2004 06:08:00 1.1 C 80 % -1.96 C
3270 07-03-2004 06:20:58 1 C 83 % -1.55 C
3271 07-03-2004 06:32:57 0.8 C 85 % -1.43 C
3272 07-03-2004 06:44:01 0.8 C 86 % -1.27 C
3273 07-03-2004 06:56:01 0.9 C 86 % -1.17 C
3274 07-03-2004 07:08:01 1 C 86 % -1.07 C
3275 07-03-2004 07:20:01 1.2 C 86 % -0.88 C
Sensor: Nr:Datum:Temp:Feuchte:Taupunkt:
Aussen-T/F 3276 07-03-2004 07:32:01 1.2 C 86 % -0.88 C
3277 07-03-2004 07:44:01 1.4 C 86 % -0.68 C
3278 07-03-2004 07:56:01 1.6 C 86 % -0.48 C
3279 07-03-2004 08:08:01 1.8 C 85 % -0.45 C
3280 07-03-2004 08:20:01 2 C 85 % -0.25 C
3281 07-03-2004 08:32:01 2.1 C 85 % -0.15 C
3282 07-03-2004 08:44:01 2.2 C 85 % -0.05 C
3283 07-03-2004 08:56:01 2.3 C 84 % -0.12 C
3284 07-03-2004 09:08:00 2.4 C 84 % -0.02 C
3285 07-03-2004 09:20:59 2.4 C 83 % -0.18 C
3286 07-03-2004 09:32:57 2.6 C 83 % 0.01 C
3287 07-03-2004 09:44:01 3 C 82 % 0.24 C
3288 07-03-2004 09:56:01 3.1 C 82 % 0.33 C
3289 07-03-2004 10:08:01 3 C 82 % 0.24 C
3290 07-03-2004 10:20:01 3 C 82 % 0.24 C
3291 07-03-2004 10:32:01 3.2 C 82 % 0.43 C
3292 07-03-2004 10:44:01 3.4 C 83 % 0.79 C
3293 07-03-2004 10:56:00 3.5 C 83 % 0.89 C
3294 07-03-2004 11:08:59 3.8 C 83 % 1.19 C
3295 07-03-2004 11:20:58 4 C 80 % 0.87 C
3296 07-03-2004 11:32:58 4.4 C 80 % 1.26 C
3297 07-03-2004 11:44:01 4.8 C 76 % 0.94 C
3298 07-03-2004 11:56:01 5.3 C 72 % 0.67 C
3299 07-03-2004 12:08:01 5.5 C 70 % 0.48 C
3300 07-03-2004 12:20:01 5.7 C 69 % 0.47 C
Sensor: Nr:Datum:Temp:Feuchte:Taupunkt:
Aussen-T/F 3301 07-03-2004 12:32:01 5.6 C 66 % -0.24 C
3302 07-03-2004 12:44:01 5.9 C 66 % 0.05 C
3303 07-03-2004 12:56:01 6.3 C 63 % -0.21 C
3304 07-03-2004 13:08:00 6.8 C 61 % -0.18 C
3305 07-03-2004 13:20:59 6.5 C 60 % -0.69 C
3306 07-03-2004 13:32:57 7.1 C 59 % -0.36 C
3307 07-03-2004 13:44:01 6.9 C 57 % -1.01 C
3308 07-03-2004 13:56:01 7.6 C 56 % -0.6 C
3309 07-03-2004 14:08:01 7.5 C 54 % -1.19 C
3310 07-03-2004 14:20:01 7.8 C 54 % -0.91 C
3311 07-03-2004 14:32:01 7.5 C 54 % -1.19 C
3312 07-03-2004 14:44:01 7.5 C 54 % -1.19 C
3313 07-03-2004 14:56:00 7.2 C 56 % -0.98 C
3314 07-03-2004 15:08:00 7 C 56 % -1.16 C
3315 07-03-2004 15:20:59 6.9 C 57 % -1.01 C
3316 07-03-2004 15:32:57 6.9 C 57 % -1.01 C
3317 07-03-2004 15:44:02 7 C 56 % -1.16 C
3318 07-03-2004 15:56:02 7.1 C 55 % -1.31 C
3319 07-03-2004 16:08:01 7.1 C 56 % -1.07 C
3320 07-03-2004 16:20:01 6.9 C 57 % -1.01 C
3321 07-03-2004 16:32:01 6.9 C 57 % -1.01 C
3322 07-03-2004 16:44:01 7 C 57 % -0.92 C
3323 07-03-2004 16:56:01 6.9 C 58 % -0.78 C
3324 07-03-2004 17:08:00 6.8 C 57 % -1.11 C
3325 07-03-2004 17:20:58 6.2 C 60 % -0.97 C
Sensor: Nr:Datum:Temp:Feuchte:Taupunkt:
Aussen-T/F 3326 07-03-2004 17:32:57 5.9 C 64 % -0.38 C
3327 07-03-2004 17:44:01 5.7 C 65 % -0.35 C
3328 07-03-2004 17:56:01 5.5 C 66 % -0.33 C
3329 07-03-2004 18:08:02 5.2 C 70 % 0.19 C
3330 07-03-2004 18:20:02 4.9 C 74 % 0.67 C
3331 07-03-2004 18:32:01 4.6 C 77 % 0.92 C
3332 07-03-2004 18:44:01 4.2 C 80 % 1.07 C
3333 07-03-2004 18:56:01 4.2 C 80 % 1.07 C
3334 07-03-2004 19:08:01 4.2 C 80 % 1.07 C
3335 07-03-2004 19:20:59 4.2 C 80 % 1.07 C
3336 07-03-2004 19:32:57 4.2 C 81 % 1.24 C
3337 07-03-2004 19:44:01 4.2 C 81 % 1.24 C
3338 07-03-2004 19:56:01 4.1 C 81 % 1.14 C
3339 07-03-2004 20:08:01 3.9 C 81 % 0.95 C
3340 07-03-2004 20:20:01 3.6 C 81 % 0.65 C
3341 07-03-2004 20:32:01 3.6 C 82 % 0.82 C
3342 07-03-2004 20:44:01 3.5 C 82 % 0.72 C
3343 07-03-2004 20:56:00 3.6 C 83 % 0.99 C
3344 07-03-2004 21:08:00 3.6 C 82 % 0.82 C
3345 07-03-2004 21:20:59 3.7 C 82 % 0.92 C
3346 07-03-2004 21:32:58 3.8 C 82 % 1.02 C
3347 07-03-2004 21:44:01 3.6 C 82 % 0.82 C
3348 07-03-2004 21:56:01 3.2 C 81 % 0.26 C
3349 07-03-2004 22:08:00 3.1 C 81 % 0.16 C
3350 07-03-2004 22:20:00 3.1 C 81 % 0.16 C
Sensor: Nr:Datum:Temp:Feuchte:Taupunkt:
Aussen-T/F 3351 07-03-2004 22:32:00 3.1 C 82 % 0.33 C
3352 07-03-2004 22:44:00 3.1 C 82 % 0.33 C
3353 07-03-2004 22:56:01 3.2 C 83 % 0.6 C
3354 07-03-2004 23:08:01 3.4 C 83 % 0.79 C
3355 07-03-2004 23:20:01 3.5 C 83 % 0.89 C
3356 07-03-2004 23:32:01 3.5 C 82 % 0.72 C
3357 07-03-2004 23:44:01 3.4 C 82 % 0.63 C
3358 07-03-2004 23:56:01 3.3 C 82 % 0.53 C
3359 08-03-2004 00:08:01 3.2 C 82 % 0.43 C
3360 08-03-2004 00:20:01 3.3 C 82 % 0.53 C
3361 08-03-2004 00:32:01 3.2 C 81 % 0.26 C
3362 08-03-2004 00:44:01 3 C 81 % 0.07 C
3363 08-03-2004 00:56:00 3.1 C 81 % 0.16 C
3364 08-03-2004 01:08:59 3 C 81 % 0.07 C
3365 08-03-2004 01:20:58 3.2 C 81 % 0.26 C
3366 08-03-2004 01:32:57 3.1 C 81 % 0.16 C
3367 08-03-2004 01:44:01 3.1 C 81 % 0.16 C
3368 08-03-2004 01:56:01 3.1 C 80 % -0.01 C
3369 08-03-2004 02:08:01 3.1 C 80 % -0.01 C
3370 08-03-2004 02:20:01 3.2 C 80 % 0.09 C
3371 08-03-2004 02:32:00 3.2 C 80 % 0.09 C
3372 08-03-2004 02:44:00 3.2 C 80 % 0.09 C
3373 08-03-2004 02:57:03 3.1 C 80 % -0.01 C
3374 08-03-2004 03:09:03 3 C 80 % -0.1 C
3375 08-03-2004 03:21:03 3.1 C 81 % 0.16 C
Sensor: Nr:Datum:Temp:Feuchte:Taupunkt:
Aussen-T/F 3376 08-03-2004 03:33:00 3.1 C 81 % 0.16 C
3377 08-03-2004 03:45:00 3.1 C 81 % 0.16 C
3378 08-03-2004 03:57:00 3.1 C 81 % 0.16 C
3379 08-03-2004 04:09:00 3.1 C 81 % 0.16 C
3380 08-03-2004 04:21:59 2.8 C 82 % 0.04 C
3381 08-03-2004 04:33:58 3 C 82 % 0.24 C
3382 08-03-2004 04:45:01 2.9 C 82 % 0.14 C
3383 08-03-2004 04:57:01 2.8 C 82 % 0.04 C
3384 08-03-2004 05:09:00 2.9 C 83 % 0.31 C
3385 08-03-2004 05:21:00 3.1 C 82 % 0.33 C
3386 08-03-2004 05:33:00 3.1 C 82 % 0.33 C
3387 08-03-2004 05:45:01 3.1 C 82 % 0.33 C
3388 08-03-2004 05:57:01 2.9 C 83 % 0.31 C
3389 08-03-2004 06:09:01 3.1 C 82 % 0.33 C
3390 08-03-2004 06:21:01 2.8 C 82 % 0.04 C
3391 08-03-2004 06:33:01 2.8 C 83 % 0.21 C
3392 08-03-2004 06:45:01 2.8 C 82 % 0.04 C
3393 08-03-2004 06:57:01 2.8 C 81 % -0.13 C
3394 08-03-2004 07:09:01 2.7 C 80 % -0.4 C
3395 08-03-2004 07:21:01 2.7 C 78 % -0.74 C
3396 08-03-2004 07:33:01 2.5 C 75 % -1.47 C
3397 08-03-2004 07:45:01 2.4 C 74 % -1.75 C
3398 08-03-2004 07:57:01 2.3 C 72 % -2.22 C
3399 08-03-2004 08:09:00 2.2 C 71 % -2.5 C
3400 08-03-2004 08:21:59 2.3 C 71 % -2.4 C
Sensor: Nr:Datum:Temp:Feuchte:Taupunkt:
Aussen-T/F 3401 08-03-2004 08:33:58 2.2 C 70 % -2.69 C
3402 08-03-2004 08:45:01 2.3 C 70 % -2.59 C
3403 08-03-2004 08:57:01 2.4 C 69 % -2.69 C
3404 08-03-2004 09:09:01 2.4 C 68 % -2.89 C
3405 08-03-2004 09:21:01 2.4 C 66 % -3.29 C
3406 08-03-2004 09:33:01 2.4 C 65 % -3.49 C
3407 08-03-2004 09:45:00 2.4 C 65 % -3.49 C
3408 08-03-2004 09:57:00 2.6 C 65 % -3.3 C
3409 08-03-2004 10:09:00 3.1 C 64 % -3.03 C
3410 08-03-2004 10:21:58 3.4 C 60 % -3.61 C
3411 08-03-2004 10:33:57 3.6 C 60 % -3.42 C
3412 08-03-2004 10:45:01 3.6 C 58 % -3.87 C
3413 08-03-2004 10:57:01 3.5 C 57 % -4.2 C
3414 08-03-2004 11:09:01 3.7 C 58 % -3.78 C
3415 08-03-2004 11:21:01 4 C 52 % -4.95 C
3416 08-03-2004 11:33:01 4.3 C 52 % -4.67 C
3417 08-03-2004 11:45:01 4 C 50 % -5.46 C
3418 08-03-2004 11:57:01 4 C 48 % -6 C
3419 08-03-2004 12:09:00 4.6 C 48 % -5.45 C
3420 08-03-2004 12:21:58 4.6 C 48 % -5.45 C
3421 08-03-2004 12:33:57 5.1 C 46 % -5.54 C
3422 08-03-2004 12:45:01 5.2 C 42 % -6.64 C
3423 08-03-2004 12:57:01 5 C 42 % -6.82 C
3424 08-03-2004 13:09:01 5.5 C 40 % -7 C
3425 08-03-2004 13:21:01 6.3 C 40 % -6.28 C
Sensor: Nr:Datum:Temp:Feuchte:Taupunkt:
Aussen-T/F 3426 08-03-2004 13:33:01 6 C 39 % -6.88 C
3427 08-03-2004 13:45:00 6.1 C 37 % -7.47 C
3428 08-03-2004 13:57:00 6.5 C 35 % -7.83 C
3429 08-03-2004 14:09:59 7 C 33 % -8.15 C
3430 08-03-2004 14:21:58 7.2 C 31 % -8.77 C
3431 08-03-2004 14:33:57 7.6 C 32 % -8.01 C
3432 08-03-2004 14:45:01 7.9 C 30 % -8.58 C
3433 08-03-2004 14:57:01 8.7 C 30 % -7.88 C
3434 08-03-2004 15:09:01 8.9 C 26 % -9.53 C
3435 08-03-2004 15:21:01 9 C 26 % -9.45 C
3436 08-03-2004 15:33:01 9.2 C 20 % -12.56 C
3437 08-03-2004 15:45:01 9 C 20 % -12.72 C
3438 08-03-2004 15:57:01 9.5 C 20 % -12.31 C
3439 08-03-2004 16:09:01 9.8 C 20 % -12.06 C
3440 08-03-2004 16:21:01 9.2 C 20 % -12.56 C
3441 08-03-2004 16:33:01 9.5 C 20 % -12.31 C
3442 08-03-2004 16:45:01 8.7 C 20 % -12.97 C
3443 08-03-2004 16:57:01 8.7 C 20 % -12.97 C
3444 08-03-2004 17:09:00 8.9 C 23 % -11.07 C
3445 08-03-2004 17:21:59 7.9 C 23 % -11.92 C
3446 08-03-2004 17:33:58 7.6 C 25 % -11.14 C
3447 08-03-2004 17:45:00 7.5 C 20 % -13.97 C
3448 08-03-2004 17:57:00 7.1 C 20 % -14.3 C
3449 08-03-2004 18:09:00 6.2 C 26 % -11.85 C
3450 08-03-2004 18:21:58 5.4 C 31 % -10.34 C
Sensor: Nr:Datum:Temp:Feuchte:Taupunkt:
Aussen-T/F 3451 08-03-2004 18:33:57 5.1 C 34 % -9.44 C
3452 08-03-2004 18:45:01 4.6 C 37 % -8.81 C
3453 08-03-2004 18:57:01 4.4 C 39 % -8.32 C
3454 08-03-2004 19:09:01 4.3 C 39 % -8.41 C
3455 08-03-2004 19:21:01 4.2 C 40 % -8.17 C
3456 08-03-2004 19:33:02 4 C 41 % -8.04 C
3457 08-03-2004 19:45:00 3.8 C 43 % -7.61 C
3458 08-03-2004 19:57:00 3.6 C 45 % -7.2 C
3459 08-03-2004 20:09:00 3.4 C 46 % -7.1 C
3460 08-03-2004 20:21:58 3.2 C 48 % -6.73 C
3461 08-03-2004 20:33:57 3 C 49 % -6.65 C
3462 08-03-2004 20:45:01 2.8 C 50 % -6.57 C
3463 08-03-2004 20:57:01 2.5 C 54 % -5.85 C
3464 08-03-2004 21:09:01 2.4 C 54 % -5.94 C
3465 08-03-2004 21:21:01 2.1 C 56 % -5.74 C
3466 08-03-2004 21:33:01 1.8 C 58 % -5.57 C
3467 08-03-2004 21:45:00 1.6 C 58 % -5.75 C
3468 08-03-2004 21:57:00 1.5 C 61 % -5.19 C
3469 08-03-2004 22:09:00 1.3 C 61 % -5.37 C
3470 08-03-2004 22:21:58 1.3 C 60 % -5.59 C
3471 08-03-2004 22:33:57 1.4 C 59 % -5.72 C
3472 08-03-2004 22:45:01 1.4 C 60 % -5.5 C
3473 08-03-2004 22:57:01 1.3 C 60 % -5.59 C
3474 08-03-2004 23:09:01 1.3 C 60 % -5.59 C
3475 08-03-2004 23:21:01 1.3 C 61 % -5.37 C
Sensor: Nr:Datum:Temp:Feuchte:Taupunkt:
Aussen-T/F 3476 08-03-2004 23:33:01 1.4 C 61 % -5.28 C
3477 08-03-2004 23:45:01 1.4 C 61 % -5.28 C
3478 08-03-2004 23:57:01 1.7 C 62 % -4.78 C
3479 09-03-2004 00:09:01 1.6 C 61 % -5.09 C
3480 09-03-2004 00:21:01 1.5 C 61 % -5.19 C
3481 09-03-2004 00:33:01 1.2 C 63 % -5.05 C
3482 09-03-2004 00:45:00 1.2 C 64 % -4.84 C
3483 09-03-2004 00:57:00 1.5 C 64 % -4.55 C
3484 09-03-2004 01:09:00 1.1 C 67 % -4.33 C
3485 09-03-2004 01:21:59 1 C 74 % -3.1 C
3486 09-03-2004 01:33:57 0.8 C 78 % -2.59 C
3487 09-03-2004 01:45:01 0.7 C 79 % -2.51 C
3488 09-03-2004 01:57:01 0.8 C 81 % -2.08 C
3489 09-03-2004 02:09:01 1.1 C 81 % -1.79 C
3490 09-03-2004 02:21:01 1.2 C 83 % -1.36 C
3491 09-03-2004 02:33:01 1.2 C 82 % -1.52 C
3492 09-03-2004 02:46:01 1.1 C 82 % -1.62 C
3493 09-03-2004 02:58:01 1.2 C 82 % -1.52 C
3494 09-03-2004 03:10:00 1 C 81 % -1.88 C
3495 09-03-2004 03:22:00 1.1 C 82 % -1.62 C
3496 09-03-2004 03:34:01 1 C 82 % -1.72 C
3497 09-03-2004 03:46:01 1.2 C 82 % -1.52 C
3498 09-03-2004 03:58:01 1.3 C 82 % -1.43 C
3499 09-03-2004 04:10:00 1 C 81 % -1.88 C
3500 09-03-2004 04:22:00 0.4 C 81 % -2.47 C
Sensor: Nr:Datum:Temp:Feuchte:Taupunkt:
Aussen-T/F 3501 09-03-2004 04:34:00 0.3 C 82 % -2.4 C
3502 09-03-2004 04:46:01 0.3 C 83 % -2.24 C
3503 09-03-2004 04:58:01 0.3 C 84 % -2.08 C
3504 09-03-2004 05:10:01 0.4 C 84 % -1.98 C
3505 09-03-2004 05:22:01 0.4 C 84 % -1.98 C
3506 09-03-2004 05:34:00 0.4 C 84 % -1.98 C
3507 09-03-2004 05:46:01 0.4 C 84 % -1.98 C
3508 09-03-2004 05:58:01 0.3 C 81 % -2.57 C
3509 09-03-2004 06:10:01 0.3 C 80 % -2.73 C
3510 09-03-2004 06:22:01 0.3 C 80 % -2.73 C
3511 09-03-2004 06:34:01 0.2 C 80 % -2.83 C
3512 09-03-2004 06:46:00 0.1 C 81 % -2.76 C
3513 09-03-2004 06:58:00 0 C 80 % -3.03 C
3514 09-03-2004 07:10:00 0 C 80 % -3.03 C
3515 09-03-2004 07:22:58 0.1 C 81 % -2.76 C
3516 09-03-2004 07:34:57 0.1 C 80 % -2.93 C
3517 09-03-2004 07:46:01 0.2 C 80 % -2.83 C
3518 09-03-2004 07:58:01 0.2 C 80 % -2.83 C
3519 09-03-2004 08:10:01 0.2 C 80 % -2.83 C
3520 09-03-2004 08:22:01 0.4 C 80 % -2.64 C
3521 09-03-2004 08:34:01 0.5 C 80 % -2.54 C
3522 09-03-2004 08:46:01 0.4 C 79 % -2.81 C
3523 09-03-2004 08:58:01 0.2 C 79 % -3 C
3524 09-03-2004 09:10:01 0 C 79 % -3.2 C
3525 09-03-2004 09:22:01 0 C 78 % -3.37 C
Sensor: Nr:Datum:Temp:Feuchte:Taupunkt:
Aussen-T/F 3526 09-03-2004 09:34:01 0.2 C 75 % -3.69 C
3527 09-03-2004 09:46:00 0.5 C 73 % -3.76 C
3528 09-03-2004 09:58:00 0.7 C 70 % -4.13 C
3529 09-03-2004 10:10:00 1.2 C 65 % -4.63 C
3530 09-03-2004 10:22:59 1.6 C 63 % -4.67 C
3531 09-03-2004 10:34:58 2.2 C 58 % -5.19 C
3532 09-03-2004 10:46:01 2 C 56 % -5.84 C
3533 09-03-2004 10:58:01 1.8 C 58 % -5.57 C
3534 09-03-2004 11:10:01 1.7 C 56 % -6.12 C
3535 09-03-2004 11:22:01 2.1 C 55 % -5.98 C
3536 09-03-2004 11:34:01 2.4 C 53 % -6.18 C
3537 09-03-2004 11:46:00 2.8 C 49 % -6.83 C
3538 09-03-2004 11:58:00 2.9 C 51 % -6.22 C
3539 09-03-2004 12:10:00 4 C 51 % -5.2 C
3540 09-03-2004 12:22:58 4 C 46 % -6.55 C
3541 09-03-2004 12:34:57 4 C 48 % -6 C
3542 09-03-2004 12:46:01 4.1 C 47 % -6.18 C
3543 09-03-2004 12:58:01 4 C 47 % -6.27 C
3544 09-03-2004 13:10:01 3.9 C 49 % -5.82 C
3545 09-03-2004 13:22:01 4.3 C 47 % -6 C
3546 09-03-2004 13:34:01 4.7 C 44 % -6.49 C
3547 09-03-2004 13:46:00 4.7 C 41 % -7.4 C
3548 09-03-2004 13:58:00 4.8 C 43 % -6.7 C
3549 09-03-2004 14:10:59 4.7 C 42 % -7.09 C
3550 09-03-2004 14:22:58 4.8 C 43 % -6.7 C
Sensor: Nr:Datum:Temp:Feuchte:Taupunkt:
Aussen-T/F 3551 09-03-2004 14:34:57 4.9 C 43 % -6.61 C
3552 09-03-2004 14:46:01 4.8 C 43 % -6.7 C
3553 09-03-2004 14:58:01 5.1 C 42 % -6.73 C
3554 09-03-2004 15:10:01 5.1 C 40 % -7.36 C
3555 09-03-2004 15:22:01 4.8 C 39 % -7.96 C
3556 09-03-2004 15:34:01 4.6 C 41 % -7.49 C
3557 09-03-2004 15:46:01 4.5 C 41 % -7.58 C
3558 09-03-2004 15:58:01 4.5 C 40 % -7.9 C
3559 09-03-2004 16:10:01 4.8 C 39 % -7.96 C
3560 09-03-2004 16:22:01 5 C 37 % -8.45 C
3561 09-03-2004 16:34:01 4.7 C 38 % -8.38 C
3562 09-03-2004 16:46:01 4.3 C 38 % -8.74 C
3563 09-03-2004 16:58:01 4.5 C 39 % -8.23 C
3564 09-03-2004 17:10:00 4.4 C 41 % -7.68 C
3565 09-03-2004 17:22:58 3.9 C 40 % -8.44 C
3566 09-03-2004 17:34:57 3.8 C 40 % -8.53 C
3567 09-03-2004 17:46:01 3.6 C 40 % -8.71 C
3568 09-03-2004 17:58:01 3.5 C 42 % -8.18 C
3569 09-03-2004 18:10:02 3.2 C 42 % -8.45 C
3570 09-03-2004 18:22:02 2.9 C 48 % -7.01 C
3571 09-03-2004 18:34:02 2.7 C 46 % -7.74 C
3572 09-03-2004 18:46:03 2.4 C 48 % -7.47 C
3573 09-03-2004 18:58:03 2.2 C 49 % -7.39 C
3574 09-03-2004 19:10:01 2 C 50 % -7.31 C
3575 09-03-2004 19:22:59 1.7 C 52 % -7.08 C
Sensor: Nr:Datum:Temp:Feuchte:Taupunkt:
Aussen-T/F 3576 09-03-2004 19:34:58 1.3 C 53 % -7.21 C
3577 09-03-2004 19:46:02 1 C 54 % -7.24 C
3578 09-03-2004 19:58:02 0.7 C 58 % -6.6 C
3579 09-03-2004 20:10:01 0.4 C 59 % -6.66 C
3580 09-03-2004 20:22:01 0.3 C 61 % -6.32 C
3581 09-03-2004 20:34:01 0.1 C 62 % -6.3 C
3582 09-03-2004 20:46:01 0.1 C 63 % -6.09 C
3583 09-03-2004 20:58:01 0.1 C 64 % -5.88 C
3584 09-03-2004 21:10:01 -0.2 C 65 % -5.97 C
3585 09-03-2004 21:22:01 -0.3 C 65 % -6.07 C
3586 09-03-2004 21:34:01 -0.4 C 66 % -5.96 C
3587 09-03-2004 21:46:00 -0.3 C 65 % -6.07 C
3588 09-03-2004 21:58:00 -0.3 C 64 % -6.27 C
3589 09-03-2004 22:10:00 -0.3 C 64 % -6.27 C
3590 09-03-2004 22:22:59 -0.3 C 65 % -6.07 C
3591 09-03-2004 22:34:57 -0.2 C 65 % -5.97 C
3592 09-03-2004 22:46:01 -0.4 C 65 % -6.16 C
3593 09-03-2004 22:58:01 -0.4 C 66 % -5.96 C
3594 09-03-2004 23:10:01 -0.5 C 66 % -6.06 C
3595 09-03-2004 23:22:01 -0.6 C 66 % -6.16 C
3596 09-03-2004 23:34:01 -0.8 C 67 % -6.15 C
3597 09-03-2004 23:46:00 -0.7 C 68 % -5.86 C
3598 09-03-2004 23:58:00 -0.9 C 68 % -6.05 C
3599 10-03-2004 00:09:59 -0.6 C 69 % -5.57 C
3600 10-03-2004 00:22:58 -0.6 C 69 % -5.57 C
Sensor: Nr:Datum:Temp:Feuchte:Taupunkt:
Aussen-T/F 3601 10-03-2004 00:34:57 -0.7 C 69 % -5.67 C
3602 10-03-2004 00:46:01 -0.7 C 69 % -5.67 C
3603 10-03-2004 00:58:01 -0.5 C 70 % -5.29 C
3604 10-03-2004 01:10:01 -0.5 C 68 % -5.67 C
3605 10-03-2004 01:22:01 -0.7 C 69 % -5.67 C
3606 10-03-2004 01:34:01 -0.8 C 70 % -5.58 C
3607 10-03-2004 01:46:01 -0.7 C 71 % -5.29 C
3608 10-03-2004 01:58:01 -0.5 C 71 % -5.1 C
3609 10-03-2004 02:10:01 -0.4 C 71 % -5.01 C
3610 10-03-2004 02:22:01 -0.3 C 71 % -4.91 C
3611 10-03-2004 02:34:01 -0.2 C 71 % -4.81 C
3612 10-03-2004 02:47:01 -0.2 C 71 % -4.81 C
3613 10-03-2004 02:59:01 -0.2 C 72 % -4.63 C
3614 10-03-2004 03:11:00 -0.2 C 72 % -4.63 C
3615 10-03-2004 03:23:00 -0.2 C 74 % -4.26 C
3616 10-03-2004 03:35:01 -0.3 C 74 % -4.36 C
3617 10-03-2004 03:47:01 -0.3 C 76 % -4.01 C
3618 10-03-2004 03:59:01 -0.3 C 76 % -4.01 C
3619 10-03-2004 04:11:01 -0.2 C 76 % -3.91 C
3620 10-03-2004 04:23:00 -0.3 C 76 % -4.01 C
3621 10-03-2004 04:35:00 -0.2 C 77 % -3.74 C
3622 10-03-2004 04:47:01 -0.2 C 78 % -3.56 C
3623 10-03-2004 04:59:01 -0.3 C 78 % -3.66 C
3624 10-03-2004 05:11:01 -0.2 C 79 % -3.39 C
3625 10-03-2004 05:23:01 -0.3 C 79 % -3.49 C
Sensor: Nr:Datum:Temp:Feuchte:Taupunkt:
Aussen-T/F 3626 10-03-2004 05:35:01 -0.4 C 79 % -3.59 C
3627 10-03-2004 05:47:01 -0.4 C 79 % -3.59 C
3628 10-03-2004 05:59:01 -0.4 C 79 % -3.59 C
3629 10-03-2004 06:11:01 -0.4 C 79 % -3.59 C
3630 10-03-2004 06:23:01 -0.4 C 79 % -3.59 C
3631 10-03-2004 06:35:01 -0.4 C 79 % -3.59 C
3632 10-03-2004 06:47:00 -0.3 C 79 % -3.49 C
3633 10-03-2004 06:59:00 -0.3 C 79 % -3.49 C
3634 10-03-2004 07:11:00 -0.3 C 78 % -3.66 C
3635 10-03-2004 07:23:58 -0.4 C 78 % -3.76 C
3636 10-03-2004 07:35:57 -0.3 C 78 % -3.66 C
3637 10-03-2004 07:47:02 -0.3 C 78 % -3.66 C
3638 10-03-2004 07:59:02 -0.2 C 79 % -3.39 C
3639 10-03-2004 08:11:01 0 C 79 % -3.2 C
3640 10-03-2004 08:23:01 0 C 79 % -3.2 C
3641 10-03-2004 08:35:01 0.1 C 79 % -3.1 C
3642 10-03-2004 08:47:00 0.2 C 79 % -3 C
3643 10-03-2004 08:59:00 0.4 C 78 % -2.98 C
3644 10-03-2004 09:11:00 0.6 C 77 % -2.96 C
3645 10-03-2004 09:23:58 0.7 C 77 % -2.86 C
3646 10-03-2004 09:35:57 0.7 C 75 % -3.21 C
3647 10-03-2004 09:47:01 1 C 74 % -3.1 C
3648 10-03-2004 09:59:01 1 C 74 % -3.1 C
3649 10-03-2004 10:11:01 1.1 C 74 % -3 C
3650 10-03-2004 10:23:01 1.1 C 73 % -3.19 C
Sensor: Nr:Datum:Temp:Feuchte:Taupunkt:
Aussen-T/F 3651 10-03-2004 10:35:01 1.2 C 73 % -3.09 C
3652 10-03-2004 10:47:01 1.2 C 73 % -3.09 C
3653 10-03-2004 10:59:01 1.2 C 74 % -2.91 C
3654 10-03-2004 11:11:01 1.6 C 75 % -2.34 C
3655 10-03-2004 11:23:01 1.8 C 74 % -2.33 C
3656 10-03-2004 11:35:01 1.9 C 73 % -2.41 C
3657 10-03-2004 11:47:00 1.9 C 73 % -2.41 C
3658 10-03-2004 11:59:00 1.9 C 74 % -2.23 C
3659 10-03-2004 12:11:00 1.9 C 75 % -2.05 C
3660 10-03-2004 12:23:59 2.2 C 73 % -2.13 C
3661 10-03-2004 12:35:58 2 C 72 % -2.5 C
3662 10-03-2004 12:47:01 1.7 C 74 % -2.42 C
3663 10-03-2004 12:59:01 2 C 74 % -2.13 C
3664 10-03-2004 13:11:02 2 C 73 % -2.32 C
3665 10-03-2004 13:23:01 2.3 C 74 % -1.85 C
3666 10-03-2004 13:35:01 2.4 C 73 % -1.93 C
3667 10-03-2004 13:47:00 2.2 C 72 % -2.31 C
3668 10-03-2004 13:59:00 2.4 C 70 % -2.5 C
3669 10-03-2004 14:11:00 2.7 C 68 % -2.6 C
3670 10-03-2004 14:23:58 2.3 C 70 % -2.59 C
3671 10-03-2004 14:35:57 2.5 C 71 % -2.21 C
3672 10-03-2004 14:47:01 2.8 C 71 % -1.92 C
3673 10-03-2004 14:59:01 3.4 C 67 % -2.13 C
3674 10-03-2004 15:11:01 3.6 C 66 % -2.14 C
3675 10-03-2004 15:23:01 3.4 C 66 % -2.33 C
Sensor: Nr:Datum:Temp:Feuchte:Taupunkt:
Aussen-T/F 3676 10-03-2004 15:35:01 3.2 C 66 % -2.53 C
3677 10-03-2004 15:47:00 3.2 C 66 % -2.53 C
3678 10-03-2004 15:59:00 3.4 C 66 % -2.33 C
3679 10-03-2004 16:11:59 3.2 C 66 % -2.53 C
3680 10-03-2004 16:23:58 3 C 66 % -2.72 C
3681 10-03-2004 16:35:57 3 C 67 % -2.51 C
3682 10-03-2004 16:47:01 3.2 C 67 % -2.32 C
3683 10-03-2004 16:59:01 2.7 C 68 % -2.6 C
3684 10-03-2004 17:11:01 2.2 C 71 % -2.5 C
3685 10-03-2004 17:23:01 2.2 C 74 % -1.94 C
3686 10-03-2004 17:35:00 2.2 C 74 % -1.94 C
3687 10-03-2004 17:47:01 2.1 C 75 % -1.86 C
3688 10-03-2004 17:59:01 2 C 75 % -1.95 C
3689 10-03-2004 18:11:01 1.8 C 76 % -1.97 C
3690 10-03-2004 18:23:01 1.7 C 77 % -1.89 C
3691 10-03-2004 18:35:01 1.4 C 78 % -2.01 C
3692 10-03-2004 18:47:00 1.3 C 79 % -1.93 C
3693 10-03-2004 18:59:00 1.3 C 79 % -1.93 C
3694 10-03-2004 19:11:00 1.3 C 79 % -1.93 C
3695 10-03-2004 19:23:01 1.2 C 79 % -2.03 C
3696 10-03-2004 19:35:00 1.2 C 80 % -1.86 C
3697 10-03-2004 19:47:01 1.2 C 80 % -1.86 C
3698 10-03-2004 19:59:01 1.3 C 81 % -1.59 C
3699 10-03-2004 20:11:02 1.4 C 81 % -1.49 C
3700 10-03-2004 20:23:01 1.1 C 80 % -1.96 C
Sensor: Nr:Datum:Temp:Feuchte:Taupunkt:
Aussen-T/F 3701 10-03-2004 20:35:01 0.7 C 80 % -2.34 C
3702 10-03-2004 20:47:01 0.5 C 81 % -2.37 C
3703 10-03-2004 20:59:01 0.5 C 82 % -2.21 C
3704 10-03-2004 21:11:00 0.6 C 82 % -2.11 C
3705 10-03-2004 21:23:59 0.7 C 82 % -2.01 C
3706 10-03-2004 21:35:58 0.6 C 83 % -1.95 C
3707 10-03-2004 21:47:01 0.6 C 84 % -1.78 C
3708 10-03-2004 21:59:01 0.5 C 84 % -1.88 C
3709 10-03-2004 22:11:01 0.6 C 85 % -1.62 C
3710 10-03-2004 22:23:01 0.7 C 85 % -1.53 C
3711 10-03-2004 22:35:01 0.7 C 85 % -1.53 C
3712 10-03-2004 22:47:00 0.6 C 84 % -1.78 C
3713 10-03-2004 22:59:00 0.5 C 84 % -1.88 C
3714 10-03-2004 23:11:00 0.3 C 84 % -2.08 C
3715 10-03-2004 23:23:58 0.2 C 84 % -2.18 C
3716 10-03-2004 23:35:57 -0.2 C 84 % -2.57 C
3717 10-03-2004 23:47:01 -0.3 C 84 % -2.67 C
3718 10-03-2004 23:59:01 -0.3 C 84 % -2.67 C
3719 11-03-2004 00:11:01 -0.4 C 84 % -2.77 C
3720 11-03-2004 00:23:01 -0.7 C 83 % -3.22 C
3721 11-03-2004 00:35:01 -0.8 C 83 % -3.32 C
3722 11-03-2004 00:47:01 -1 C 83 % -3.51 C
3723 11-03-2004 00:59:01 -1.1 C 83 % -3.61 C
3724 11-03-2004 01:11:01 -1.1 C 83 % -3.61 C
3725 11-03-2004 01:23:01 -1.3 C 83 % -3.81 C
Sensor: Nr:Datum:Temp:Feuchte:Taupunkt:
Aussen-T/F 3726 11-03-2004 01:35:01 -1.3 C 84 % -3.65 C
3727 11-03-2004 01:47:00 -1.3 C 83 % -3.81 C
3728 11-03-2004 01:59:00 -1.3 C 83 % -3.81 C
3729 11-03-2004 02:11:00 -1.4 C 83 % -3.91 C
3730 11-03-2004 02:23:59 -1.1 C 84 % -3.45 C
3731 11-03-2004 02:35:57 -1 C 84 % -3.35 C
3732 11-03-2004 02:48:02 -0.8 C 85 % -3 C
3733 11-03-2004 03:00:02 -0.8 C 85 % -3 C
3734 11-03-2004 03:12:02 -0.8 C 84 % -3.16 C
3735 11-03-2004 03:24:02 -0.7 C 84 % -3.06 C
3736 11-03-2004 03:36:00 -0.7 C 84 % -3.06 C
3737 11-03-2004 03:48:00 -0.7 C 84 % -3.06 C
3738 11-03-2004 04:00:00 -0.7 C 84 % -3.06 C
3739 11-03-2004 04:12:59 -0.7 C 84 % -3.06 C
3740 11-03-2004 04:24:58 -0.7 C 84 % -3.06 C
3741 11-03-2004 04:36:57 -0.6 C 84 % -2.96 C
3742 11-03-2004 04:48:01 -0.7 C 84 % -3.06 C
3743 11-03-2004 05:00:01 -0.7 C 84 % -3.06 C
3744 11-03-2004 05:12:01 -0.7 C 84 % -3.06 C
3745 11-03-2004 05:24:01 -0.7 C 84 % -3.06 C
3746 11-03-2004 05:36:01 -0.7 C 84 % -3.06 C
3747 11-03-2004 05:48:01 -0.6 C 83 % -3.12 C
3748 11-03-2004 06:00:01 -0.7 C 83 % -3.22 C
3749 11-03-2004 06:12:01 -0.7 C 83 % -3.22 C
3750 11-03-2004 06:24:01 -0.6 C 83 % -3.12 C
Sensor: Nr:Datum:Temp:Feuchte:Taupunkt:
Aussen-T/F 3751 11-03-2004 06:36:01 -0.6 C 83 % -3.12 C
3752 11-03-2004 06:48:00 -0.6 C 83 % -3.12 C
3753 11-03-2004 07:00:00 -0.7 C 83 % -3.22 C
3754 11-03-2004 07:12:00 -0.7 C 82 % -3.38 C
3755 11-03-2004 07:24:59 -0.7 C 82 % -3.38 C
3756 11-03-2004 07:36:58 -0.7 C 82 % -3.38 C
3757 11-03-2004 07:48:01 -0.5 C 82 % -3.19 C
3758 11-03-2004 08:00:01 -0.5 C 82 % -3.19 C
3759 11-03-2004 08:12:01 -0.5 C 82 % -3.19 C
3760 11-03-2004 08:24:01 -0.3 C 82 % -2.99 C
3761 11-03-2004 08:36:01 -0.3 C 81 % -3.16 C
3762 11-03-2004 08:48:01 -0.1 C 81 % -2.96 C
3763 11-03-2004 09:00:01 -0.1 C 81 % -2.96 C
3764 11-03-2004 09:12:01 0 C 80 % -3.03 C
3765 11-03-2004 09:24:01 0.1 C 80 % -2.93 C
3766 11-03-2004 09:36:01 0.4 C 80 % -2.64 C
3767 11-03-2004 09:48:00 1 C 78 % -2.39 C
3768 11-03-2004 10:00:00 1.2 C 77 % -2.37 C
3769 11-03-2004 10:12:00 1.2 C 77 % -2.37 C
3770 11-03-2004 10:24:58 1.6 C 76 % -2.16 C
3771 11-03-2004 10:36:57 2 C 75 % -1.95 C
3772 11-03-2004 10:48:02 2 C 71 % -2.69 C
3773 11-03-2004 11:00:02 2.5 C 71 % -2.21 C
3774 11-03-2004 11:12:01 2.7 C 70 % -2.21 C
3775 11-03-2004 11:24:01 2.7 C 69 % -2.4 C
Sensor: Nr:Datum:Temp:Feuchte:Taupunkt:
Aussen-T/F 3776 11-03-2004 11:36:01 2.9 C 69 % -2.21 C
3777 11-03-2004 11:48:01 3.2 C 68 % -2.12 C
3778 11-03-2004 12:00:01 3.1 C 67 % -2.42 C
3779 11-03-2004 12:12:02 2.9 C 66 % -2.81 C
3780 11-03-2004 12:24:01 3.1 C 64 % -3.03 C
3781 11-03-2004 12:36:01 2.9 C 65 % -3.02 C
3782 11-03-2004 12:48:00 3.5 C 63 % -2.86 C
3783 11-03-2004 13:00:00 4 C 60 % -3.05 C
3784 11-03-2004 13:12:00 4.1 C 61 % -2.73 C
3785 11-03-2004 13:24:59 3.6 C 61 % -3.2 C
3786 11-03-2004 13:36:57 3.8 C 63 % -2.58 C
3787 11-03-2004 13:48:01 3.6 C 60 % -3.42 C
3788 11-03-2004 14:00:01 4.1 C 57 % -3.64 C
3789 11-03-2004 14:12:01 4.5 C 57 % -3.26 C
3790 11-03-2004 14:24:01 4.7 C 58 % -2.84 C
3791 11-03-2004 14:36:01 4.1 C 55 % -4.11 C
3792 11-03-2004 14:48:00 4.1 C 60 % -2.95 C
3793 11-03-2004 15:00:00 4.2 C 59 % -3.08 C
3794 11-03-2004 15:11:59 4.3 C 58 % -3.22 C
3795 11-03-2004 15:24:58 4.3 C 55 % -3.93 C
3796 11-03-2004 15:36:57 3.9 C 60 % -3.14 C
3797 11-03-2004 15:48:01 3.2 C 64 % -2.94 C
3798 11-03-2004 16:00:01 3.1 C 67 % -2.42 C
3799 11-03-2004 16:12:01 3 C 70 % -1.92 C
3800 11-03-2004 16:24:01 2.9 C 72 % -1.64 C
Sensor: Nr:Datum:Temp:Feuchte:Taupunkt:
Aussen-T/F 3801 11-03-2004 16:36:01 2.7 C 74 % -1.46 C
3802 11-03-2004 16:48:01 2.7 C 75 % -1.28 C
3803 11-03-2004 17:00:01 2.6 C 75 % -1.37 C
3804 11-03-2004 17:12:01 2.6 C 76 % -1.19 C
3805 11-03-2004 17:24:01 2.3 C 77 % -1.31 C
3806 11-03-2004 17:36:01 2.2 C 77 % -1.4 C
3807 11-03-2004 17:48:01 2.4 C 79 % -0.86 C
3808 11-03-2004 18:00:01 2.3 C 79 % -0.96 C
3809 11-03-2004 18:12:01 2.2 C 79 % -1.05 C
3810 11-03-2004 18:24:02 1.9 C 80 % -1.18 C
3811 11-03-2004 18:36:02 1.9 C 80 % -1.18 C
3812 11-03-2004 18:48:02 1.7 C 81 % -1.2 C
3813 11-03-2004 19:00:02 1.4 C 81 % -1.49 C
3814 11-03-2004 19:12:02 1.3 C 82 % -1.43 C
3815 11-03-2004 19:24:01 1.2 C 82 % -1.52 C
3816 11-03-2004 19:36:02 1.1 C 82 % -1.62 C
3817 11-03-2004 19:48:02 1.3 C 83 % -1.26 C
3818 11-03-2004 20:00:02 1.2 C 83 % -1.36 C
3819 11-03-2004 20:12:02 1.2 C 83 % -1.36 C
3820 11-03-2004 20:24:01 1.2 C 83 % -1.36 C
3821 11-03-2004 20:36:01 1.2 C 83 % -1.36 C
3822 11-03-2004 20:48:01 1.3 C 84 % -1.1 C
3823 11-03-2004 21:00:01 1.4 C 84 % -1 C
3824 11-03-2004 21:12:00 1.3 C 84 % -1.1 C
3825 11-03-2004 21:24:59 1.4 C 83 % -1.16 C
Sensor: Nr:Datum:Temp:Feuchte:Taupunkt:
Aussen-T/F 3826 11-03-2004 21:36:58 1.3 C 83 % -1.26 C
3827 11-03-2004 21:48:01 1.3 C 83 % -1.26 C
3828 11-03-2004 22:00:01 1.3 C 83 % -1.26 C
3829 11-03-2004 22:12:01 1.3 C 83 % -1.26 C
3830 11-03-2004 22:24:02 1.3 C 83 % -1.26 C
3831 11-03-2004 22:36:01 1.3 C 82 % -1.43 C
3832 11-03-2004 22:48:01 1.3 C 83 % -1.26 C
3833 11-03-2004 23:00:01 1.2 C 82 % -1.52 C
3834 11-03-2004 23:12:01 1.2 C 83 % -1.36 C
3835 11-03-2004 23:24:59 1.3 C 83 % -1.26 C
3836 11-03-2004 23:36:58 1.2 C 83 % -1.36 C
3837 11-03-2004 23:48:01 1.2 C 83 % -1.36 C
3838 12-03-2004 00:00:01 1.1 C 82 % -1.62 C
3839 12-03-2004 00:12:01 1.2 C 82 % -1.52 C
3840 12-03-2004 00:24:00 1.2 C 82 % -1.52 C
3841 12-03-2004 00:36:00 1.1 C 82 % -1.62 C
3842 12-03-2004 00:48:01 1.1 C 82 % -1.62 C
3843 12-03-2004 01:00:01 1 C 82 % -1.72 C
3844 12-03-2004 01:12:01 1 C 82 % -1.72 C
3845 12-03-2004 01:24:00 0.9 C 82 % -1.82 C
3846 12-03-2004 01:36:00 0.9 C 82 % -1.82 C
3847 12-03-2004 01:48:01 0.9 C 82 % -1.82 C
3848 12-03-2004 02:00:01 0.9 C 82 % -1.82 C
3849 12-03-2004 02:12:01 0.9 C 82 % -1.82 C
3850 12-03-2004 02:24:01 0.5 C 81 % -2.37 C
Sensor: Nr:Datum:Temp:Feuchte:Taupunkt:
Aussen-T/F 3851 12-03-2004 02:36:01 0.3 C 81 % -2.57 C
3852 12-03-2004 02:49:02 0.1 C 80 % -2.93 C
3853 12-03-2004 03:01:02 -0.4 C 80 % -3.42 C
3854 12-03-2004 03:13:02 -0.7 C 80 % -3.71 C
3855 12-03-2004 03:25:02 -0.9 C 81 % -3.74 C
3856 12-03-2004 03:37:00 -1 C 82 % -3.68 C
3857 12-03-2004 03:49:00 -1.2 C 82 % -3.87 C
3858 12-03-2004 04:01:00 -1.3 C 82 % -3.97 C
3859 12-03-2004 04:13:00 -1.2 C 83 % -3.71 C
3860 12-03-2004 04:25:59 -1.1 C 83 % -3.61 C
3861 12-03-2004 04:37:58 -1.1 C 83 % -3.61 C
3862 12-03-2004 04:49:01 -1 C 83 % -3.51 C
3863 12-03-2004 05:01:01 -1 C 84 % -3.35 C
3864 12-03-2004 05:13:01 -0.8 C 84 % -3.16 C
3865 12-03-2004 05:25:01 -0.7 C 84 % -3.06 C
3866 12-03-2004 05:37:00 -0.6 C 84 % -2.96 C
3867 12-03-2004 05:49:01 -0.4 C 83 % -2.93 C
3868 12-03-2004 06:01:01 -0.4 C 82 % -3.09 C
3869 12-03-2004 06:13:01 -0.6 C 81 % -3.45 C
3870 12-03-2004 06:25:01 -0.5 C 81 % -3.35 C
3871 12-03-2004 06:37:01 -0.4 C 81 % -3.25 C
3872 12-03-2004 06:49:00 -0.1 C 78 % -3.47 C
3873 12-03-2004 07:01:59 -0.1 C 77 % -3.64 C
3874 12-03-2004 07:12:59 -0.2 C 78 % -3.56 C
3875 12-03-2004 07:25:59 0 C 78 % -3.37 C
Sensor: Nr:Datum:Temp:Feuchte:Taupunkt:
Aussen-T/F 3876 12-03-2004 07:37:58 0 C 78 % -3.37 C
3877 12-03-2004 07:49:01 0.3 C 76 % -3.42 C
3878 12-03-2004 08:01:00 0.6 C 74 % -3.49 C
3879 12-03-2004 08:13:00 1 C 70 % -3.84 C
3880 12-03-2004 08:25:00 1.2 C 69 % -3.84 C
3881 12-03-2004 08:37:01 1.5 C 69 % -3.55 C
3882 12-03-2004 08:49:01 1.7 C 67 % -3.75 C
3883 12-03-2004 09:01:01 1.7 C 65 % -4.16 C
3884 12-03-2004 09:13:01 1.8 C 65 % -4.06 C
3885 12-03-2004 09:25:01 2.2 C 65 % -3.68 C
3886 12-03-2004 09:37:01 2.3 C 61 % -4.43 C
3887 12-03-2004 09:49:01 2.4 C 61 % -4.34 C
3888 12-03-2004 10:01:01 2.9 C 61 % -3.86 C
3889 12-03-2004 10:13:01 3.3 C 58 %